Aviation Digital Data Service (ADDS)

Output produced by METARs form (1912 UTC 31 January 2015)
found at http://aviationweather.gov/adds/metars/
 
K04V 311849Z AUTO 16004KT 3SM -SN BKN006 BKN023 OVC049 00/M01 A2988 RMK AO2
K04W 311854Z AUTO 34008KT 10SM CLR M02/M10 A3022 RMK AO2
K06D 311855Z AUTO 03015KT 10SM CLR M21/M25 A3042 RMK AO2
K08D 311855Z AUTO 06013G20KT 2SM -SN SCT003 M17/M19 A3030 RMK AO2 P0009
K0A9 311855Z AUTO 27006KT 10SM CLR 05/M16 A3031 RMK
K0CO 311855Z AUTO 31012G17KT OVC001 M07/M10 A2988 RMK AO2 P0001 PWINO
K0E0 311855Z AUTO 00000KT 10SM OVC004 01/00 A2991 RMK AO2 T00091004
K0F2 311850Z AUTO 12009KT 10SM OVC021 09/01 A3006 RMK AO2 T00880013
K0J4 311858Z AUTO VRB04KT 10SM 16/M04 A3030 RMK AO2 SLP261 T01561039 $
K0V4 311855Z AUTO 27009KT 250V310 10SM CLR 08/M14 A3026 RMK AO1 T00771141
K0VG 311855Z AUTO 22003KT 10SM CLR 04/M11 A3034 RMK AO2
K11R 311855Z AUTO 12010G17KT 10SM SCT025 17/10 A3010 RMK AO2 T01700104
K12N 311854Z AUTO M05/M18 A3012 RMK AO1 SLP216 T10501178
K14Y 311855Z AUTO 35007KT 10SM SCT100 M04/M13 A3021 RMK AO2
K19A 311855Z AUTO 21004KT 10SM CLR 10/M07 A3031 RMK AO2
K1A5 311855Z AUTO 00000KT 10SM 07/M14 A3028 RMK AO2 T00731145
K1A6 311855Z AUTO 00000KT 10SM CLR 05/M08 A3033 RMK AO2 T00471085
K1A9 311855Z AUTO 07006KT 10SM CLR 13/M05 A3031 RMK AO2 T01281054
K1F0 311855Z AUTO 15007KT 10SM OVC041 08/01 A3009 RMK AO2
K1H2 311855Z AUTO 20004KT 10SM SCT075 SCT090 04/M05 A3031 RMK AO2 T00371046
K1II 311855Z AUTO 24009G14KT 10SM BKN100 03/M06 A3030 RMK AO2
K1J0 311858Z AUTO 12008KT 10SM CLR 16/M03 A3030 RMK AO2 SLP244 T01561028
K1K1 311855Z AUTO 18009G16KT 5SM -RA OVC006 04/03 A3005 RMK AO2 T00350027
K1L0 311855Z AUTO 08007KT 10SM CLR 16/07 A3023 RMK AO2 T01590067
K1M4 311856Z AUTO 00000KT 10SM 12/M13 A3031 RMK AO2 T01161133 SLP272 $
K1P1 311855Z AUTO 33007G15KT 300V020 10SM CLR M11/M21 A2994 RMK AO2 T11131213
K1R7 311855Z AUTO 15005KT CLR 14/M02 A3026 RMK AO2
K1V4 311854Z AUTO M13/M24 A2999 RMK AO1 SLP181 T11331239
K1V6 311855Z AUTO 13005KT 10SM SCT039 SCT050 SCT090 07/00 A2983 RMK AO2
K1YT 311856Z AUTO 07001KT 10SM OVC010 02/00 A3035 RMK AO2 SLPNO T00201005
K20U 311855Z AUTO 4SM -SN OVC005 M09/M09 A3012 RMK AO2
K20V 311855Z AUTO 00000KT 4SM -SN BKN032 OVC037 01/M01 A2988 RMK AO2
K21D 311851Z AUTO 36007KT 10SM OVC018 M02/M06 A3021 RMK AO2
K24J 311915Z AUTO 07006KT 10SM CLR 18/01 A3032 RMK AO1
K28J 311855Z AUTO 05011G14KT 10SM CLR 18/07 A3031 RMK AO2
K2C8 311855Z AUTO 35014G21KT 4SM HZ BKN009 OVC013 M20/M24 A3052 RMK AO2
K2D5 311855Z AUTO 03019G24KT 10SM M10/M17 A3028 RMK AO2
K2DP 311856Z AUTO 33016G23KT 10SM CLR 03/M14 A3031 RMK AO2 SLPNO T00311141
K2G4 311855Z AUTO 29009G15KT 10SM CLR M07/M14 A3012 RMK AO1
K2G9 311855Z AUTO 26006KT 10SM CLR M07/M12 A3017 RMK AO2
K2I0 311855Z AUTO 15003KT 10SM SCT120 07/M05 A3034 RMK AO2 T00721051
K2J9 311855Z AUTO 06003KT 10SM CLR 18/M02 A3032 RMK AO1
K2V5 311915Z AUTO 36005KT 10SM OVC007 02/01 A2986 RMK AO2 T00220007
K2W6 311853Z AUTO 28010G19KT 250V320 10SM CLR 00/M17 A3029 RMK AO1
K2WX 311856Z AUTO 10013KT M06/M07 A2997 RMK AO1 SLP186 T10561067
K33V 311855Z AUTO 35007KT 10SM OVC016 M01/M03 A2987 RMK AO2
K36U 311855Z AUTO 00000KT 10SM SCT023 05/M01 A3001 RMK AO2
K3D2 311855Z AUTO 35004KT 10SM OVC022 M03/M09 A3014 RMK AO2 T10351086
K3I2 311855Z AUTO 23006KT 10SM CLR 03/M07 A3034 RMK AO2
K3J7 311855Z AUTO 24003KT 10SM CLR 12/M06 A3030 RMK AO2
K3K3 311855Z AUTO 20009KT 10SM OVC017 06/03 A2983 RMK AO2
K3LF 311855Z AUTO 17005KT 10SM SCT035 BKN042 BKN050 02/M02 A3027 RMK AO2 T00201017
K3N8 311855Z AUTO 03013KT 10SM CLR M12/M19 A3031 RMK AO2 T11221192
K3R7 311855Z AUTO 12014KT 10SM CLR 17/08 A3019 RMK AO2 T01650082
K3T5 311855Z AUTO 13007KT 10SM BKN020 BKN027 OVC036 18/13 A3006 RMK AO2 T01780134
K40J 311855Z AUTO 12006KT 10SM CLR 17/01 A3031 RMK AO2 T01720007
K42J 311855Z AUTO 08005KT 10SM CLR 17/03 A3030 RMK AO1 TSNO
K46D 311855Z AUTO 10SM BKN050 M14/M19 A3034 RMK AO2
K4A6 311855Z AUTO 00000KT 10SM CLR 06/M05 A3034 RMK AO2
K4A9 311855Z AUTO 00000KT 10SM CLR 10/M12 A3030 RMK AO2
K4BM 311855Z AUTO 29006KT 1/4SM SN OVC002 A2988 RMK AO2
K4I3 311856Z AUTO 23011G15KT 10SM CLR 00/M08 A3026 RMK AO2
K4I7 311915Z AUTO 23006KT 10SM BKN038 02/M06 A3027 RMK AO2
K4M9 311855Z AUTO 07004KT 7SM CLR 07/M02 A3030 RMK AO2
K4MR 311856Z AUTO 20007KT 10SM OVC005 04/03 A2992 RMK AO2 DZB08E12SHRAB12E22DZB22E23 SLP132 T00360029
K4O4 311855Z AUTO 14007KT 10SM CLR 11/M01 A3018 RMK AO2
K54J 311855Z AUTO 06005KT 10SM CLR 15/M03 A3030 RMK AO2 T01531034
K5C1 311855Z AUTO 15004KT 1/4SM OVC002 11/10 A3005 RMK AO1 P0001
K5H4 311855Z AUTO 06016KT 3SM -SN FEW012 BKN018 BKN024 M16/M19 A3036 RMK AO2
K5M9 311855Z AUTO 26004KT 10SM BKN120 07/M06 A3032 RMK AO2 T00651058
K5R8 311855Z AUTO 12007KT 10SM BKN030 14/07 A3018 RMK AO2 T01420073
K5SM 311855Z AUTO 00000KT 1/4SM SN OVC002 M02/M03 RMK AO2
K65S 311855Z AUTO 23004KT 10SM OVC031 01/M03 A3025 RMK AO2
K66R 311855Z AUTO 13011G15KT 10SM OVC022 19/13 A3007 RMK AO2 T01930134
K6A2 311855Z AUTO 20003KT 10SM CLR 11/M06 A3032 RMK AO2
K6B0 311855Z AUTO 34009KT 10SM CLR M13/M24 A3010 RMK AO2 T11351244
K6I2 311850Z AUTO 21005KT 10SM CLR 03/M07 A3033 RMK AO2
K6L4 311855Z AUTO VRB04KT 6SM HZ CLR 02/M09 A3028 RMK AO2
K6R3 311854Z AUTO 14003KT 7SM OVC024 16/09 A3015 RMK AO2
K6R6 311853Z AUTO 11007KT 11/10 A2995 RMK AO1 SLP129 T01060100
K79J 311856Z AUTO VRB04KT 10SM CLR 18/M04 A3029 RMK AO2 SLP256 T01781039
K7BM 311854Z AUTO 00000KT 3/4SM BR OVC001 00/M01 A2986 RMK AO2
K7L2 311855Z AUTO 07013G19KT 10SM CLR M08/M14 A3023 RMK AO2
K7R4 311646Z 10005G20KT 7SM BKN030 12/04 A3027
K7W4 311855Z AUTO 25004KT 10SM CLR 03/M15 A3026 RMK AO1 T00251152
K82C 311855Z AUTO 00000KT 10SM OVC019 M01/M05 A3015 RMK AO2 T10101048
K82V 311855Z AUTO 34005KT 1 3/4SM -SN OVC007 00/M01 A2987 RMK AO2
K8A0 311855Z AUTO 00000KT 10SM CLR 11/M04 A3029 RMK AO2
K8D3 311856Z AUTO 03015KT M08/M14 A3025 RMK AO1 SLP275 T10831139
K8S0 311840Z 35011KT
K8W2 311855Z AUTO 00000KT 10SM CLR 01/M15 A3022 RMK AO1 T00101151
K96D 311855Z AUTO 01015G21KT 8SM M20/M23 A3054 RMK AO2
K9D7 311855Z AUTO 03012G19KT 10SM SCT100 M19/M25 A3044 RMK AO2
K9L2 311855Z AUTO 00000KT 10SM OVC070 13/04 A2998 RMK AO2 SLP152 T01330044 $
K9MN 311853Z AUTO 05003KT 10SM OVC013 M01/M05 A3015 RMK AO1 T10121047
K9V9 311855Z AUTO 05012G15KT 4SM BR OVC004 M04/M05 A3008 RMK AO2 T10451050
KA08 311855Z AUTO 00000KT 10SM CLR 12/M05 A3030 RMK AO2 T01221046
KAAA 311855Z AUTO 22006KT 10SM BKN070 05/M02 A3026 RMK AO2 T00471024
KAAF 311853Z AUTO 08012KT 10SM CLR 16/03 A3029 RMK AO2 SLP258 T01560028 TSNO
KAAO 311854Z AUTO 17013G20KT 8SM -RA OVC007 04/04 A3004 RMK AO2 CIG 006V012 SLP183 P0004 T00390039
KAAT 311855Z AUTO VRB03KT 10SM CLR 03/M03 A3022 RMK AO2 SLP250 T00331033 $
KABE 311851Z 32012G16KT 10SM CLR M04/M16 A3016 RMK AO2 SLP219 T10391161
KABH 311856Z AUTO 31003KT 10SM FEW050 A2982 RMK AO2 SLPNO $
KABI 311852Z 15011KT 4SM -RA BR OVC008 08/07 A3000 RMK AO2 CIG 006V011 SLP156 P0004 T00830072
KABQ 311852Z 31004KT 3SM BR BKN004 OVC013 02/02 A2993 RMK AO2 SFC VIS 6 SLP135 MTNS OBSC NE-SE T00220017
KABR 311853Z AUTO 05016KT 10SM CLR M08/M16 A3025 RMK AO2 SLP264 T10831161
KABY 311853Z 10007KT 10SM CLR 15/M06 A3034 RMK AO2 SLP273 T01501056
KACB 311856Z AUTO 28006KT 10SM OVC018 M02/M07 A3014 RMK AO2 T10251066
KACJ 311855Z AUTO 00000KT 10SM CLR 12/M04 A3034 RMK AO2
KACK 311853Z 31020G28KT 10SM BKN075 M04/M15 A2977 RMK AO2 PK WND 32032/1755 SLP080 T10441150
KACP 311855Z AUTO 11006KT 10SM CLR 16/06 A3021 RMK AO2 T01570058
KACQ 311854Z AUTO 03008KT 5SM BR SCT008 OVC017 M01/M03 A3016 RMK AO2
KACT 311851Z 13006KT 10SM OVC018 10/05 A3009 RMK AO2 RAE06 SLP186 P0000 T01000050
KACV 311853Z AUTO 31003KT 6SM HZ CLR 14/09 A3005 RMK AO2 SLP183 T01440089
KACY 311854Z 30019G26KT 10SM CLR M02/M16 A3016 RMK AO2 PK WND 32031/1809 SLP213 T10221161
KADC 311852Z AUTO 03013KT 10SM CLR M07/M20 A3023 RMK AO2
KADF 311856Z AUTO 00000KT 10SM FEW036 08/M01 A3025 RMK AO2 T00831011 PRESFR SLP260
KADG 311853Z AUTO 27012KT 10SM OVC043 01/M06 A3020 RMK AO2 SLP239 T00061061
KADH 311855Z AUTO 14008KT 10SM -DZ SCT042 BKN050 OVC060 07/02 A3012 RMK AO2
KADM 311555Z 13011KT 10SM OVC045 07/01 A3021
KADS 311955Z 13008G15KT 15SM OVC020 11/01 A3010
KADU 311855Z AUTO 19006KT 2SM -SN BKN007 01/M01 A3011 RMK AO2 P0002
KADW 311858Z AUTO 29012G21KT 10SM CLR M01/M15 A3027 RMK AO2 SLP261 T10141153 $
KAEG 311848Z 00000KT 7SM -SN OVC006 00/M01 A2993
KAEJ 311855Z AUTO 00000KT 2SM UP SCT004 OVC009 00/M01 A2984 RMK AO2 T00031011
KAEL 311853Z AUTO 07008KT 7SM OVC012 01/M02 A3012 RMK AO2
KAEX 311853Z 14008KT 10SM CLR 14/03 A3021 RMK AO2 SLP236 T01390028
KAFF 311907Z AUTO 35006KT 10SM UP FEW190 03/M04 A2982 RMK AO2 SNE1858UPB1858E03UPB05E06UPB07
KAFJ 311855Z AUTO 26007KT 10SM CLR M03/M11 A3028 RMK AO1
KAFK 311855Z AUTO 16012G16KT 2 1/2SM -SN OVC004 01/01 A3009 RMK AO2 T00060006
KAFN 311852Z AUTO 33011G19KT 300V010 10SM UP CLR M10/M24 A2987 RMK AO2 UPB1756 SLP141 P0000 T11001239
KAFO 311855Z AUTO 00000KT 1/2SM FZFG OVC002 M05/M06 A3005 RMK AO2
KAFP 311855Z AUTO 30003KT 10SM CLR 10/M16 A3033 RMK AO2 T00961160
KAFW 311853Z 13012KT 10SM OVC020 11/02 A3007 RMK AO2 RAB08E21 SLP185 P0000 T01060022
KAGC 311853Z 26009KT 10SM CLR M04/M12 A3025 RMK AO2 SLP271 T10441117
KAGS 311853Z 00000KT 10SM CLR 12/M12 A3035 RMK AO2 SLP277 T01221117
KAHN 311851Z VRB03KT 10SM CLR 11/M11 A3032 RMK AO2 SLP272 T01111106
KAHQ 311855Z AUTO 15006KT 1 1/2SM -SN OVC004 01/00 A3006 RMK AO2 P0001 T00071001
KAIA 311853Z AUTO 02008KT 1/4SM SN FZFG FEW005 OVC009 M01/M02 A2988 RMK AO2 SLP144 P0000 T10061017
KAIB 311855Z AUTO 00000KT 7SM -RA OVC004 02/02 A2997 RMK AO2
KAID 311852Z 23009KT 10SM CLR 03/M06 A3026
KAIG 311855Z AUTO 36010KT 10SM OVC017 M05/M08 A3012 RMK AO2 T10461077
KAIK 311915Z AUTO 00000KT 10SM CLR 11/M10 A3036 RMK AO2 PNO
KAIO 311855Z AUTO 19005KT 3SM -SN OVC004 01/01 A3011 RMK AO2 P0003
KAIT 311854Z AUTO 35009KT 10SM CLR M03/M14 A3021 RMK AO2
KAIZ 311855Z AUTO 15007KT 10SM OVC055 04/M01 A3023 RMK AO1
KAJG 311855Z AUTO 19004KT 10SM CLR 05/M03 A3031 RMK AO2
KAJL 311855Z AUTO 29015G20KT 10SM CLR M06/M18 A2993 RMK AO2 T10581176
KAJO 311856Z AUTO 00000KT 10SM FEW080 18/11 A2993 RMK AO2 T01770105 SLP131 $
KAJZ 311855Z AUTO 03004KT 10SM -DZ BKN010 OVC015 05/04 A2992 RMK AO2 T00520038
KAKH 311854Z AUTO 19006KT 10SM CLR 09/M12 A3031 RMK AO2 SLP270 T00941117
KAKO 311853Z AUTO 33006KT 10SM OVC005 01/00 A2984 RMK AO2 SLP124 T00060000
KAKQ 311854Z AUTO 30007KT 10SM CLR 04/M16 A3029 RMK AO2 SLP260 T00441161 TSNO
KAKR 311854Z AUTO 22008KT 10SM OVC026 M03/M09 A3024 RMK AO2 SLP261 T10281094
KALB 311851Z 29018G26KT 10SM CLR M11/M22 A3013 RMK AO2 PK WND 30026/1849 SLP208 T11061217
KALI 311853Z AUTO 15020G24KT 10SM SCT029 SCT039 OVC049 23/15 A2999 RMK AO2 PRESFR SLP154 T02330150
KALM 311855Z AUTO 00000KT 2SM -RA SCT003 OVC010 07/07 A2993 RMK AO2
KALN 311745Z 20006KT 10SM SCT030 OVC085 04/M04 A3031
KALO 311854Z AUTO 21006KT 10SM OVC019 02/M01 A3014 RMK AO2 SLP217 T00221011
KALS 311852Z AUTO 00000KT 10SM OVC007 00/M02 A2986 RMK AO2 CIG 007V012 SLP111 T00001022
KALW 311853Z 00000KT 9SM OVC012 02/00 A3034 RMK AO2 SLP285 T00220000
KALX 311855Z AUTO 19006KT 10SM CLR 14/M12 A3030 RMK AO2 T01371123
KAMA 311853Z 17008KT 10SM OVC005 02/02 A2994 RMK AO2 UPE46RAB03E12 SLP144 P0001 T00220017
KAMG 311853Z AUTO VRB03KT 10SM CLR 14/M09 A3033 RMK AO2 SLP271 T01391089 $
KAMN 311853Z AUTO 24009KT 10SM OVC023 00/M04 A3014 RMK AO2 T10011041
KAMW 311905Z AUTO 21006KT 2 1/2SM BR OVC006 03/02 A3012 RMK AO2 CIG 005V011 T00280017
KANB 311853Z AUTO 00000KT 10SM CLR 13/M09 A3031 RMK AO2 SLP272 T01281094
KAND 311856Z AUTO 21003KT 10SM CLR 09/M11 A3032 RMK AO2 SLP270 T00941106
KANE 311845Z 35008KT 10SM OVC021 M02/M06 A3021
KANJ 311855Z AUTO 26006KT 5SM -SN OVC014 M06/M09 A3006 RMK AO2 SLP191 P0000 T10611089
KANK 311855Z AUTO 32003KT 5SM SCT005 BKN022 OVC029 02/01 A2991 RMK AO1 T00240012
KANQ 311935Z AUTO 23010KT 10SM CLR 02/M05 A3017 RMK
KANW 311855Z AUTO 05011KT 1/4SM FZFG OVC002 M03/M04 A2998 RMK AO2 T10331036
KAOH 311853Z AUTO 23012KT 10SM CLR 01/M06 A3023 RMK AO2 SLP251 T00061056
KAOO 311853Z AUTO 28007KT 10SM CLR 02/M12 A3020 RMK AO2 SLP244 T00221122 $
KAPA 311853Z VRB03KT 10SM SCT030 BKN080 OVC140 03/M03 A2984 RMK AO2 SLP114 T00281033
KAPC 311854Z 21008KT 10SM CLR 20/02 A2999 RMK AO2 SLP147 T02000022 $
KAPF 311853Z 09009KT 10SM CLR 24/11 A3018 RMK AO2 SLP218 T02390106
KAPN 311854Z AUTO 26009KT 10SM BKN021 OVC028 M04/M08 A3010 RMK AO2 SLP207 T10391083
KAPY 311855Z AUTO 16012G18KT 10SM BKN027 BKN034 OVC046 22/15 A2997 RMK AO2 T02230150
KAQO 311850Z AUTO 12006KT 2 1/2SM BR OVC003 09/09 A3008 RMK AO2 P0003
KAQP 311854Z AUTO 01008KT 10SM OVC013 M04/M07 A3022 RMK AO2
KAQR 311855Z AUTO 14009KT 10SM BKN060 OVC100 10/00 A3014 RMK AO2
KAQV 311856Z AUTO VRB04KT 10SM CLR 17/04 A3017 RMK AO2 PRESFR SLP216 T01670039
KAQW 311852Z AUTO 31007KT 280V350 10SM CLR M12/M23 A3005 RMK AO2 SLP192 T11171233
KAQX 311855Z AUTO 00000KT 10SM CLR 11/M10 A3034 RMK AO2
KARA 311853Z 09012KT 10SM CLR 17/08 A3020 RMK AO2 SLP227 T01720083
KARB 311853Z 26010KT 10SM OVC042 01/M07 A3018 RMK AO2 SLP233 T00061072
KARG 311855Z AUTO 16006KT 10SM CLR 07/M03 A3029 RMK AO1
KARM 311855Z AUTO 11011KT 10SM BKN026 BKN034 20/15 A3009 RMK AO2 T02000148
KARR 311852Z 24009KT 7SM BKN060 03/M03 A3017 RMK AO2 SLP226 T00281033
KART 311856Z AUTO 26007KT OVC037 M14/M22 A3027 RMK AO2 SLP267 T11391217 PWINO FZRANO
KARV 311855Z AUTO 34010KT 10SM -SN OVC020 M05/M09 A3013 RMK AO2 T10501089
KARW 311915Z AUTO 00000KT 10SM CLR 10/M06 A3036 RMK AO2
KASD 311853Z AUTO 13008KT 10SM CLR 17/07 A3025 RMK AO2 SLP243 T01670072
KASE 311853Z 35004KT 3SM -SN BR FEW001 BKN014 OVC020 01/M01 A2987 RMK AO2 SLP086 P0002 T00061006
KASG 311848Z 14007KT 10SM SCT100 08/M07 A3017
KASH 311851Z 34022G36KT 10SM CLR M08/M19 A2989 RMK AO2 T10771188 SLP384 $
KASJ 311855Z AUTO 33003KT 10SM CLR 05/M14 A3031 RMK AO2 T00451142
KASL 311855Z AUTO 14004KT 10SM CLR 13/00 A3020 RMK AO1 T01320002
KASN 311855Z AUTO 00000KT 10SM CLR 13/M07 A3032 RMK AO2 T01261068
KAST 311855Z AUTO 05005KT 10SM CLR 07/04 A3016 RMK AO2 SLP213 T00720044
KASW 311855Z AUTO 25012G16KT 10SM CLR 02/M05 A3020 RMK AO2
KASX 311853Z AUTO 04010KT 10SM CLR M06/M12 A3025 RMK AO2 SLP260 T10611117
KATL 311852Z 00000KT 10SM FEW140 BKN170 11/M08 A3032 RMK AO2 SLP271 T01111083
KATP 311855Z AUTO 13016KT 10SM CLR 21/12 A3015 RMK A01
KATS 311855Z AUTO 00000KT 7SM OVC008 06/06 A2994 RMK AO2
KATT 311851Z AUTO VRB03KT 6SM BR OVC013 12/11 A3007 RMK AO2 RAE13 SLP181 P0000 T01170106
KATW 311845Z 35003KT 10SM OVC025 M03/M08 A3016
KATY 311853Z AUTO 04014KT 6SM BR OVC006 M08/M10 A3015 RMK AO2 SNE1755 SLP240 P0000 T10831100
KAUG 311853Z AUTO 31015G22KT 10SM CLR M08/M16 A2972 RMK AO2 PK WND 33026/1840 SLP070 T10781156
KAUH 311855Z AUTO 15010KT 1 1/4SM -SN OVC004 01/01 A2999 RMK AO2 T00050005
KAUM 311856Z AUTO 06008KT 7SM OVC009 M01/M03 A3013 RMK AO2
KAUN 311855Z AUTO 03003KT 10SM CLR 20/M06 A3000 RMK AO1
KAUO 311855Z AUTO 23003KT 10SM CLR 12/M08 A3033 RMK AO1
KAUS 311853Z 13009KT 10SM OVC015 14/11 A3005 RMK AO2 RAE1759 SLP176 P0000 T01390111
KAUW 311854Z AUTO 01006KT 10SM OVC019 M03/M08 A3013 RMK AO2 SLP225 T10331078
KAVC 311856Z AUTO 27004KT 10SM CLR 05/M16 A3035 RMK AO2 T00491164
KAVK 311855Z AUTO 17012KT 2SM -RA OVC006 04/04 A3002 RMK AO2 P0002
KAVL 311854Z 35006KT 10SM CLR 08/M20 A3027 RMK AO2 SLP258 T00781200
KAVP 311854Z AUTO 31010G18KT 10SM CLR M07/M17 A3015 RMK AO2 SLP225 T10721167
KAVQ 311855Z AUTO 08003KT 10SM SCT049 OVC070 13/12 A2988 RMK AO2 P0006 T01270116
KAVX 311851Z AUTO 07006KT 10SM CLR 15/11 A2994 RMK AO2 SLP134 T01500106 $
KAWG 311855Z AUTO 23007KT 3SM BR FEW029 FEW037 FEW046 03/03 A3018 RMK AO2
KAWM 311853Z AUTO 12005KT 10SM BKN120 07/M04 A3028 RMK AO2 SLP257 T00671039 $
KAWO 311855Z AUTO 29003KT 1/4SM OVC002 02/01 A3026 RMK AO1
KAXA 311855Z AUTO 03006KT 4SM BR OVC005 M01/M01 A3013 RMK AO2
KAXH 311855Z AUTO 08008G16KT 10SM OVC021 16/12 A3011 RMK AO2 T01630121
KAXN 311853Z AUTO 04013KT 10SM BKN100 M04/M12 A3020 RMK AO2 SLP252 T10441117
KAXS 311855Z AUTO 15009KT 4SM -RA BKN007 OVC012 06/05 A3005 RMK AO2 P0008 T00590045
KAXV 311851Z AUTO 22010KT 10SM CLR 01/M03 A3025 RMK AO2
KAXX 311855Z AUTO 27010KT 10SM BKN019 OVC026 02/00 A2983 RMK AO2 T00181005
KAYS 311855Z AUTO 11005KT 10SM CLR 16/M03 A3033 RMK AO2 T01611030
KAZC 311855Z AUTO 00000KT 10SM CLR 10/05 A2998 RMK AO2 T00990046
KAZE 311855Z AUTO 16003KT 10SM CLR 14/M07 A3032 RMK AO2 T01401068
KAZO 311853Z 24011KT 10SM CLR 01/M06 A3017 RMK AO2 SLP229 T00111061
KBAB 311858Z AUTO 33016KT 10SM CLR 18/01 A2999 RMK AO2 SLP232 T01760005 $
KBAC 311855Z AUTO 04015G25KT 10SM -SN FEW060 OVC100 M13/M19 A3032 RMK AO2
KBAD 311858Z AUTO 18006KT 10SM BKN200 13/00 A3019 RMK AO2 SLP226 T01281001
KBAF 311853Z 33020G26KT 10SM CLR M08/M21 A3000 RMK AO2 PK WND 33028/1805 SLP169 T10831206
KBAK 311855Z 23010KT 10SM BKN110 03/M08 A3030
KBAN 311852Z AUTO VRB05KT CLR 04/M05 A3019 RMK AO2 SLP216 T00391050 $
KBAX 311855Z AUTO 24007KT 10SM OVC039 M02/M06 A3015 RMK AO2 T10251057
KBAZ 311851Z 08003KT 4SM -RA BR OVC005 13/12 A3004 RMK AO2 RAB26 CIG 004V009 SLP170 P0000 T01280117
KBBB 311853Z AUTO 07007KT 10SM OVC014 M04/M07 A3021 RMK AO2
KBBD 311855Z AUTO 14011KT 10SM -RA OVC004 09/09 A2999 RMK
KBBF 311855Z AUTO 15018KT 5SM HZ CLR 22/17 A3005 RMK A01
KBBG 311845Z 11009KT 10SM OVC150 07/M07 A3019
KBBP 311855Z AUTO 23005KT 10SM CLR 11/M08 A3034 RMK AO2
KBBW 311909Z AUTO 12005KT 3SM -SN BR OVC008 02/00 A2991 RMK AO2 CIG 005V014 P0000 T00170000
KBCB 311855Z AUTO 29010G17KT 250V320 10SM CLR 02/M15 A3026 RMK AO2 T00221148
KBCE 311853Z AUTO 01011KT 10SM FEW013 SCT034 OVC070 02/M01 A2998 RMK AO2 SLP111 T00221006 $
KBCK 311855Z AUTO 36004KT 10SM OVC022 M01/M06 A3016 RMK AO2 T10151065
KBCT 311853Z 09010G17KT 10SM SCT044 23/10 A3022
KBDE 311853Z AUTO 34011KT 10SM CLR M18/M22 A3038 RMK AO2 SLP317 T11781222 TSNO
KBDG 311855Z AUTO 00000KT 10SM OVC010 03/02 A3000 RMK AO1 T00330017
KBDH 311855Z AUTO 04011G14KT 10SM OVC016 M03/M07 A3021 RMK AO2
KBDL 311851Z 31015KT 10SM CLR M07/M21 A3000 RMK AO2 SLP163 T10721211
KBDN 311915Z AUTO 00000KT 10SM CLR 04/M02 A3024 RMK AO2
KBDR 311852Z 31018G25KT 10SM CLR M06/M19 A3003 RMK AO2 PK WND 33031/1813 SLP169 T10561189 $
KBDU 311856Z AUTO 04003KT 10SM OVC035 03/M03 A2985 RMK AO2
KBEA 311855Z AUTO 15017G23KT 10SM SCT022 SCT029 BKN100 22/17 A3002 RMK AO2 T02210171
KBED 311856Z 32018G34KT 8SM CLR M07/M21 A2987 RMK AO2 PK WND 32034/1848 SLP133 T10721211
KBEH 311853Z AUTO 24014KT 10SM CLR 02/M04 A3018 RMK AO2 SLP228 T00221044
KBFD 311853Z AUTO 27004KT 10SM FEW026 M07/M14 A3012 RMK AO2 SLP238 T10721144
KBFF 311900Z AUTO 26007KT 1/4SM SN FG VV009 00/M01 A2989 RMK AO2 P0001 T00001006
KBFI 311853Z 00000KT 3SM BR OVC004 06/03 A3026 RMK AO2 SLP245 T00560033
KBFL 311854Z 28009KT 3SM HZ CLR 16/11 A3000 RMK AO2 SLP156 T01560106
KBFM 311853Z AUTO 12003KT 10SM CLR 14/M02 A3030 RMK AO2 SLP260 T01441022
KBFW 311854Z AUTO 34006KT 10SM CLR M06/M17 A3022 RMK AO2
KBGD 311851Z AUTO 20007KT 160V220 10SM FEW008 SCT012 OVC031 04/02 A2994 RMK AO2 RAB10E51 SLP145 P0000 T00390022
KBGE 311855Z AUTO 13003KT 10SM CLR 17/00 A3031 RMK AO2
KBGF 311855Z AUTO 00000KT 10SM CLR 07/M07 A3032 RMK
KBGM 311853Z 33014G18KT 6SM HZ OVC026 M11/M16 A3012 RMK AO2 SLP234 T11061161
KBGR 311853Z 31017G29KT 3/4SM R15/2000VP6000FT -SN BLSN BKN023 OVC030 M11/M14 A2967 RMK AO2 PK WND 33029/1846 SLP051 T11061144 PNO
KBHB 311855Z 32012G21KT 1 1/4SM OVC018 M10/M10 A2959 RMK AO1
KBHC 311855Z AUTO 00000KT 10SM CLR 15/M08 A3033 RMK AO2
KBHK 311851Z AUTO 11022G28KT 3SM BR OVC003 M06/M07 A3003 RMK AO2 PK WND 11029/1830 SLP206 T10611067
KBHM 311853Z VRB03KT 10SM BKN250 13/M11 A3032 RMK AO2 SLP267 T01281111
KBID 311855Z AUTO 32018G28KT 10SM CLR M06/M18 A2989 RMK AO1
KBIE 311855Z AUTO 15010KT 1 1/4SM -SN OVC003 00/00 A3005 RMK AO2 P0002 T00030001
KBIF 311858Z AUTO M 9SM BKN008 BKN050 OVC120 10/08 A2991 RMK AO2 LTG DSNT S BKN008 V OVC SLP107 T00970079 $
KBIH 311856Z AUTO 35017G24KT 10SM CLR 13/M03 A3011 RMK AO2 SLP174 T01281028
KBIJ 311855Z AUTO 08003KT 10SM CLR 16/M02 A3032 RMK AO2
KBIL 311908Z 03013G21KT 10SM BKN013 OVC050 M01/M04 A3004 RMK AO2 VIRGA T10111044
KBIS 311852Z 08013G21KT 10SM FEW018 M09/M16 A3028 RMK AO2 SLP286 T10941156
KBIV 311853Z AUTO 25015KT 10SM OVC018 01/M04 A3017 RMK AO2 SLP227 T00111039
KBIX 311858Z AUTO 11014KT 10SM CLR 16/06 A3026 RMK AO2 SLP250 T01570060
KBJC 311847Z 36005KT 30SM SCT037 BKN044 OVC050 03/M03 A2986
KBJI 311853Z AUTO 33009KT 10SM CLR M14/M19 A3031 RMK AO2 T11371195
KBJJ 311856Z AUTO 22008KT 10SM CLR M03/M09 A3025 RMK AO2 SLP266 T10331089 TSNO
KBKB 311854Z AUTO 15004KT 10SM CLR 16/04 A3017 RMK AO2 SLP246 T01560039
KBKD 311855Z AUTO 14007KT 4SM RA SCT008 BKN019 OVC030 08/08 A3003 RMK AO2 P0010 T00820076
KBKE 311853Z AUTO 00000KT 10SM CLR 04/M03 A3021 RMK AO2 SLP252 T00391028 TSNO
KBKF 311858Z 35002KT 7SM -SN BKN040 OVC060 01/M03 A2985 RMK AO2A SNB31 SLP111 P0000 T00141035
KBKL 311853Z 10SM OVC031 M02/M08 A3025 RMK AO2 SLP252 T10171078
KBKS 311855Z AUTO 15016G22KT 10SM SCT034 SCT041 BKN049 23/14 A3000 RMK AO1 T02320139
KBKT 311855Z AUTO 25007KT 10SM CLR 05/M17 A3028 RMK AO1 T00471174
KBKV 311853Z 08011KT 10SM CLR 21/07 A3026 RMK AO2 SLP245 T02110072
KBKW 311851Z AUTO 27011KT 10SM CLR M01/M14 A3024 RMK AO2 SLP283 T10061139
KBLF 311852Z AUTO 28010KT 10SM CLR 01/M13 A3023 RMK AO2 SLP266 T00111133
KBLH 311852Z AUTO 34011KT 10SM OVC085 17/10 A2989 RMK AO2 SLP118 T01720100
KBLI 311853Z 00000KT 7SM SCT003 04/03 A3026 RMK AO2 SLP256 T00390028
KBLM 311855Z AUTO 30013G24KT 10SM CLR M04/M17 A3011 RMK AO1
KBLU 311852Z AUTO 05012G25KT 020V110 10SM CLR 13/M20 A3008 RMK AO2 PK WND 04029/1756 SLP147 T01281200
KBLV 311858Z AUTO 19004KT 10SM FEW110 06/M03 A3028 RMK AO2 SLP261 T00591029 $
KBMC 311855Z AUTO 00000KT 10SM CLR 07/M02 A3005 RMK AO1 T00671018
KBMG 311853Z 25008KT 10SM CLR 04/M05 A3029 RMK AO2 SLP265 T00391050
KBMI 311856Z 22010KT 10SM CLR 04/M01 A3023 RMK AO2 T00381011 SLP253
KBML 311852Z AUTO 29005KT 10SM CLR M14/M22 A2986 RMK AO2 SLP139 T11391222
KBMQ 311902Z AUTO 12005KT 3SM -RA BR OVC003 09/08 A3006 RMK AO2 P0000 T00890083 $
KBMT 311855Z AUTO 10010G16KT 10SM SCT022 14/09 A3017 RMK AO2 T01440087
KBNA 311853Z 11004KT 10SM CLR 07/M06 A3034 RMK AO2 SLP277 T00671056
KBNL 311855Z AUTO 20004KT CLR 12/M10 A3035 RMK AO2
KBNO 311853Z AUTO 00000KT 5SM BR OVC002 M02/M03 A3025 RMK AO2 SLP273 T10171033
KBNW 311855Z AUTO 23007G13KT 1 1/4SM BR OVC004 03/03 A3010 RMK AO2
KBOI 311853Z 31010KT 10SM CLR 05/M01 A3018 RMK AO2 SLP234 T00501011
KBOK 311856Z AUTO 00000KT 10SM CLR 18/04 A3006 RMK AO2 T01770044 SLP179
KBOS 311854Z 31019G33KT 10SM FEW085 M06/M21 A2984 RMK AO2 PK WND 32039/1823 SLP104 T10611206
KBOW 311850Z 07010G15KT 10SM FEW120 BKN250 21/08 A3025
KBPC 311855Z AUTO 20012G17KT 10SM -RA BKN011 OVC026 04/03 A2995 RMK AO2
KBPG 311855Z AUTO 17008KT 1 1/2SM OVC005 10/09 A2998 RMK AO2 P0001 T01000088
KBPI 311853Z AUTO 00000KT 10SM CLR 02/M08 A2993 RMK AO2 SLP132 T00171083
KBPK 311853Z AUTO 14006KT 9SM FEW110 07/M04 A3023 RMK AO2 SLP240 T00671039 $
KBPT 311853Z 09011KT 10SM OVC022 17/09 A3016 RMK AO2 SLP213 T01670089
KBQK 311855Z AUTO 09010G15KT 10SM CLR 13/M02 A3037 RMK AO1
KBQP 311855Z AUTO 00000KT 10SM CLR 13/00 A3025 RMK AO2 T01281005
KBQX 311855Z AUTO 12015KT 10SM FEW020 SCT035 SCT044 21/17 A3009 RMK A01
KBRD 311853Z AUTO 02010KT 10SM CLR M05/M15 A3023 RMK AO2 SLP257 T10501150
KBRL 311903Z AUTO 19005KT 7SM FEW013 BKN022 OVC034 02/M01 A3020 RMK AO2 T00171011
KBRO 311853Z 15020G26KT 10SM SCT030 SCT055 24/16 A3003 RMK AO2 PK WND 14026/1850 SLP168 T02390161
KBTA 311855Z AUTO 16007KT 2SM -SN OVC002 01/00 A3007 RMK AO2 P0001 T00110002
KBTL 311853Z 23012KT 10SM CLR 01/M06 A3017 RMK AO2 SLP229 T00111061
KBTM 311853Z AUTO 00000KT 10SM CLR 01/M08 A3004 RMK AO2 SLP215 T00111078
KBTP 311855Z AUTO 25006KT 220V280 10SM FEW026 M04/M11 A3026 RMK AO1
KBTR 311853Z 12010KT 10SM CLR 16/06 A3023 RMK AO2 SLP236 T01610056
KBTV 311854Z 03004KT 10SM CLR M14/M26 A3014 RMK AO2 SLP214 T11391256
KBUF 311854Z 23011KT 9SM -SN FEW026 BKN055 BKN080 BKN150 BKN220 M07/M12 A3022
KBUR 311853Z 16005KT 10SM CLR 17/11 A2992 RMK AO2 SLP124 T01670111
KBUU 311855Z AUTO 30004KT 10SM CLR 00/M06 A3016 RMK AO2 T00001063
KBUY 311854Z AUTO VRB05KT 10SM CLR 07/M16 A3030 RMK AO2 SLP263 T00721161
KBVE 311851Z AUTO 10010KT 10SM FEW031 18/11 A3024 RMK AO2 SLP239 T01830106
KBVI 311847Z 25004KT 10SM SCT024 M03/M10 A3025
KBVN 311855Z AUTO 17009KT 10SM OVC008 02/00 A3000 RMK AO2 T00161005
KBVO 311853Z 17005KT 10SM -RA FEW050 OVC065 05/03 A3017 RMK AO2 SLP215 P0001 T00500028
KBVS 311855Z AUTO 33007KT 1/2SM OVC001 04/ A3027 RMK A01 P000
KBVU 311855Z AUTO 35009G15KT 10SM BKN085 14/06 A2996 RMK AO2
KBVX 311855Z AUTO 15004KT 10SM OVC120 07/M04 A3028 RMK AO1
KBVY 311853Z 30017G29KT 7SM CLR M07/M21 A2982 RMK AO2 PK WND 31029/1842 SLP096 T10721211
KBWD 311855Z AUTO 14011G16KT 4SM -RA SCT008 09/09 A3003 RMK AO2 P0001
KBWG 311853Z AUTO 22005KT 10SM SCT120 07/M05 A3036 RMK AO2 SLP283 T00671050
KBWI 311854Z 32012G18KT 10SM CLR M01/M16 A3027 RMK AO2 SLP250 T10111156
KBWP 311855Z AUTO 01016G22KT 10SM OVC110 M08/M17 A3030 RMK AO1
KBXA 311855Z AUTO 14004KT 10SM 16/M02 A3028 RMK AO2 T01561022
KBXK 311855Z AUTO 00000KT 7SM FEW016 SCT023 BKN065 15/15 A2986 RMK AO1
KBYG 311853Z AUTO 35025G36KT 10SM CLR 04/M07 A2988 RMK AO2 PK WND 36036/1827 SLP127 T00391067 $
KBYI 311853Z AUTO 28011KT 10SM SCT023 04/M02 A3013 RMK AO2 SLP211 T00391022
KBYS 311855Z AUTO 35012G21KT 10SM FEW060 13/04 A2995 RMK AO2 SLP148 T01260041 $
KBYY 311855Z AUTO 13015G18KT 10SM OVC020 20/16 A3009 RMK AO2 T02070165
KBZN 311856Z 27004KT 10SM BKN070 OVC085 00/M04 A3005 RMK AO2 SLP217 T00001044
KC09 311855Z AUTO 24005KT 10SM OVC095 03/M01 A3018 RMK AO2 T00271009
KC29 311855Z AUTO 00000KT 10SM CLR 01/M06 A3014 RMK AO1 T00131056
KC35 311855Z AUTO 01003KT 10SM OVC022 M01/M06 A3014 RMK AO2 T10061057
KC75 311855Z AUTO 23005KT 10SM BKN032 BKN065 04/M03 A3021 RMK AO2 T00371027
KCAD 311855Z AUTO 27007KT 10SM OVC017 M03/M06 A3009 RMK AO2 T10311062
KCAE 311856Z COR VRB04KT 10SM SCT180 11/M10 A3035 RMK AO2 SLP277 T01061100
KCAG 311853Z AUTO 23011KT 10SM OVC017 00/M02 A2992 RMK AO2 SNE1757 SLP147 P0000 T00001017 $
KCAK 311909Z 24009KT 8SM SCT027 BKN220 M03/M10 A3024 RMK AO2 T10331100 $
KCAO 311855Z AUTO 22012KT 10SM BKN011 OVC070 03/01 A2985 RMK AO2 SLP111 T00280006
KCAR 311854Z AUTO 33018G26KT 4SM UP OVC035 M14/M17 A2966 RMK AO2 PK WND 33027/1840 UPB48SNE48 SLP059 P0002 T11391167
KCAV 311855Z AUTO 21004KT 8SM OVC012 01/01 A3012 RMK AO2
KCBE 311833Z AUTO 30010G18KT 10SM CLR 00/M13 A3030 RMK AO1
KCBF 311855Z AUTO 16006KT 1SM -SN OVC003 00/00 A3008 RMK AO2 P0002
KCBG 311855Z AUTO 04005KT 10SM SCT025 BKN110 M01/M08 A3020 RMK AO2
KCBK 311855Z AUTO 19005KT 10SM BKN006 OVC011 04/04 A2984 RMK AO2
KCBM 311858Z AUTO VRB04KT 10SM BKN180 13/M08 A3029 RMK AO2 SLP261 T01341084 $
KCCA 311855Z AUTO 08003KT 7SM SCT110 07/M03 A3028 RMK AO2
KCCO 311855Z AUTO 00000KT 10SM CLR 11/M06 A3031 RMK AO2 T01131063
KCCR 311853Z 04008KT 10SM CLR 22/M03 A3000 RMK AO2 SLP145 T02171028
KCCU 311855Z AUTO 28017G22KT 1/2SM -SN OVC001 M02/M05 A2989 RMK AO2
KCCY 311855Z AUTO 06005KT 10SM OVC055 M00/M02 A3014 RMK AO2
KCDA 311855Z AUTO 27014G22KT 1/2SM -SN VV005 M15/M26 A2997 RMK AO2 T11551265
KCDC 311853Z AUTO 01010KT 9SM UP BKN005 OVC014 02/01 A3002 RMK AO2 UPE08B50SNB08E50 SLP161 P0001 T00170011
KCDD 311851Z AUTO 36006KT 10SM SCT026 M14/M20 A3034 RMK AO2
KCDH 311855Z AUTO 10SM CLR 10/M02 A3026 RMK AO2
KCDJ 311852Z AUTO 16004KT 04/03 A3021 RMK AO1 SLP242 P0004 T00390028
KCDN 311915Z AUTO 28005KT 10SM CLR 10/M14 A3035 RMK AO2 TSNO
KCDR 311853Z AUTO 06009KT 10SM OVC095 01/M03 A2994 RMK AO2 SLP173 T00061033
KCDS 311853Z AUTO 15006KT 4SM -RA BR OVC005 05/04 A3000 RMK AO2 CIG 003V008 SLP161 P0005 T00500044
KCDW 311853Z AUTO 31012G19KT 10SM CLR M05/M19 A3012 RMK AO2 SLP207 T10501194 TSNO
KCEC 311856Z AUTO 19004KT 10SM CLR 14/08 A3006 RMK AO2 SLP180 T01440078
KCEF 311858Z AUTO 33017G26KT 10SM CLR M09/M21 A2998 RMK AO2 PK WND 33029/1759 SLP163 T10881212
KCEU 311854Z AUTO 00000KT 10SM CLR 10/M11 A3031 RMK AO2 SLP268 T01001106
KCEW 311853Z AUTO 16005KT 10SM CLR 17/M02 A3030 RMK AO2 SLP260 T01671022
KCEY 311855Z AUTO 00000KT 10SM FEW110 06/M05 A3031 RMK AO1
KCEZ 311853Z AUTO 00000KT 10SM OVC008 03/02 A2993 RMK AO2 CIG 005V012 SLP121 T00280022
KCFD 311855Z AUTO 12010KT 10SM CLR 16/09 A3010 RMK AO2 T01550088
KCFE 311855Z AUTO 02008KT 10SM OVC018 M03/M07 A3021 RMK AO2 T10271070
KCFS 311854Z AUTO 22006KT 10SM OVC045 M01/M06 A3014 RMK AO2 T10121056
KCFV 311852Z AUTO 19004KT 10SM -RA OVC065 06/01 A3016 RMK AO2 SLP219 P0000 T00560011
KCGC 311855Z AUTO 10004KT 10SM CLR 20/06 A3027 RMK AO2
KCGE 311853Z AUTO 31009G17KT 10SM CLR 00/M13 A3026 RMK AO1
KCGF 311845Z 23010KT 7SM OVC030 M02/M07 A3025
KCGI 311853Z 11006KT 10SM OVC100 06/M04 A3030 RMK AO2 SLP262 T00611039
KCGS 311850Z AUTO 30005G17KT 10SM CLR M01/M15 A3028 RMK AO1
KCGZ 311855Z AUTO 22006KT 10SM FEW019 SCT036 BKN050 12/11 A2987 RMK AO1 P0013
KCHA 311853Z VRB05KT 10SM SCT170 BKN210 08/M08 A3034 RMK AO2 SLP278 T00781083
KCHD 311847Z 00000KT 20SM FEW005 OVC030 14/13 A2987
KCHK 311855Z AUTO 14013G18KT 7SM -RA OVC029 05/04 A3005 RMK AO2 P0002
KCHO 311853Z 21004KT 10SM CLR 04/M18 A3024 RMK AO2 SLP245 T00391183
KCHS 311856Z 31007KT 10SM FEW180 SCT200 12/M14 A3036 RMK AO2 SLP281 T01221139
KCIC 311848Z 32007KT 80SM FEW100 15/01 A3005
KCID 311909Z 21007KT 1 1/2SM BR SCT004 OVC011 02/02 A3014 RMK AO2 T00220022 $
KCIN 311855Z AUTO 22012G19KT 4SM BR SCT008 SCT028 SCT038 02/02 A3009 RMK AO2
KCIR 311855Z AUTO 00000KT 10SM OVC110 07/M03 A3031 RMK AO2 T00671030
KCIU 311855Z AUTO 27015KT 10SM BKN016 OVC031 M04/M07 A3006 RMK AO1
KCJR 311855Z AUTO 00000KT 10SM CLR 02/M16 A3028 RMK AO2
KCKB 311853Z 23005KT 10SM CLR M03/M10 A3028 RMK AO2 UPB22E32 SLP269 P0000 T10281100
KCKC 311854Z AUTO 33006KT 10SM CLR M14/M21 A3018 RMK AO2
KCKF 311855Z AUTO 00000KT 10SM CLR 14/M08 A3034 RMK AO2 T01371082
KCKI 311855Z AUTO 00000KT 10SM CLR 10/M02 A3036 RMK AO2
KCKM 311855Z AUTO 09005KT 10SM OVC120 08/M02 A3029 RMK AO1
KCKN 311855Z AUTO 01014G20KT 10SM CLR M15/M21 A3043 RMK AO2
KCKP 311855Z AUTO 05007KT 1 3/4SM UP OVC007 00/00 A3009 RMK AO2 T10041004
KCKV 311852Z AUTO VRB03KT 10SM CLR 08/M07 A3033 RMK AO2 SLP273 T00781072
KCLE 311851Z 24013G18KT 10SM FEW029 SCT250 M02/M09 A3027 RMK AO2 SLP265 T10221089 $
KCLI 311855Z AUTO 00000KT 10SM OVC024 M02/M07 A3015 RMK AO2
KCLK 311855Z AUTO 17007KT 4SM RA OVC005 04/03 A3004 RMK AO2
KCLL 311853Z 14013G19KT 10SM CLR 16/09 A3009 RMK AO2 SLP189 T01610089
KCLM 311853Z AUTO 11006KT 9SM OVC003 06/04 A3024 RMK AO2 SLP243 T00610044
KCLS 311915Z AUTO 00000KT 3SM BR OVC005 05/05 A3024 RMK AO2
KCLT 311852Z 00000KT 10SM SCT250 10/M14 A3032 RMK AO2 SLP271 T01001139
KCLW 311855Z AUTO 11006KT 10SM CLR 20/08 A3024 RMK AO2
KCMA 311855Z 25005KT 10SM CLR 18/11 A2993 RMK AO2 SLP144 T01830111
KCMH 311851Z 22010KT 10SM FEW029 BKN250 00/M07 A3029 RMK AO2 SLP269 T00001067
KCMI 311853Z 21011KT 10SM FEW044 03/M02 A3025 RMK AO2 SLP250 T00331022
KCMX 311853Z AUTO 01013KT 8SM OVC022 M09/M14 A3019 RMK AO2 SNE52 SLP248 P0000 T10891144
KCMY 311855Z AUTO 06003KT 10SM OVC016 M01/M05 A3018 RMK AO2 T10151050
KCNB 311853Z AUTO 36012KT 5SM BR OVC006 M05/M06 A3020 RMK AO2 T10531062
KCNC 311855Z AUTO 21007G12KT 4SM -UP BKN007 BKN010 03/03 A3016 RMK AO2 P0002
KCNI 311855Z AUTO 00000KT 10SM CLR 08/M24 A3032 RMK AO2
KCNK 311855Z AUTO 15011KT 2SM -SN BR BKN006 OVC040 01/01 A3001 RMK AO2 RAB13E47SNE13B47 SLP172 P0003 T00060006
KCNM 311853Z AUTO 35007KT 7SM OVC006 07/05 A2992 RMK AO2 SLP118 T00720050
KCNO 311853Z 24004KT 7SM FEW020 SCT070 SCT150 17/11 A2993 RMK AO2 SLP134 T01720111 $
KCNU 311852Z AUTO 17008KT 6SM -RA OVC032 04/01 A3015 RMK AO2 SLP214 P0002 T00440011
KCNW 311855Z 14008KT 10SM OVC020 11/06 A3008
KCNY 311853Z AUTO 30004KT 10SM OVC013 06/03 A2994 RMK AO2 RAE25 SLP136 P0000 T00610033
KCOD 311855Z 05009KT 10SM CLR 06/M10 A2992 RMK AO1
KCOE 311855Z AUTO 26007KT 10SM OVC018 01/M02 A3027 RMK AO1
KCOF 311858Z AUTO 05009KT 10SM CLR 20/11 A3027 RMK AO2 SLP255 T02010111 CHINO RWY02 $
KCOM 311855Z AUTO 13009KT 4SM +RA OVC004 09/09 A3001 RMK AO2 P0004 T00900090
KCON 311851Z AUTO 32022G32KT 4SM BLSN CLR M10/M22 A2990 RMK AO2 PK WND 31033/1841 SLP132 T11001217
KCOQ 311856Z AUTO 36005G15KT 10SM OVC085 M07/M15 A3022 RMK AO2
KCOS 311854Z 00000KT 2SM -SN BR FEW009 BKN024 OVC042 02/00 A2984 RMK AO2 SFC VIS 2 1/2 SLP113 P0000 T00220000
KCOU 311854Z 16005KT 10SM BKN041 OVC049 04/M02 A3023 RMK AO2 RAE51 SLP244 P0001 T00391017
KCPC 311855Z AUTO 35003KT 10SM CLR 09/M16 A3033 RMK AO2 T00861158
KCPK 311855Z AUTO 32010G15KT 10SM CLR 05/M14 A3029 RMK AO2
KCPR 311853Z 31011G16KT 10SM CLR 06/M07 A2986 RMK AO2 SLP117 T00611072
KCPS 311853Z 00000KT 10SM BKN095 OVC110 07/M04 A3027 RMK AO2 SLP255 T00671039
KCPT 311855Z AUTO 13011KT 8SM OVC013 10/06 A3009 RMK AO2
KCPW 311850Z AUTO 21013G16KT 1/4SM SN OVC002 M04/M04 A2993 RMK AO2
KCQB 311855Z AUTO 15007KT 7SM -RA SCT043 BKN060 OVC070 06/06 A3012 RMK AO2
KCQC 311853Z AUTO 24010KT 10SM OVC004 01/00 A2987 RMK AO2 SLP117 T00110000
KCQF 311855Z AUTO 17003KT 10SM CLR 14/02 A3028 RMK AO2
KCQM 311855Z AUTO 35004KT 10SM CLR M12/M19 A3028 RMK AO2
KCQT 311847Z AUTO 00000KT 8SM CLR 18/12 A2992 RMK AO2 SLP131 T01780117
KCQW 311855Z AUTO 00000KT 10SM CLR 09/M18 A3033 RMK AO2
KCQX 311852Z AUTO 31016G30KT 10SM FEW065 M06/M15 A2974 RMK AO2 PK WND 33037/1756 UPB1758E14B30E32 SLP073 P0000 T10561150
KCRE 311853Z 05007KT 10SM CLR 10/M12 A3034 RMK AO1 SLP274 T01001122
KCRG 311853Z 05009KT 10SM CLR 14/03 A3034 RMK AO2 SLP272 T01440033
KCRH 311855Z AUTO 10019KT 5SM BR CLR 16/14 A3014 RMK A01
KCRP 311851Z 15022G27KT 10SM SCT022 SCT028 SCT120 BKN180 BKN250 23/17 A3003
KCRQ 311853Z AUTO VRB03KT 10SM OVC036 17/11 A2992 RMK AO2 SLP129 T01670111
KCRS 311853Z AUTO 12011KT 10SM BKN022 OVC027 13/04 A3012 RMK AO2 SLP197 T01280044
KCRW 311854Z VRB04KT 10SM SCT300 01/M09 A3031 RMK AO2 SLP275 T00111089
KCRX 311855Z AUTO 00000KT 10SM CLR 09/M05 A3029 RMK AO2
KCSG 311851Z VRB03KT 10SM CLR 13/M07 A3032 RMK AO2 SLP266 T01331067 $
KCSM 311853Z AUTO 17013KT 4SM -RA BR OVC006 05/03 A3002 RMK AO2 CIG 004V010 SLP169 P0006 T00500033
KCSQ 311855Z AUTO 20011KT 6SM BR OVC006 03/03 A3013 RMK AO2 P0001
KCSV 311853Z AUTO 00000KT 10SM CLR 07/M15 A3030 RMK AO2 SLP272 T00671150
KCTB 311906Z AUTO 34019KT 5SM -SN FEW014 BKN032 OVC050 M12/M15 A3029 RMK AO2 P0000 T11171150
KCTJ 311855Z AUTO 00000KT 10SM CLR 11/M05 A3034 RMK AO2
KCTY 311853Z AUTO 19/04 A3029 RMK AO1 SLP255 T01890044
KCTZ 311855Z AUTO 32008KT 10SM CLR 08/M13 A3034 RMK AO2 T00781128
KCUB 311853Z AUTO 00000KT 10SM CLR 10/M13 A3036 RMK AO2 SLP281 T01001133 $
KCUH 311855Z AUTO 14006KT 7SM -RA BKN007 OVC045 04/03 A3011 RMK AO2 P0002
KCUL 311855Z AUTO 19010G14KT 10SM CLR 06/M01 A3034 RMK AO2 T00601008
KCUT 311853Z AUTO 06004KT 10SM FEW120 M02/M07 A2987 RMK AO2 SLP140 T10171067 PWINO FZRANO
KCVB 311855Z AUTO 10008KT 1SM -RA OVC002 13/13 A3004 RMK AO2 P0001 T01310131
KCVC 311855Z AUTO 26003KT 10SM CLR 11/M07 A3032 RMK AO2
KCVG 311852Z 22008KT 190V270 10SM BKN200 OVC250 03/M07 A3029 RMK AO2 SLP265 T00331072
KCVH 311850Z AUTO 09003KT 10SM CLR 16/07 A3000 RMK AO1
KCVN 311855Z AUTO 18009KT 4SM OVC004 02/02 A2992 RMK AO1
KCVO 311855Z AUTO 00000KT 1/4SM OVC002 03/02 A3022 RMK AO1
KCVS 311858Z AUTO 00000KT 7SM -RA SCT003 03/03 A2992 RMK AO2 RAB20 SLP136 P0000 T00270026 VISNO RWY22 $
KCVW 311850Z AUTO 11009KT 8SM CLR 14/10 A3019 RMK A01
KCVX 311854Z AUTO 29007KT 10SM SCT015 OVC031 M03/M06 A3015 RMK AO2 T10301064
KCWA 311850Z 35006KT 10SM OVC019 M03/M06 A3014
KCWC 311855Z AUTO 13009KT 10SM -RA SCT020 OVC027 03/02 A3005 RMK AO2 P0009 T00310015
KCWF 311850Z 10007G14KT 10SM SKC 16/08 A3019
KCWI 311855Z AUTO 23009KT 10SM OVC024 02/M02 A3019 RMK AO1
KCWN 311856Z AUTO 04003KT 4SM -RASN BKN036 00/M02 A2952 RMK AO2 RAB45E47RAB48E50 SLP004 T00011022
KCWV 311855Z AUTO 10005KT 10SM CLR 13/M07 A3035 RMK AO2
KCXE 311855Z AUTO 27006KT 10SM CLR 07/M13 A3029 RMK AO1 T00671134
KCXO 311853Z 15011KT 10SM BKN024 16/08 A3013 RMK AO2 SLP202 T01560083
KCXP 311855Z AUTO 14004KT 10SM FEW012 07/M06 A3025 RMK AO2
KCXY 311856Z 31011G17KT 10SM CLR M04/M14 A3024 RMK AO2 SLP247 T10391144
KCYS 311853Z 33005KT 6SM -SN FEW009 OVC041 00/M03 A2984 RMK AO2 SNE06B49 SLP121 P0000 T00001033
KCZT 311855Z AUTO 14004KT 4SM -DZ OVC004 15/15 A2999 RMK AO2 P0002
KCZZ 311852Z AUTO 00000KT 12/08 A2988 RMK AO1 SLP102 T01220078
KD07 311856Z AUTO 08013KT M05/M07 A3009 RMK AO1 SLP229 T10501072
KD25 311855Z AUTO 36008KT 5SM -SN OVC017 M07/M10 A3013 RMK AO2 T10671100
KD39 311852Z AUTO 03008KT 10SM SCT100 M03/M11 A3021 RMK AO2 T10311110
KD50 311855Z AUTO 07014KT 2 1/2SM -SN OVC010 M15/M17 A3038 RMK AO2
KD57 311855Z AUTO 08012KT 4SM HZ BKN015 M11/M14 A3023 RMK AO2
KD60 311855Z AUTO 06015G22KT 2SM -SN SCT028 M16/M18 A3033 RMK AO2 P0002
KD95 311853Z AUTO 27008KT 10SM OVC042 00/M07 A3015 RMK AO2 T10051066
KDAA 311858Z AUTO 34007KT 10SM CLR 00/M14 A3030 RMK AO2 SLP265 T10011143
KDAB 311853Z 04009G18KT 10SM FEW040 BKN200 19/08 A3030 RMK AO2 SLP258 FU PLUME W T01940078
KDAG 311850Z AUTO 01012KT 10SM BKN055 BKN080 OVC090 15/04 A2998 RMK AO2 SLP140 T01500044
KDAL 311853Z 14012KT 10SM OVC021 12/02 A3010 RMK AO2 PRESFR SLP191 T01170022
KDAN 311853Z AUTO 24005KT 10SM CLR 07/M14 A3030 RMK AO2 SLP258 T00671139
KDAW 311851Z AUTO 31019G35KT 4SM UP CLR M08/M21 A2978 RMK AO2 PK WND 32035/1845 UPB13E24B47 SLP088 P0000 T10781206
KDAY 311856Z 22008KT 10SM OVC230 02/M04 A3027 RMK AO2 SLP261 T00221044
KDBN 311855Z AUTO 00000KT 10SM CLR 12/M07 A3036 RMK AO2
KDBQ 311853Z 26006KT 9SM OVC090 01/M03 A3014 RMK AO2 SLP219 T00111028
KDCA 311852Z 32013G18KT 10SM FEW250 01/M15 A3031 RMK AO2 SLP261 T00061150
KDCM 311915Z AUTO 15004KT 10SM CLR 11/M16 A3033 RMK AO2
KDCU 311853Z AUTO 03005KT 10SM CLR 11/M08 A3032 RMK AO2 SLP270 T01061078
KDCY 311855Z AUTO 19007KT 10SM CLR 03/M06 A3031 RMK AO2 T00321060
KDDC 311852Z AUTO 18017G24KT 6SM BR OVC006 03/02 A2991 RMK AO2 PK WND 19026/1812 SLP138 T00330017
KDDH 311854Z AUTO 27005KT 10SM CLR M13/M23 A3005 RMK AO2 SLP194 T11331228
KDEC 311854Z 22010KT 10SM BKN070 OVC090 03/M03 A3026 RMK AO2 SLP254 T00281028
KDED 311855Z AUTO 05009KT 10SM SCT043 18/08 A3030 RMK AO1
KDEH 311855Z AUTO 00000KT 10SM OVC012 M00/M04 A3013 RMK AO2
KDEN 311853Z VRB04KT 10SM BKN040 OVC050 03/M03 A2985 RMK AO2 SLP106 T00281028
KDEQ 311853Z AUTO 11006KT 10SM SCT100 10/M01 A3019 RMK AO2 SLP223 T01001011
KDET 311853Z 26009KT 10SM CLR 01/M08 A3019 RMK AO2 SLP238 T00111078
KDEW 311853Z AUTO 00000KT 10SM OVC014 00/M02 A3030 RMK AO2 SLP284 T00001022
KDFI 311853Z AUTO 23010KT 10SM CLR 02/M05 A3022 RMK AO2 SLP243 T00171050
KDFW 311853Z 14010KT 10SM -RA OVC021 11/03 A3009 RMK AO2 RAB52 SLP186 P0000 T01110028
KDGW 311853Z AUTO 00000KT 10SM CLR 04/M04 A2986 RMK AO2 SLP128 T00391039
KDHN 311853Z 09004KT 10SM CLR 14/M04 A3033 RMK AO2 SLP271 T01391044
KDHT 311853Z AUTO 21013KT 10SM OVC006 04/02 A2990 RMK AO2 SLP127 T00390017
KDIJ 311906Z AUTO 00000KT 1/2SM FZFG OVC001 M06/M07 A3008 RMK AO2
KDIK 311856Z AUTO 08017KT 2 1/2SM -SN BR OVC012 M11/M13 A3014 RMK AO2 SLP248 P0000 T11061128
KDKB 311855Z AUTO 25010KT 10SM OVC060 01/M03 A3016 RMK AO2 T00051035
KDKK 311853Z AUTO 22013G20KT 10SM OVC085 M05/M12 A3023 RMK AO2 SLP252 T10501117
KDKR 311855Z AUTO 12005KT 10SM OVC029 14/07 A3017 RMK AO2
KDLF 311903Z AUTO 24003KT 1 1/2SM BR OVC002 11/11 A2998 RMK AO2 VIS 1V1 1/2 $
KDLH 311855Z 01008KT 10SM SCT090 M07/M16 A3021 RMK AO2 SLP258 T10721156
KDLL 311850Z AUTO 01003KT 10SM OVC020 00/M06 A3014 RMK AO2 T10051059
KDLN 311853Z AUTO 00000KT 10SM CLR 03/M08 A3003 RMK AO2 SLP195 T00281083
KDLP 311855Z AUTO 11014KT 10SM CLR 17/11 A3021 RMK A01
KDLS 311853Z AUTO 08010KT 10SM OVC024 05/01 A3039 RMK AO2 SLP293 T00500006
KDLZ 311904Z AUTO 23011G15KT 10SM CLR M01/M07 A3027 RMK AO2
KDMA 311858Z AUTO 05003KT 10SM CLR 12/11 A2986 RMK AO2 RAE16DZB16E36 CIG 047 RWY30 SLP094 P0001 T01170106 $
KDMH 311854Z AUTO M02/M16 A3027 RMK AO1 SLP249 T10171156
KDMN 311905Z AUTO 00000KT 10SM BKN013 OVC045 09/07 A2991 RMK AO2 T00940067
KDMO 311853Z AUTO 11005KT 3SM -RA BR FEW018 OVC024 04/02 A3021 RMK AO2 SLP239 P0009 T00390022
KDMW 311850Z AUTO 29014G20KT 10SM CLR M04/M15 A3022 RMK AO2
KDNL 311853Z AUTO 11004KT 10SM CLR 12/M11 A3035 RMK AO2 SLP276 T01221106 $
KDNN 311855Z AUTO 00000KT 10SM CLR 08/M07 A3033 RMK AO2
KDNS 311855Z AUTO 21012KT 6SM BR BKN008 BKN013 02/02 A3007 RMK AO2
KDNV 311855Z AUTO 21009KT 10SM OVC034 02/M02 A3022 RMK AO2 T00221022
KDOV 311858Z AUTO 29017KT 10SM CLR M02/M15 A3022 RMK AO2 SLP237 T10231151 $
KDPA 311852Z 24009KT 10SM OVC075 02/M03 A3016 RMK AO2 SLP221 T00171033
KDPL 311855Z AUTO 32006KT 10SM CLR 07/M14 A3034 RMK AO2 T00661145
KDQH 311855Z AUTO 12005KT 10SM CLR 15/M08 A3034 RMK AO2
KDRA 311852Z AUTO 04015KT 10SM CLR 13/04 A2998 RMK AO2 SLP135 T01330039
KDRI 311855Z AUTO 12006KT 10SM CLR 16/06 A3020 RMK AO2 T01560062
KDRM 311855Z AUTO 30003KT 10SM SCT033 OVC060 M04/M08 A3007 RMK AO2 T10411077
KDRO 311853Z AUTO 00000KT 10SM OVC006 02/01 A2989 RMK AO2 CIG 004V009 SLP132 T00170006
KDRT 311853Z AUTO 16005KT 1 1/4SM -RA BR OVC003 11/11 A2999 RMK AO2 RAB47 SLP148 P0000 T01110106
KDSM 311854Z 23010KT 8SM -RA OVC010 04/02 A3015 RMK AO2 DZE06RAB06 SLP218 P0001 T00390017
KDSV 311854Z AUTO 32009KT 10SM BKN036 M06/M14 A3023 RMK AO2 SLP257 T10611139
KDTA 311855Z AUTO 31004KT 10SM BKN030 BKN042 05/02 A3004 RMK AO1 T00520018
KDTL 311855Z AUTO 03007KT 10SM CLR M08/M17 A3028 RMK AO2
KDTN 311853Z 15009KT 10SM CLR 12/M01 A3020 RMK AO2 SLP226 T01171006
KDTO 311853Z 14011KT 10SM OVC022 10/02 A3009 RMK AO2 RAB30E40 SLP186 P0000 T01000017
KDTS 311853Z AUTO 13008KT 10SM CLR 14/02 A3030 RMK AO2 SLP260 T01390017 TSNO
KDTW 311853Z 24009KT 10SM FEW025 BKN200 01/M07 A3020 RMK AO2 SLP236 T00111067 $
KDUA 311855Z AUTO 15009KT 10SM BKN048 BKN075 OVC090 09/02 A3012 RMK AO2
KDUB 311855Z AUTO 32021G30KT 10SM CLR 03/M17 A2989 RMK AO2
KDUC 311855Z AUTO 12013G21KT 3SM UP SCT037 OVC055 05/05 A3004 RMK AO2 P0005
KDUG 311908Z AUTO 15009KT 10SM SCT013 BKN018 OVC050 11/08 A2989 RMK AO2 T01110078 $
KDUH 311855Z AUTO 25007KT 10SM SCT045 01/M05 A3021 RMK AO2
KDUJ 311902Z AUTO 25011KT 10SM BKN025 M07/M13 A3016 RMK AO2 T10721128
KDUX 311855Z AUTO 20011KT 10SM OVC006 02/01 A2992 RMK AO2 T00210013
KDVK 311855Z AUTO 19004KT 10SM CLR 03/M07 A3034 RMK AO2
KDVL 311855Z AUTO 04015G20KT 10SM SCT060 M18/M24 A3040 RMK AO1
KDVN 311852Z AUTO 23009KT 10SM OVC025 02/M02 A3018 RMK AO2 SLP229 T00221022
KDVO 311855Z AUTO 02003KT CLR 18/06 A3000 RMK AO2
KDVP 311853Z AUTO 02003KT 1/4SM FZFG OVC001 M04/M05 A3013 RMK AO2 T10451048
KDVT 311853Z 00000KT 10SM OVC060 15/11 A2985 RMK AO2 SLP098 T01500106
KDWH 311853Z 10011KT 10SM OVC023 17/09 A3012 RMK AO2 SLP198 T01670094
KDWU 311855Z AUTO 23003KT 10SM CLR 03/M08 A3031 RMK AO1
KDWX 311855Z AUTO 26006KT 10SM OVC011 01/M02 A2994 RMK AO2 T00071016
KDXR 311853Z 34015G23KT 10SM CLR M07/M21 A3004 RMK AO2 SLP178 T10671211
KDXX 311854Z AUTO 36010KT 10SM OVC010 M04/M06 A3022 RMK AO2
KDYA 311855Z AUTO 05003KT 10SM CLR 13/M05 A3030 RMK AO2 T01281054
KDYB 311915Z AUTO 00000KT 10SM CLR 12/M08 A3036 RMK AO1
KDYL 311854Z AUTO 31014G21KT 10SM CLR M05/M16 A3015 RMK AO2 SLP221 T10501156
KDYR 311855Z 11007KT 10SM FEW100 07/M07 A3031 RMK AO1
KDYS 311858Z AUTO 15011KT 9SM -RA BKN007 BKN044 08/08 A2998 RMK AO2 SLP149 P0004 T00810081 $
KDYT 311854Z AUTO 36003KT 10SM OVC095 M04/M13 A3027 RMK AO2
KDZB 311855Z AUTO 10003KT 4SM DZ OVC005 A3005 RMK AO2 P0001
KE11 311855Z AUTO 18007KT 7SM OVC002 08/08 A2994 RMK AO2 T00780078
KE16 311855Z AUTO 00000KT 10SM CLR 13/09 A3001 RMK AO2
KE38 311855Z AUTO 21014G22KT 10SM BKN028 BKN036 15/08 A2998 RMK AO2 T01530080
KE80 311855Z AUTO 33004KT 10SM OVC007 03/03 A2993 RMK AO2 T00340028
KEAR 311855Z 15007KT 8SM OVC004 01/M01 A2994 RMK AO1
KEAT 311855Z AUTO VRB03KT 10SM OVC017 03/M02 A3035 RMK AO2 SLP286 T00281017
KEAU 311856Z 04006KT 10SM OVC019 M02/M07 A3018 RMK AO2 SLP235 T10221072
KEBG 311855Z AUTO 15019G22KT 10SM SCT037 SCT050 25/14 A2999 RMK AO2 T02510142
KEBS 311855Z AUTO 00000KT 1SM BR OVC003 01/01 A3010 RMK AO2
KECG 311854Z 32011G17KT 10SM CLR 04/M13 A3029 RMK AO2 SLP258 T00391133
KECP 311853Z 11006KT 10SM CLR 17/M02 A3028 RMK AO2 SLP264 T01671022 $
KECS 311855Z AUTO 16004KT 10SM CLR 02/M04 A2991 RMK AO2
KECU 311850Z AUTO 15014G18KT 5SM BR OVC002 12/12 A3001 RMK AO2
KEDC 311855Z AUTO 14006KT 10SM OVC017 14/10 A3007 RMK AO2
KEDE 311855Z AUTO 33009G17KT 10SM CLR 05/M14 A3031 RMK AO2 T00461141
KEDJ 311850Z AUTO 22013KT 10SM CLR 00/M05 A3025 RMK AO1
KEDN 311855Z AUTO 06004KT 10SM CLR 13/M04 A3030 RMK AO2
KEDU 311900Z AUTO 35015G22KT 10SM CLR 18/M02 A2999 RMK AO1
KEDW 311858Z 06004KT 60SM FEW060 BKN110 BKN200 15/06 A2998 RMK AO2A SLP146 T01460055
KEED 311856Z AUTO 01010G18KT 10SM OVC080 17/08 A2991 RMK AO2 SLP114 T01670083
KEEN 311855Z AUTO 35015G20KT 10SM CLR M09/M22 A2996 RMK AO1
KEEO 311902Z AUTO 22008KT 10SM FEW005 SCT024 OVC030 01/M01 A2992 RMK AO2 T00061006
KEET 311853Z AUTO VRB03KT 10SM CLR 13/M08 A3031 RMK AO2 SLP263 T01331078
KEFD 311750Z 09013KT 10SM BKN025 BKN150 16/10 A3018
KEFK 311855Z AUTO 31012G15KT 10SM CLR M18/M25 A3002 RMK AO2 T11791254
KEFT 311855Z AUTO 30003KT 10SM OVC075 00/M03 A3013 RMK AO2
KEGE 311850Z 00000KT 2SM -SN BR OVC022 03/02 A2990
KEGI 311858Z AUTO 10003KT 4SM HZ CLR 16/M04 A3028 RMK AO2 SLP257 T01631042 $
KEGV 311850Z AUTO 33011G16KT 10SM -SN SCT017 OVC023 M05/M10 A3011 RMK AO2 T10551103
KEHA 311908Z AUTO 21012KT 04/M01 RMK AO1 PK WND 17 000 T00391011
KEHC 311855Z AUTO 09019KT 9SM CLR 19/15 A3012 RMK A01
KEHO 311855Z AUTO 00000KT 10SM CLR 08/M15 A3031 RMK AO2 T00811150
KEHR 311855Z AUTO 22008KT 10SM BKN110 05/M05 A3035 RMK AO1
KEHY 311855Z AUTO 27009KT 10SM BKN050 01/M01 A2984 RMK AO2
KEIK 311855Z AUTO 02004KT 10SM BKN036 BKN048 BKN070 04/M03 A2986 RMK AO2 T00361031
KEIR 311855Z AUTO 10007KT 10SM CLR 18/13 A3019 RMK A01
KEKM 311852Z 22009KT 10SM SKC 03/M07 A3019 RMK AO2
KEKN 311851Z AUTO 35004KT 10SM CLR M02/M12 A3023 RMK AO2 SLP272 T10171117 TSNO
KEKO 311856Z AUTO 20014KT 10SM CLR 05/M03 A3013 RMK AO2 SLP214 T00501033
KEKQ 311856Z AUTO 00000KT 10SM CLR 07/M10 A3035 RMK AO2 T00721100 SLP290
KELA 311855Z AUTO 13012KT 10SM OVC024 19/14 A3008 RMK AO2 T01850136
KELD 311853Z AUTO 10006KT 10SM CLR 11/M01 A3024 RMK AO2 SLP239 T01111011
KELM 311853Z 35006KT 10SM SCT034 M07/M14 A3020 RMK AO2 SLP245 T10671144
KELN 311853Z AUTO 00000KT 8SM OVC008 02/M01 A3032 RMK AO2 SLP283 T00221011
KELO 311853Z AUTO 33009G14KT 290V350 10SM SCT028 M11/M18 A3024 RMK AO2
KELP 311851Z 00000KT 10SM SCT008 BKN060 BKN100 11/08 A2990 RMK AO2 RAB04E14 SLP098 CLDS TPG MTNS SW-NW P0000 T01060078
KELY 311853Z AUTO 01016KT 10SM CLR 04/M01 A3009 RMK AO2 SLP173 T00441011
KELZ 311856Z AUTO 28009KT 10SM UP FEW030 M08/M15 A3012 RMK AO2 UPB56 SLP244 P0000 T10781150
KEMK 311855Z AUTO 14020KT 8SM FEW025 21/16 A3010 RMK A01
KEMM 311855Z AUTO 26009G14KT 10SM BKN007 00/M02 A2996 RMK AO2
KEMP 311853Z AUTO 16011KT 3SM -RA BR BKN008 OVC014 02/02 A3009 RMK AO2 CIG 006V011 SLP201 P0003 T00220022
KEMT 311845Z 00000KT 10SM SCT028 18/11 A2995
KEMV 311855Z AUTO 27005KT 10SM CLR 05/M15 A3031 RMK AO2
KEND 311903Z AUTO 15013KT 10SM -DZ OVC010 05/04 A3002 RMK AO2 CIG 008V010 $
KENL 311855Z AUTO 19006KT 10SM CLR 04/M04 A3029 RMK AO2 T00421038
KENV 311855Z AUTO 15006KT 10SM CLR 08/M04 A3008 RMK AO1
KENW 311853Z 31007KT 10SM CLR 02/M06 A3016 RMK AO2 SLP222 T00171056
KEOE 311855Z AUTO 00000KT 10SM CLR 08/M08 A3036 RMK AO2
KEOK 311855Z AUTO 22005KT 3SM -UP SCT023 BKN032 BKN039 02/01 A3021 RMK AO2 P0001
KEPH 311853Z AUTO 00000KT 10SM OVC013 02/M01 A3035 RMK AO2 SLP289 T00221006
KEQA 311855Z AUTO 18012KT 7SM -RA OVC008 05/03 A3006 RMK AO2
KEQY 311853Z AUTO 29004KT 10SM CLR 09/M13 A3031 RMK AO2 SLP283 T00941133
KERI 311851Z 21007KT 10SM OVC031 M05/M11 A3025 RMK AO2 SLP255 T10501111
KERV 311855Z AUTO 15010KT 7SM OVC005 12/11 A3004 RMK AO2 P0001 T01200113
KERY 311855Z AUTO 31012G19KT 4SM -SN OVC013 M05/M07 A3009 RMK AO2 T10521072
KESC 311855Z AUTO 35006KT 10SM OVC024 M03/M09 A3016 RMK AO1
KESF 311853Z AUTO 12007KT 10SM CLR 15/01 A3022 RMK AO2 SLP232 T01500011
KESN 311850Z 30011G18KT 10SM SKC M01/M13 A3030
KEST 311902Z AUTO 03009KT 3SM BR OVC003 M03/M04 A3012 RMK AO2 T10331039
KETB 311850Z AUTO 31004KT 10SM OVC024 M01/M07 A3015 RMK AO2
KETC 311855Z AUTO 29007KT 270V330 10SM CLR 07/M13 A3032 RMK AO2 T00691132
KETH 311856Z AUTO 35012KT 10SM OVC019 M08/M12 A3029 RMK AO2
KEUF 311858Z AUTO 00000KT 10SM CLR 16/M05 A3030 RMK AO2 SLP261 T01611050
KEUG 311854Z 00000KT 1/2SM R16R/4500VP6000FT FG VV002 04/03 A3021 RMK AO2 SLP231 VIS 1/4V1 T00390033
KEUL 311855Z AUTO 32004KT 10SM CLR 04/M01 A3021 RMK AO1
KEVB 311847Z 04012G16KT 10SM SCT040 20/09 A3030
KEVM 311851Z AUTO 01006G14KT 330V040 10SM CLR M09/M17 A3026 RMK AO2
KEVV 311854Z 19005KT 10SM CLR 06/M05 A3034 RMK AO2 SLP277 T00561050
KEVW 311908Z AUTO 25005KT 10SM BKN010 01/M02 A3000 RMK AO2 T00111022
KEWB 311853Z 31014G30KT 10SM CLR M05/M22 A2983 RMK AO2 PK WND 32030/1845 SLP102 T10501222
KEWK 311855Z AUTO 17014KT 5SM OVC006 04/01 A3004 RMK AO1
KEWN 311854Z 35007KT 320V020 10SM CLR 08/M14 A3033 RMK AO2 SLP269 T00781144
KEWR 311851Z 29018G25KT 10SM CLR M04/M18 A3012 RMK AO2 PK WND 32031/1758 SLP198 T10391178 $
KEXX 311855Z AUTO 33003KT 10SM CLR 08/M14 A3030 RMK AO2 T00801143
KEYE 311853Z AUTO 21008G15KT 10SM BKN100 02/M06 A3026 RMK AO2 SLP257 T00221056
KEYF 311855Z AUTO 32004KT 10SM CLR 09/M15 A3033 RMK AO2 T00871150
KEYW 311853Z 05007G16KT 10SM CLR 23/15 A3016 RMK AO2 SLP214 T02330150
KEZF 311855Z AUTO 26008KT 10SM CLR 03/M15 A3028 RMK AO2 T00271152
KEZM 311855Z AUTO 00000KT 10SM CLR 14/M06 A3036 RMK AO2 T01441056
KEZS 311855Z AUTO 35004KT 10SM OVC025 00/M07 A3014 RMK AO2 T10021066
KF05 311855Z AUTO 15008KT 7SM SCT008 OVC011 07/04 A3004 RMK AO1 P0005 T00650036
KF44 311855Z AUTO 14008KT 10SM OVC023 12/03 A3012 RMK AO2
KF46 311855Z AUTO 10010G15KT 10SM OVC021 11/02 A3011 RMK AO2 T01130019
KF70 311855Z AUTO 00000KT 10SM CLR 14/09 A2993 RMK AO1
KFAF 311858Z AUTO 33012KT 10SM CLR 03/M11 A3027 RMK AO2 SLP254 T00251110 $
KFAM 311855Z AUTO 16005KT 10SM SCT075 OVC100 06/M06 A3029 RMK AO1
KFAR 311853Z 01018KT 10SM CLR M11/M19 A3035 RMK AO2 PK WND 02026/1814 SLP297 T11061194
KFAT 311853Z 30006KT 2SM HZ BKN012 11/08 A3004 RMK AO2 SFC VIS 2 1/2 SLP171 T01110083
KFAY 311853Z AUTO 29008KT 10SM CLR 09/M17 A3033 RMK AO2 SLP266 T00941172
KFBG 311858Z AUTO 24005KT 10SM CLR 09/M17 A3032 RMK AO2 SLP272 T00911167
KFBL 311854Z AUTO 04006KT 7SM OVC011 M02/M04 A3017 RMK AO2
KFBR 311855Z AUTO 28016G19KT 10SM CLR 03/00 A3000 RMK AO2 T00280000
KFCI 311855Z AUTO 31009KT 10SM CLR 04/M14 A3029 RMK AO1
KFCM 311853Z 03008KT 9SM OVC017 M02/M06 A3019 RMK AO2 SLP236 T10171061
KFCS 311858Z AUTO 33002KT 10SM OVC024 04/M02 A2982 RMK AO2 SLP119 T00391025
KFDK 311850Z 30010G15KT 10SM SKC M01/M16 A3030
KFDR 311853Z AUTO 15010KT 2 1/2SM -RA BR BKN010 OVC016 06/04 A3001 RMK AO2 CIG 006V013 SLP162 P0003 T00560044 $
KFDW 311855Z AUTO 00000KT 10SM CLR 11/M10 A3033 RMK AO1
KFDY 311853Z AUTO 22012KT 10SM CLR 01/M06 A3023 RMK AO2 SLP245 T00061061
KFEP 311855Z AUTO 29004KT 10SM OVC065 01/M04 A3016 RMK AO2 T00081041
KFET 311855Z AUTO 15006KT 2SM -SN OVC005 02/01 A3006 RMK AO2 P0004 T00150011
KFEW 311856Z AUTO 36004KT 6SM -SHSN FEW011 OVC040 00/M02 A2980 RMK AO2 SNE24SHRAB38E52SHSNB52 PRESFR SLP116 T00041024 $
KFFA 311855Z AUTO 31008KT 10SM CLR 02/M14 A3027 RMK AO2 T00241145
KFFC 311853Z AUTO 30003KT 10SM CLR 11/M08 A3032 RMK AO2 SLP272 T01111078
KFFL 311855Z AUTO 21005KT 4SM -UP CLR 03/01 A3018 RMK AO2
KFFM 311854Z AUTO 02007KT 10SM OVC110 M08/M15 A3029 RMK AO2
KFFO 311858Z 20010KT 10SM BKN250 02/M05 A3028 RMK AO2A SLP269 T00191053
KFFT 311853Z AUTO 27007KT 10SM CLR 04/M09 A3031 RMK AO2 SLP274 T00441089
KFFX 311853Z AUTO 29007KT 10SM OVC022 00/M05 A3014 RMK AO2 T00001052
KFFZ 311847Z 00000KT 20SM FEW020 OVC060 13/13 A2985 RMK WIND ESTIMATED
KFGN 311854Z AUTO 01011KT 10SM CLR M19/M25 A3043 RMK AO2
KFGX 311855Z AUTO 23008KT 10SM CLR 03/M06 A3032 RMK AO2 T00301062
KFHB 311855Z AUTO 05012G15KT 10SM CLR 16/03 A3033 RMK AO1
KFHR 311853Z AUTO 02005KT 10SM OVC010 07/04 A3027 RMK AO2 SLP249 T00670039
KFHU 311856Z AUTO 00000KT 10SM FEW007 OVC028 09/07 A2989 RMK AO2 SLP103 T00890067 $
KFIG 311854Z AUTO 28010KT 10SM CLR M06/M14 A3019 RMK AO2 SLP254 T10611139
KFIN 311850Z 07011G17KT 7SM SKC A3030
KFKA 311855Z AUTO 03005KT 7SM OVC012 M01/M04 A3014 RMK AO2 T10111039
KFKL 311855Z AUTO 26010KT 10SM OVC020 M07/M12 A3023 RMK AO1
KFKN 311855Z AUTO 31006KT 10SM CLR 04/M14 A3030 RMK AO2 T00361143
KFKR 311855Z AUTO 20012KT 10SM SCT038 03/M03 A3026 RMK AO2 T00301032
KFKS 311851Z AUTO 34004KT 10SM OVC029 M02/M05 A3015 RMK AO2 T10251054
KFLD 311853Z AUTO 35005KT 10SM OVC025 M01/M07 A3016 RMK AO2 SLP226 T10111072
KFLG 311857Z 05006KT 10SM OVC021 06/01 A2994 RMK AO2 SLP098 T00560011
KFLL 311853Z COR 08012G18KT 10SM FEW049 BKN250 22/11 A3020 RMK AO2 SLP225 T02220111
KFLO 311853Z 26005KT 10SM CLR 09/M13 A3035 RMK AO2 SLP275 T00941128
KFLP 311855Z 12005KT 10SM CLR 08/M06 A3023 RMK AO1
KFLY 311853Z AUTO 00000KT 5SM -SN OVC016 01/M01 A2984 RMK AO2 T00081010
KFME 311851Z AUTO 29008G15KT 10SM CLR M01/M14 A3029 RMK AO1
KFMH 311855Z 30016G25KT 10SM SKC M05/M21 A2979 RMK AO2
KFMM 311855Z AUTO 35005KT 10SM SCT014 OVC022 03/M01 A2986 RMK AO2 T00301011
KFMN 311853Z 26005KT 6SM BR OVC005 02/01 A2991 RMK AO2 CIG 003V008 SLP137 T00220011
KFMY 311853Z 11009G15KT 070V130 10SM SCT050 24/10 A3019 RMK AO2 SLP225 T02390100
KFNB 311853Z AUTO 12007KT 1SM -SN BR OVC006 01/01 A3013 RMK AO2 RAE1756SNB1756 SLP209 P0005 T00060006
KFNL 311855Z AUTO 36004KT 10SM FEW055 04/M03 A2988 RMK AO1
KFNT 311853Z 24008KT 10SM OVC044 00/M06 A3016 RMK AO2 SLP225 T00001061
KFOA 311855Z AUTO 20006KT 10SM CLR 05/M02 A3031 RMK AO2 T00451017
KFOD 311855Z AUTO 00000KT 1 1/4SM OVC004 01/M01 A3012 RMK AO1
KFOE 311853Z 17008KT 3SM -RA BR OVC008 03/01 A3013 RMK AO2 CIG 005V010 SLP208 P0006 T00280011
KFOK 311853Z 31019G32KT 10SM CLR M05/M17 A3000 RMK AO2 PK WND 34040/1754 SLP158 T10501172
KFOT 311855Z AUTO 14007KT 10SM CLR 12/08 A3006 RMK AO1
KFOZ 311853Z AUTO 02007KT 353V053 10SM CLR M11/M18 A3029 RMK AO2
KFPK 311855Z AUTO 24010KT 10SM BKN036 00/M07 A3014 RMK AO2 T00011067
KFPR 311853Z 06007KT 010V090 10SM SCT030 21/09 A3024 RMK AO2 SLP240 T02110094
KFQD 311855Z AUTO 20003KT 10SM CLR 10/M16 A3030 RMK AO2 T00961156
KFRG 311853Z 31014G25KT 10SM CLR M04/M18 A3006 RMK AO2 PK WND 33027/1841 SLP179 T10441178
KFRI 311903Z AUTO 13008KT 6SM -RA BR FEW008 BKN019 OVC025 02/02 A3006 RMK AO2
KFRM 311855Z AUTO 03008KT 1/4SM OVC002 M03/M04 A3012 RMK AO1
KFRR 311855Z AUTO 01006KT 10SM CLR 01/M13 A3024 RMK AO1
KFSD 311856Z 06014KT 6SM BR OVC006 M03/M04 A3010 RMK AO2 SLP212 T10331044 $
KFSE 311855Z AUTO 01013G16KT 10SM CLR M12/M16 A3034 RMK AO2
KFSI 311858Z AUTO 14011KT 5SM -RA BR SCT010 OVC021 05/05 A3002 RMK AO2 SLP170 P0005 T00510049
KFSM 311853Z 15010G17KT 10SM FEW120 12/M03 A3019 RMK AO2 SLP223 T01171033
KFSO 311855Z AUTO 30004KT 10SM CLR M16/M26 A3017 RMK AO2 T11581257
KFST 311853Z AUTO 17013KT 10SM CLR 15/10 A2990 RMK AO2 PRESFR SLP098 T01500100
KFSW 311855Z AUTO 18005KT 7SM -DZ OVC033 02/M02 A3021 RMK AO2
KFTG 311750Z 32004KT 20SM BKN033 OVC038 02/M02 A2989
KFTK 311858Z AUTO 20006KT 10SM FEW160 04/M06 A3032 RMK AO2 SLP278 T00441060
KFTN 311950Z AUTO 18010KT 10SM FEW006 BKN010 OVC022 17/17 A2999 RMK AO1
KFTW 311853Z 13014KT 6SM HZ OVC018 11/04 A3007 RMK AO2 RAB24E42 SLP182 P0000 T01060039
KFTY 311853Z VRB04KT 10SM CLR 11/M08 A3032 RMK AO2 SLP269 T01061078
KFUL 311853Z 00000KT 10SM CLR 18/11 A2992 RMK AO2 SLP129 T01780111
KFVE 311853Z AUTO 32020KT 9SM OVC060 M16/M19 A2968 RMK AO2 PK WND 32030/1836 SLP071 T11611194
KFVX 311855Z AUTO 18004KT 10SM CLR 07/M16 A3026 RMK AO2 T00731160
KFWA 311854Z 23010KT 10SM BKN240 02/M04 A3022 RMK AO2 SLP245 T00171039
KFWB 311855Z AUTO 12006KT 10SM CLR 06/M05 A3017 RMK AO2
KFWC 311855Z AUTO 22007KT 10SM BKN100 05/M03 A3032 RMK AO1 T00451032
KFWN 311853Z AUTO 31011G19KT 10SM CLR M06/M18 A3011 RMK AO2 SLP203 T10561183
KFWS 311847Z 12010KT 10SM OVC017 11/04 A3010
KFWZ 311855Z AUTO 00000KT 10SM CLR 01/M09 A2981 RMK AO2
KFXE 311853Z 07013G22KT 10SM SCT045 SCT050 23/11 A3020 RMK AO2 SLP229 T02280106
KFXY 311855Z AUTO 07006KT 7SM OVC010 00/M03 A3012 RMK AO2
KFYG 311855Z AUTO 13005KT 10SM FEW055 OVC065 05/M04 A3024 RMK AO2
KFYJ 311855Z AUTO 27007KT 10SM CLR 04/M19 A3031 RMK AO2 T00371194
KFYM 311855Z AUTO 10SM CLR 07/M09 A3031 RMK
KFYV 311853Z 18011KT 10SM BKN100 08/M04 A3016 RMK AO2 SLP217 T00781039
KFZG 311855Z AUTO 14004KT 10SM CLR 14/M08 A3035 RMK AO2 T01441085
KFZY 311854Z AUTO 34006KT 10SM OVC043 M11/M16 A3026 RMK AO2 UPE15B41E53 SLP256 P0000 T11061161
KGAD 311855Z 00000KT 10SM CLR 10/M07 A3032 RMK AO1
KGAG 311903Z AUTO 19016G20KT 10SM -RA BKN010 OVC013 04/03 A2996 RMK AO2 CIG 007V011 P0000 T00440033
KGAI 311855Z 29010KT 10SM CLR M03/M14 A3030 RMK AO1
KGAO 311855Z AUTO 10SM CLR 19/11 A3023 RMK AO2 T01890109
KGBG 311855Z AUTO 22009G14KT 3SM BR BKN011 BKN015 OVC019 02/00 A3020 RMK AO2 T00170000
KGBK 311855Z AUTO 08008G16KT 050V120 10SM FEW090 22/14 A3012 RMK A01
KGCC 311853Z AUTO 18011KT 10SM CLR 06/M04 A2987 RMK AO2 SLP132 T00561039 TSNO
KGCD 311855Z AUTO 00000KT 10SM OVC003 M01/M02 A3025 RMK AO2 T10101017
KGCK 311854Z 20017G22KT 10SM OVC008 03/02 A2986 RMK AO2 CIG 007V012 SLP125 T00330022
KGCM 311855Z AUTO 17011KT 10SM -RA CLR 06/M01 A3018 RMK AO2
KGCN 311854Z VRB03KT 10SM BKN017 07/01 A2994 RMK AO2 SLP105 T00720011
KGDB 311853Z AUTO 01007KT 5SM BR OVC008 M04/M05 A3020 RMK AO2 T10361050
KGDJ 311855Z AUTO 12009KT 10SM -RA OVC016 10/06 A3007 RMK AO2 T00970056
KGDP 311851Z AUTO 25015KT 1/4SM FG VV002 08/07 A2993 RMK AO2 SLP122 T00780072 $
KGDV 311855Z AUTO 07014KT 10SM OVC008 M06/M08 A3012 RMK AO1
KGED 311854Z AUTO 31011G17KT 10SM CLR M01/M17 A3022 RMK AO2 SLP234 T10111167
KGEG 311853Z 22006KT 6SM -SN BR FEW001 OVC009 M01/M02 A3029 RMK AO2 SNB20 SLP280 VIS S-SW 1 1/2 P0000 T10061022
KGEU 311847Z 00000KT 20SM FEW015 SCT035 BKN080 16/12 A2987
KGEV 311855Z AUTO 27009KT 10SM CLR 04/M20 A3022 RMK AO2 T00391205
KGEY 311853Z AUTO 11005KT 1/4SM FZFG VV002 M02/M03 A2995 RMK AO2 SLP179 T10221033
KGEZ 311853Z AUTO 23011KT 10SM BKN100 03/M06 A3028 RMK AO2 SLP262 T00331056
KGFA 311856Z AUTO 32014G20KT 10SM -SN BKN015 M09/M12 A3029 RMK AO2 SLP311 T10941120
KGFK 311853Z 02016KT 10SM OVC090 M17/M22 A3046 RMK AO2 SLP339 T11671222
KGFL 311853Z AUTO 13005KT 10SM CLR M11/M22 A3010 RMK AO2 SLP208 T11061217
KGGE 311915Z AUTO 11006KT 10SM CLR 10/M03 A3036 RMK AO2
KGGG 311853Z 13009KT 10SM CLR 13/01 A3016 RMK AO2 PRESFR SLP213 T01330006
KGGI 311855Z AUTO 21008KT 1 3/4SM -DZ SCT003 BKN010 OVC024 02/02 A3015 RMK AO2 T00230015
KGGP 311855Z AUTO 21009KT 10SM SCT090 01/M03 A3024 RMK AO2
KGGW 311853Z AUTO 06020KT 1/4SM +SN VV012 M11/M13 A3023 RMK AO2 PK WND 06027/1808 SLP278 P0002 T11061133
KGHB 311855Z AUTO VRB05G16KT 9SM FEW039 21/14 A3014 RMK A01
KGHG 311855Z AUTO 31019G26KT 010V020 8SM CLR M04/M20 A2982 RMK AO2
KGHW 311853Z AUTO 03012KT 10SM BKN100 M03/M09 A3020 RMK AO2
KGIC 311855Z AUTO 00000KT 7SM OVC002 A3027 RMK AO1
KGIF 311853Z AUTO 09010KT 10SM FEW047 22/09 A3026 RMK AO2 SLP245 T02170089
KGJT 311853Z 30006KT 10SM -RA BKN011 BKN018 OVC029 03/03 A2993 RMK AO2 RAE34B51 SLP133 P0000 T00330028
KGKJ 311853Z AUTO 21004KT 7SM OVC020 M06/M11 A3021 RMK AO2 SLP254 T10611106 TSNO
KGKT 311855Z AUTO 00000KT 10SM CLR 06/M12 A3032 RMK
KGKY 311853Z 12011KT 10SM OVC019 11/03 A3009 RMK AO2 SLP186 T01110028
KGLD 311853Z AUTO 35005KT 10SM OVC011 04/01 A2984 RMK AO2 SLP112 T00390011
KGLE 311855Z AUTO 13008KT 10SM SCT026 BKN037 OVC080 09/01 A3010 RMK AO2 T00930006
KGLH 311853Z AUTO 13006KT 10SM CLR 12/M03 A3025 RMK AO2 SLP251 T01171028
KGLR 311853Z AUTO 27005G14KT 9SM OVC012 M05/M07 A3007 RMK AO2 SLP207 T10501072
KGLS 311852Z 07015KT 10SM OVC024 17/13 A3013 RMK AO2 SLP203 T01670133
KGLW 311855Z AUTO 24007KT 10SM CLR 05/M05 A3034 RMK AO2 T00471053
KGLY 311915Z AUTO 11003KT 10SM CLR 04/01 A3018 RMK AO2
KGMJ 311855Z AUTO 18005KT 10SM BKN080 OVC090 10/M06 A3017 RMK AO2
KGMU 311853Z 22005KT 10SM CLR 09/M11 A3032 RMK AO2 SLP271 T00941106
KGNA 311856Z AUTO 02008KT 330V060 M09/M18 A3027 RMK AO1 SLP270 T10891178
KGNC 311855Z AUTO 16005KT 10SM OVC003 06/06 A2995 RMK AO2 T00610061
KGNF 311855Z AUTO 09006KT 10SM CLR 10/M02 A3028 RMK AO2
KGNR 311856Z AUTO 32020G30KT M16/M19 A2963 RMK AO1 PK WND 33036/1801 SLP069 T11561194
KGNT 311855Z AUTO 13004KT 10SM SCT008 BKN015 OVC038 03/00 A2993 RMK AO2 T00260000
KGNV 311853Z 04010G16KT 10SM CLR 18/05 A3029 RMK AO2 SLP258 T01780050
KGOK 311853Z AUTO 16011G18KT 6SM -RA BR FEW060 OVC080 05/03 A3007 RMK AO2 SLP188 P0003 T00500033
KGON 311856Z 33015G24KT 10SM CLR M07/M19 A2995 RMK AO2 PK WND 33032/1831 SLP140 T10671194 $
KGOO 311900Z AUTO 00000KT 10SM CLR 17/M11 A3003 RMK AO1
KGOP 311855Z AUTO 12003KT 3SM BR OVC010 08/07 A3008 RMK AO2
KGOV 311855Z AUTO 27008KT 10SM OVC015 M03/M07 RMK AO2 T10351068
KGPH 311915Z AUTO 14004KT 5SM -RA 03/03 A3017 RMK AO2
KGPI 311855Z 29004KT 6SM BR OVC034 M03/M04 A3018 RMK AO2 SLP257 T10281039
KGPM 311850Z 12008KT 10SM OVC020 11/05 A3010
KGPT 311853Z 11017KT 10SM CLR 15/06 A3026 RMK AO2 SLP247 T01500061 $
KGPZ 311855Z AUTO 35009KT 10SM CLR M09/M18 A3025 RMK AO1
KGRB 311853Z 29004KT 10SM OVC024 M03/M08 A3017 RMK AO2 SLP227 T10281078
KGRD 311856Z AUTO VRB04KT 10SM CLR 11/M10 A3034 RMK AO2 RAE01 SLP276 P0000 T01111100
KGRF 311908Z AUTO 08003KT 3/4SM R15/4000FT BR OVC002 05/05 A3022 RMK AO2
KGRI 311853Z 16010KT 1 1/4SM -SN BR OVC007 01/M01 A2999 RMK AO2 SLP174 P0001 T00061006 $
KGRK 311858Z 13008KT 2SM BR FEW005 OVC009 08/07 A3005 RMK AO2A SLP178 T00800072
KGRR 311853Z 25012KT 9SM OVC021 01/M04 A3015 RMK AO2 SLP222 T00061039
KGRY 311855Z AUTO 14015KT 10SM SCT039 21/13 A3015 RMK A01
KGSB 311858Z AUTO 00000KT 10SM CLR M03/M09 A3030 RMK AO2 SLP265
KGSH 311853Z AUTO 23012KT 10SM CLR 02/M04 A3019 RMK AO2 SLP233 T00221044
KGSO 311854Z 27007KT 10SM SCT250 08/M17 A3028 RMK AO2 SLP260 T00831172
KGSP 311853Z 10SM CLR 10/M11 A3030 RMK AO2 SLP261 T01001111 $
KGTB 311858Z AUTO VRB03KT 10SM BKN021 BKN034 M15/M25 A3021 RMK AO2 CIG 021V034 BKN021 V SCT SLP250 T11511255
KGTF 311908Z 33014KT 4SM -SN FEW012 BKN020 OVC034 M09/M12 A3026 RMK AO2 P0000
KGTR 311850Z 18008KT 10SM FEW090 12/M06 A3030
KGTU 311848Z 00000KT 8SM OVC013 11/08 A3007
KGUC 311855Z 00000KT 9SM OVC008 01/M02 A2989 RMK AO1
KGUL 311855Z AUTO 10SM FEW028 FEW065 21/15 A3010 RMK A01
KGUP 311853Z AUTO 25004KT 10SM BKN008 BKN014 OVC024 02/01 A2992 RMK AO2 SLP132 T00220011
KGUR 311855Z AUTO 15003KT 10SM SCT070 07/00 A2988 RMK AO2 T00691003
KGUS 311858Z AUTO 23013KT 10SM FEW100 02/M04 A3022 RMK AO2 SLP248 T00201036
KGUY 311853Z AUTO 19018KT 10SM -RA OVC010 04/03 A2989 RMK AO2 RAB1757E11B50 CIG 008V013 SLP121 P0000 T00440028
KGVE 311855Z AUTO 23008KT 10SM CLR 04/M17 A3024 RMK AO1 T00381171
KGVL 311853Z AUTO 26006KT 10SM CLR 09/M08 A3031 RMK AO2 SLP268 T00891078
KGVT 311855Z AUTO 12010KT 10SM BKN095 13/00 A3012 RMK AO2
KGVX 311855Z AUTO 11014KT 9SM FEW075 18/17 A3012 RMK A01
KGWB 311855Z AUTO 24008KT 10SM CLR 02/M05 A3020 RMK AO2
KGWO 311853Z AUTO 14007KT 10SM CLR 14/M06 A3025 RMK AO2 SLP244 T01391061
KGWR 311855Z AUTO 02019KT 10SM CLR M09/M16 A3030 RMK A01 P000
KGWW 311855Z AUTO 29008KT 260V320 10SM CLR 06/M14 A3032 RMK AO2 T00631141
KGXA 311855Z AUTO 04005KT 10SM OVC046 12/03 A2999 RMK AO2 SLP162 T01210031 TSNO $
KGXF 311856Z AUTO 00000KT 5SM RA FEW007 SCT041 OVC049 14/13 A2986 RMK AO2 SLP107 P0011 T01370132
KGXY 311855Z AUTO 06003KT 10SM CLR 04/M04 A2986 RMK AO1
KGYB 311855Z AUTO 14010G15KT 10SM BKN020 BKN032 17/11 A3011 RMK AO2 T01730113
KGYH 311847Z 25007KT 10SM CLR 08/M16 A3031
KGYI 311855Z AUTO 12012KT 10SM SCT045 BKN090 OVC120 11/02 A3010 RMK AO2 T01050023
KGYL 311855Z AUTO 02007KT 10SM OVC012 M02/M04 A3018 RMK AO2 T10171037
KGYR 311847Z 06004KT 10SM FEW015 SCT035 BKN080 16/12 A2987
KGYY 311845Z 22009KT 10SM OVC070 03/M06 A3018
KGZH 311853Z AUTO 10003KT 10SM CLR 15/M05 A3029 RMK AO2 SLP258 T01501050
KGZL 311855Z AUTO 16006KT 10SM CLR 10/M07 A3018 RMK AO2
KH21 311855Z AUTO 11005KT 10SM SCT043 OVC050 04/00 A3022 RMK AO2
KHAE 311855Z AUTO 18007KT 3SM -SN BKN010 SCT018 OVC031 02/00 A3024 RMK AO2 P0002
KHAF 311855Z AUTO 32006KT 9SM 20/00 A3001 RMK AO2
KHAI 311855Z AUTO 21006KT 10SM CLR 02/M05 A3017 RMK AO2 T00191054
KHAO 311853Z AUTO 22007KT 10SM CLR 03/M07 A3032 RMK AO2 SLP275 T00281067
KHBG 311853Z AUTO 00000KT 10SM CLR 15/M03 A3028 RMK AO2 SLP252 T01501033
KHBI 311855Z AUTO 31004KT 10SM CLR 07/M16 A3033 RMK AO2 T00701158
KHBR 311853Z AUTO 18013KT 3SM -RA BR OVC007 05/04 A3003 RMK AO2 CIG 005V011 SLP174 P0007 T00500044
KHBV 311855Z AUTO 13018G22KT 10SM SCT032 SCT042 BKN048 21/14 A2999 RMK AO2 T02120141 PWINO
KHCD 311852Z AUTO 02011KT 10SM OVC013 M02/M05 A3020 RMK AO2 T10251048
KHCO 311855Z AUTO 35016KT 10SM CLR M19/M24 A3049 RMK AO2
KHDC 311855Z AUTO 15011G17KT 10SM CLR 18/06 A3025 RMK AO2
KHDE 311855Z AUTO 15008KT 1SM -RA OVC002 00/00 A2992 RMK AO2 T00011002
KHDN 311855Z AUTO 27009KT 10SM BKN011 OVC025 M01/M03 A2991 RMK AO1
KHDO 311905Z AUTO 10006KT 2 1/2SM -RA BR OVC003 13/13 A3002 RMK AO2 P0000 T01330133 $
KHEF 311845Z 35008G15KT 10SM CLR 01/M13 A3029
KHEI 311909Z AUTO 08016KT 2SM BR OVC002 M08/M09 A3012 RMK AO2 I1000 T10781094
KHEY 311853Z AUTO 11006KT 10SM CLR 14/M04 A3030 RMK AO2 SLP248 T01391039
KHEZ 311855Z AUTO 14007KT 10SM CLR 15/M02 A3024 RMK AO1
KHFD 311853Z 33007G18KT 300V360 10SM CLR M07/M21 A3002 RMK AO2 SLP166 T10721211
KHFF 311856Z AUTO 33009G14KT 10SM CLR 11/M17 A3034 RMK AO2 SLP279 T01061175
KHFJ 311855Z AUTO 12008KT 10SM BKN075 OVC090 06/M04 A3014 RMK AO2
KHGR 311853Z 29008KT 10SM CLR M03/M14 A3025 RMK AO2 SLP264 T10331144
KHHF 311855Z AUTO 19008KT 10SM DZ OVC012 05/04 A2996 RMK AO2 T00470040
KHHG 311855Z AUTO 22010G15KT 10SM SCT060 02/M07 A3022 RMK AO2 T00161070
KHHR 311853Z 00000KT 10SM BKN020 18/12 A2993 RMK AO2 SLP135 T01830117
KHHV 311855Z AUTO 14015G23KT 110V170 9SM CLR 22/17 A3008 RMK A01
KHHW 311855Z AUTO 13010KT 10SM CLR 12/M01 A3015 RMK AO2 T01171006
KHIB 311853Z AUTO 01008KT 10SM CLR M09/M17 A3025 RMK AO2 SLP273 T10891172
KHIE 311852Z AUTO 29008KT 10SM CLR M14/M23 A2994 RMK AO2 SLP165 T11391233
KHIF 311858Z AUTO 22005KT 10SM CLR 05/M03 A3004 RMK AO2 SLP166 T00541033
KHII 311855Z AUTO 32012G17KT 10SM OVC085 16/10 A2989 RMK AO2
KHIO 311853Z 29003KT 6SM BR SCT002 04/03 A3022 RMK AO2 SLP234 VIS S-W 3 T00390028 $
KHJH 311855Z AUTO 16010KT 1 1/4SM -SN OVC007 01/00 A3001 RMK AO2 P0003 T00051002
KHJO 311853Z AUTO 34004KT 1 1/4SM BR CLR 13/11 A3003 RMK AO2 SLP171 T01330111
KHKA 311853Z AUTO 13003KT 10SM BKN110 07/M04 A3030 RMK AO2 SLP260 T00721039
KHKS 311853Z 12008KT 10SM CLR 13/M04 A3026 RMK AO2 SLP242 T01281044
KHKY 311853Z 00000KT 10SM CLR 08/M17 A3028 RMK AO2 SLP250 T00831172
KHLC 311853Z AUTO 18010KT 7SM OVC007 03/02 A2990 RMK AO2 RAE1759 SLP139 P0000 T00280017
KHLG 311853Z 22005KT 10SM CLR M03/M11 A3026 RMK AO2 SLP271 T10331106
KHLN 311853Z 36015G22KT 3SM -SN FEW022 OVC038 M04/M09 A3019 RMK AO2 SLP288 P0001 T10441094
KHLR 311858Z AUTO 12010KT 4SM HZ SCT007 OVC010 09/06 A3005 RMK AO2 RAE03 SLP176 P0000 T00890063
KHLX 311855Z AUTO 26008KT 10SM CLR 03/M18 A3022 RMK AO2 T00331181
KHMN 311902Z AUTO 00000KT 9SM OVC006 07/07 A2990 RMK AO2 DZE02
KHNB 311855Z AUTO 19003KT 10SM CLR 03/M04 A3034 RMK AO1
KHND 311856Z 02009KT 10SM OVC080 13/07 A2998 RMK AO2 SLP150 T01330067
KHNR 311855Z AUTO 18004KT 3/4SM -SN OVC002 00/00 A3013 RMK AO2 P0003
KHNZ 311855Z AUTO 27006KT 10SM CLR 07/M17 A3029 RMK AO2 T00661174
KHOB 311850Z 15006KT 1/4SM FG OVC001 06/06 A2994
KHOE 311855Z AUTO 16004KT 10SM CLR 16/M01 A3033 RMK AO2
KHON 311855Z AUTO 05015KT 10SM OVC012 M06/M08 A3016 RMK AO2 SLP232 T10561083
KHOP 311858Z AUTO VRB03KT 10SM BKN160 08/M07 A3032 RMK AO2 SLP273 T00771071
KHOT 311853Z AUTO 13004KT 10SM SCT110 08/M03 A3025 RMK AO2 SLP244 T00781033
KHOU 311908Z 11014G19KT 10SM SCT031 BKN150 BKN240 17/12 A3010 RMK AO2
KHPN 311856Z 31020G28KT 10SM CLR M06/M18 A3003 RMK AO2 PK WND 30031/1817 SLP180 T10561178
KHQI 311855Z AUTO 11021KT 10SM SCT027 BKN080 21/16 A3012 RMK A01
KHQM 311853Z AUTO 08013KT 5SM BR FEW004 06/04 A3019 RMK AO2 SLP227 T00560044
KHQU 311855Z AUTO 10SM CLR 13/M06 A3038 RMK AO1 T01261060
KHQZ 311850Z 14010KT 10SM OVC020 11/02 A3012
KHRI 311853Z AUTO 03004KT 7SM FEW008 OVC016 03/02 A3037 RMK AO2 SLP289 T00330017
KHRJ 311855Z AUTO 00000KT 10SM CLR 08/M15 A3033 RMK AO2 T00841153
KHRL 311852Z 17019G28KT 10SM FEW038 SCT049 SCT060 24/15 A3001 RMK AO2 PK WND 16028/1851 SLP161 T02390150
KHRO 311853Z AUTO 15013KT 10SM BKN120 08/M06 A3018 RMK AO2 PRESFR SLP225 T00781056
KHRT 311858Z AUTO 11007KT 10SM CLR 14/M01 A3029 RMK AO2 SLP259 T01351007 $
KHRX 311855Z AUTO 19007KT 10SM OVC006 04/03 A2994 RMK AO2 T00370034
KHSA 311855Z 11011G16KT 10SM CLR 16/05 A3027
KHSB 311855Z AUTO 00000KT 10SM CLR 05/M04 A3034 RMK AO2 T00501038
KHSE 311851Z AUTO 32009G15KT 10SM CLR 03/M10 A3030 RMK AO2 SLP261 T00331100 TSNO
KHSI 311853Z AUTO 16009KT 1 1/4SM -SN BR OVC004 00/M01 A2996 RMK AO2 CIG 003V007 SLP161 P0001 T00001011
KHSP 311855Z AUTO 28011G16KT 10SM CLR 00/M18 A3009 RMK AO2 T10021180
KHST 311858Z AUTO 05012G19KT 10SM CLR 23/12 A3019 RMK AO2 SLP226 T02300120
KHSV 311853Z COR 04004KT 10SM SCT140 BKN250 11/M09 A3031 RMK AO2 SLP265 T01111094
KHTL 311853Z AUTO 28008KT 10SM OVC016 M04/M07 A3009 RMK AO2 SLP212 T10391072
KHTO 311850Z 33020G30KT 10SM SKC M06/M16 A2998
KHTS 311851Z 17006KT 10SM CLR 02/M08 A3031 RMK AO2 SLP274 T00221078
KHUA 311858Z AUTO VRB03KT 10SM OVC130 10/M08 A3030 RMK AO2 SLP265 T00981085
KHUF 311853Z 23008KT 10SM CLR 04/M04 A3029 RMK AO2 SLP264 T00391044
KHUL 311853Z AUTO 35015G24KT 1SM -SN OVC022 M11/M14 A2961 RMK AO2 PK WND 36028/1840 SLP036 P0000 T11111144
KHUM 311850Z 05015KT 7SM SKC 18/10 A3022 RMK RY12/30 CLSD ATIS Y VA/RY36....LJ
KHUT 311852Z 17013KT 4SM -RA BR OVC007 04/03 A3001 RMK AO2 CIG 005V009 SLP163 P0004 T00440028
KHVE 311855Z AUTO 00000KT 10SM OVC060 05/02 A2998 RMK AO2
KHVN 311853Z 32016G33KT 10SM CLR M06/M20 A3002 RMK AO2 PK WND 33033/1848 SLP164 T10611200
KHVR 311853Z AUTO 04015KT 1 1/2SM -SN BKN021 BKN030 OVC035 M09/M12 A3028 RMK AO2 SLP297 P0000 T10941122
KHVS 311855Z AUTO 00000KT 10SM CLR 11/M05 A3034 RMK AO2
KHWD 311854Z AUTO 28006KT 10SM CLR 22/M03 A3000 RMK AO2 SLP170 T02171033
KHWO 311853Z 07014KT 10SM FEW050 A3021 RMK AO2 SLP231 $
KHWV 311856Z AUTO 32021G27KT 10SM CLR M05/M17 A3003 RMK AO2 PK WND 32036/1821 SLP170 T10501172 TSNO
KHWY 311855Z AUTO 00000KT 10SM CLR 03/M10 A3027 RMK AO2 T00271099
KHXD 311850Z 05006KT 10SM SCT250 09/M06 A3039
KHYA 311856Z 31015G30KT 10SM BLSN CLR M04/M19 A2974 RMK AO2 PK WND 32030/1850 SLP072 T10441189
KHYI 311847Z 13003KT 2SM BR BKN008 OVC012 13/11 A3006
KHYR 311853Z AUTO 34008KT 10SM OVC021 M05/M11 A3020 RMK AO2 SLP248 T10501106
KHYS 311855Z AUTO 18010KT 4SM OVC010 03/M02 A2993 RMK AO1
KHYW 311855Z AUTO 33003KT 4SM HZ CLR 10/M11 A3035 RMK AO2
KHYX 311855Z AUTO 23005KT 10SM OVC046 00/M05 A3015 RMK AO2
KHZE 311855Z AUTO 06012G17KT 10SM OVC075 M11/M18 A3030 RMK AO2
KHZL 311855Z AUTO 30010G16KT 10SM CLR M06/M16 A3011 RMK AO2
KHZR 311855Z AUTO 12007KT 10SM CLR 15/04 A3023 RMK AO2 T01470044
KHZX 311848Z AUTO 34011KT 10SM CLR M05/M13 A3022 RMK AO2
KHZY 311853Z AUTO 20008KT 10SM OVC028 M05/M11 A3024 RMK AO2 SLP259 T10501106
KI16 311855Z AUTO 10SM CLR 03/M10 A3033 RMK AO2 T00301098
KI35 311855Z AUTO 24004KT 10SM CLR 05/M15 A3030 RMK AO1
KI39 311855Z AUTO 28003KT 10SM CLR 04/M09 A3032 RMK AO2
KI67 311855Z AUTO 22007KT 10SM CLR 03/M06 A3030 RMK AO1
KI69 311857Z AUTO 22007KT 10SM CLR 03/M06 A3030 RMK AO1
KI75 311855Z AUTO 20009KT 7SM -RA OVC007 03/03 A3014 RMK AO2 P0001 T00330025
KIAB 311858Z AUTO 15013G19KT 10SM -RA OVC007 04/03 A3005 RMK AO2 SLP186 P0005 T00410031
KIAD 311852Z 29009G15KT 10SM CLR M01/M13 A3028 RMK AO2 SLP258 T10061133
KIAG 311853Z 22012KT 7SM -SN FEW022 BKN040 OVC047 M06/M11 A3022 RMK AO2 SLP257 P0000 T10611106
KIAH 311853Z 12010KT 10SM BKN023 BKN150 17/10 A3013 RMK AO2 SLP202 T01670100
KIBM 311855Z AUTO 32005KT 1 1/2SM -SN OVC005 00/00 A2984 RMK AO2 P0001 T00021001
KICL 311855Z AUTO 18009KT 7SM BKN006 OVC014 03/03 A3015 RMK AO2
KICR 311853Z AUTO 05012KT M1/4SM -FZRA FZFG VV002 M03/M04 A3005 RMK AO2 SLP198 P0000 I1005 T10331044
KICT 311853Z 17012KT 4SM -RA BR OVC007 04/03 A3004 RMK AO2 SLP178 P0004 T00440033
KIDA 311853Z 27005KT 10SM SCT008 OVC015 M02/M03 A3013 RMK AO2 SLP231 T10171033
KIDI 311855Z AUTO 27010KT 10SM BKN024 M06/M11 A3027 RMK A01
KIDP 311855Z AUTO 00000KT 10SM -RA OVC060 04/01 A3015 RMK AO2
KIEN 311852Z AUTO 07010KT 10SM OVC010 M01/M04 A2995 RMK AO2 SLP172 T10061039
KIER 311855Z AUTO 15007KT 130V190 10SM CLR 15/03 A3021 RMK AO2 T01530027
KIFA 311855Z AUTO 00000KT 1 1/2SM DZ OVC007 01/00 A3013 RMK AO2 T00100001
KIFP 311855Z AUTO 36018G22KT 10SM OVC070 15/09 A2992 RMK AO2
KIGM 311851Z AUTO 36009KT 10SM OVC013 10/07 A2993 RMK AO2 SLP102 T01000067
KIGQ 311855Z AUTO 24011KT 10SM BKN055 OVC070 03/M04 A3019 RMK AO2 T00271036
KIGX 311856Z AUTO 28006KT 10SM CLR 07/M16 A3031 RMK AO2 SLP266 T00721161 PNO $
KIIB 311855Z AUTO 23005KT 10SM OVC019 02/M01 A3014 RMK AO2
KIIY 311855Z AUTO 19003KT 10SM CLR 13/M03 A3033 RMK AO2
KIJD 311852Z AUTO 33010G19KT 10SM CLR M07/M21 A2995 RMK AO2 SLP147 T10721211
KIJX 311855Z AUTO 20005KT 10SM SCT042 BKN050 OVC060 05/M03 A3025 RMK AO2 T00451029
KIKK 311855Z AUTO 24007KT 10SM OVC095 03/M01 A3021 RMK AO2 T00261015
KIKT 311855Z AUTO 10019G24KT 10SM FEW029 19/12 A3020 RMK A01
KIKV 311855Z AUTO 22007G12KT 4SM -UP OVC012 04/03 A3014 RMK AO2
KIKW 311853Z AUTO 25007KT 10SM BKN024 OVC042 00/M05 A3014 RMK AO2 T10031052
KILE 311855Z 13007KT 6SM OVC013 09/04 A3004 RMK AO1
KILG 311851Z 31016G26KT 10SM CLR M03/M16 A3023 RMK AO2 PK WND 32027/1753 SLP237 T10281156
KILM 311853Z AUTO 35006KT 10SM CLR 08/M12 A3033 RMK AO2 SLP271 T00831122
KILN 311854Z AUTO 26011KT 10SM CLR 02/M07 A3028 RMK AO2 SLP286 T00171067
KIML 311853Z AUTO 00000KT 3SM BR OVC003 01/00 A2987 RMK AO2 SLP136 T00060000
KIMM 311915Z AUTO 08010G15KT 5SM BKN048 A3020 RMK A01 P000
KIMS 311852Z AUTO 23006KT 10SM CLR 03/M05 A3033 RMK AO1
KIMT 311854Z AUTO 33012KT 8SM BKN022 OVC030 M04/M09 A3012 RMK AO2 SLP221 T10391089
KIND 311854Z 22012KT 10SM BKN100 OVC210 02/M06 A3027 RMK AO2 SLP259 T00171061
KINF 311855Z AUTO 09005KT 10SM CLR 20/06 A3027 RMK AO2
KINJ 311855Z AUTO 11008KT 10SM -RA OVC016 10/05 A3009 RMK AO2 T00980051
KINK 311853Z AUTO 15006KT 10SM OVC007 10/07 A2991 RMK AO2 SLP115 T01000072
KINL 311855Z AUTO 35011KT 10SM CLR M15/M21 A3034 RMK AO2 SLP306 T11501211
KINS 311858Z AUTO 00000KT 10SM CLR 12/04 A3000 RMK AO2 SLP143 T01230037
KINT 311854Z 32005KT 10SM CLR 08/M20 A3030 RMK AO2 SLP264 T00781200
KINW 311856Z AUTO 32006KT 10SM OVC009 07/05 A2994 RMK AO2 CIG 008V012 SLP119 T00720050
KIOB 311855Z AUTO 25006KT 10SM CLR 03/M06 A3033 RMK AO2
KIOW 311852Z AUTO 24007KT 2SM BR OVC013 02/01 A3020 RMK AO2 SLP233 T00220006
KIPJ 311855Z AUTO 22003KT 10SM CLR 10/M15 A3030 RMK AO2 T00951148
KIPL 311853Z AUTO 01006KT 10SM BKN070 19/09 A2988 RMK AO2 SLP120 T01890089
KIPN 311855Z AUTO 10020KT 10SM SCT032 19/12 A3019 RMK A01
KIPT 311854Z 27008KT 10SM CLR M04/M16 A3021 RMK AO2 SLP240 T10391156
KIRK 311903Z AUTO 19006KT 2SM -RA BR BKN003 BKN018 OVC030 02/02 A3020 RMK AO2 P0000 T00220017
KIRS 311854Z AUTO 21006KT 10SM CLR 01/M04 A3017 RMK AO2
KISM 311845Z 11009KT 10SM SCT050 21/09 A3026
KISN 311852Z AUTO 06011KT 3/4SM -SN VV014 M12/M16 A3031 RMK AO2 SLP306 P0002 T11221156
KISO 311856Z 35004KT 10SM CLR 07/M15 A3033 RMK A02
KISP 311856Z 31020G25KT 10SM CLR M05/M17 A3002 RMK AO2 PK WND 32029/1830 SLP165 T10501172
KISQ 311855Z AUTO 31016G22KT 10SM BKN018 OVC024 M04/M08 A3012 RMK AO2 T10381077
KISW 311854Z AUTO 02005KT 10SM OVC021 M03/M08 A3016 RMK AO2 SLP232 T10281078
KITH 311756Z 3306KT 7SM -SN BKN014 BKN036 M12/M16 A3022
KITR 311901Z AUTO 34007KT 10SM OVC005 02/00 A2984 RMK AO2 T00220000 $
KIWA 311847Z 00000KT 20SM OVC036 13/11 A2988 -DZ
KIWD 311855Z AUTO 35010KT 3SM OVC016 M08/M11 A3018 RMK AO1
KIWI 311853Z AUTO 32007G21KT 280V360 10SM FEW120 M08/M16 A2973 RMK AO2 SLP067 T10831161
KIXA 311855Z AUTO 31004KT 10SM CLR 06/M15 A3030 RMK AO2
KIXD 311853Z 18010KT 4SM -RA BR SCT011 BKN017 OVC022 04/02 A3015 RMK AO2 SLP215 P0004 T00390022
KIYA 311855Z AUTO 08007KT 10SM CLR 17/09 A3019 RMK AO2 T01660085
KIZA 311855Z AUTO 00000KT 10SM CLR 14/10 A2995 RMK AO2
KIZG 311854Z AUTO 34008KT 10SM CLR M07/M22 A2980 RMK AO2 SLP099 T10671217
KJAC 311851Z 00000KT 10SM CLR M10/M13 A3005
KJAN 311854Z VRB06KT 10SM BKN150 BKN250 13/M05 A3026 RMK AO2 SLP247 T01331050
KJAS 311855Z AUTO 12006KT 10SM CLR 14/06 A3020 RMK AO2 T01380055
KJAX 311856Z 11006KT 10SM FEW250 15/01 A3033 RMK AO2 SLP272 T01500011
KJBR 311853Z AUTO 16003KT 10SM OVC120 06/M03 A3030 RMK AO2 SLP260 T00561028
KJCT 311901Z AUTO 16005KT 9SM -RA FEW012 BKN018 OVC033 13/12 A3000 RMK AO2 P0000 T01330117
KJDD 311855Z AUTO 13006KT 020V020 10SM CLR 12/M01 A3017 RMK AO2
KJDN 311848Z AUTO 06011KT M04/M06 A3011 RMK AO1 SLP238 T10441061
KJEF 311853Z 11004KT 9SM -RA BKN042 OVC050 05/M04 A3024 RMK AO2 RAB47 SLP236 P0000 T00501039
KJER 311853Z AUTO 28009KT 10SM OVC012 02/M02 A3015 RMK AO2 SLP229 T00221017
KJES 311855Z AUTO 00000KT 10SM CLR 16/M01 A3034 RMK AO2
KJFK 311851Z 30012G29KT 10SM FEW015 M04/M18 A3009 RMK AO2 PK WND 32033/1756 SLP189 FU FEW015 FU PLUME W DRFTG SE T10391183 $
KJFX 311915Z AUTO 15004KT 10SM CLR 16/M11 A3029 RMK A02 P-128
KJFZ 311855Z AUTO 24005KT 10SM CLR 02/M13 A3025 RMK AO2 T00151135
KJGG 311855Z AUTO 25011G16KT 10SM 04/M12 A3030 RMK AO1
KJHW 311855Z 22011KT 10SM FEW021 M08/M13 A3016 RMK AO1
KJKA 311855Z AUTO 13008G15KT 10SM CLR 15/07 A3028 RMK AO2 T01480068
KJKJ 311851Z AUTO 01015G22KT 10SM CLR M10/M19 A3035 RMK AO2
KJKL 311853Z AUTO VRB05KT 10SM CLR 03/M09 A3030 RMK AO2 SLP273 T00331094
KJLN 311853Z 16006KT 10SM SCT055 BKN070 OVC080 08/M08 A3016 RMK AO2 SLP216 T00831078
KJMR 311845Z AUTO 01004KT 10SM CLR M02/M11 A3023 RMK AO2
KJMS 311856Z AUTO 05020KT 10SM OVC100 M12/M19 A3030 RMK AO2 SLP292 T11221194
KJNX 311855Z AUTO 28006KT 10SM CLR 08/M16 A3032 RMK AO2
KJOT 311855Z AUTO 25007KT 10SM OVC100 03/M03 A3019 RMK AO2 T00251031
KJQF 311850Z 00000KT 10SM CLR 09/M16 A3035
KJSO 311855Z 10SM OVC019 12/02 A3016 RMK AO2 T01250028
KJST 311854Z AUTO 26013G17KT 10SM FEW020 M08/M13 A3014 RMK AO2 SLP252 T10781128
KJSV 311855Z AUTO 12006KT 10SM CLR 10/M02 A3019 RMK AO2
KJTC 311855Z AUTO 01006KT 10SM FEW013 BKN023 OVC075 05/03 A2994 RMK AO2
KJVL 311845Z 00000KT 10SM CLR 02/M05 A3015
KJVW 311855Z AUTO 10SM CLR 13/10 A3025 RMK AO2
KJWG 311855Z AUTO 19009KT 2 1/2SM RA BKN007 OVC011 05/05 A3004 RMK AO2 P0002 T00500050
KJWY 311855Z AUTO 12007KT 10SM -RA OVC016 10/05 A3012 RMK AO2 T01000047
KJXI 311855Z AUTO 11006KT 10SM CLR 12/00 A3016 RMK AO2 T01150002
KJXN 311856Z 25010KT 10SM OVC037 01/M07 A3016 RMK AO2 SLP227 T00061072
KJYG 311853Z AUTO 01010KT 5SM BR OVC007 M02/M03 A3016 RMK AO2
KJYL 311855Z AUTO 19003KT 10SM CLR 12/M06 A3036 RMK AO2 T01201064
KJYM 311855Z AUTO 23010G14KT 10SM CLR 01/M07 A3016 RMK AO2 T00131066
KJYO 311855Z AUTO 31009KT 280V340 10SM CLR 00/M10 A3028 RMK AO2
KJYR 311855Z AUTO 16009KT 3/4SM -SN OVC004 00/00 A3001 RMK AO2 P0003
KJZI 311855Z AUTO 17004KT 10SM CLR 10/M05 A3037 RMK A02 P000
KKLS 311855Z 19003KT 8SM OVC004 04/02 A3026 RMK AO1
KL18 311855Z AUTO 18003KT 10SM SCT019 BKN050 OVC060 16/11 A2993 RMK AO2
KL35 311855Z AUTO 04007G16KT 024V084 1/4SM FG OVC001 00/00 A2999 RMK AO2 P0001
KL38 311855Z AUTO 12004KT 10SM CLR 15/07 A3022 RMK AO2 T01530073
KLAA 311853Z AUTO 34005KT 10SM SCT070 OVC090 06/03 A2983 RMK AO2 SLP100 T00560028
KLAF 311854Z 22011KT 10SM OVC041 02/M04 A3025 RMK AO2 SLP252 T00221044
KLAL 311850Z 06010G16KT 15SM SKC 22/09 A3025
KLAM 311855Z AUTO 13004KT 10SM OVC006 00/00 A2990 RMK AO2 T10021002
KLAN 311853Z 23010KT 9SM OVC045 00/M06 A3016 RMK AO2 SLP225 T00001061
KLAR 311853Z AUTO 28005KT 10SM SCT010 OVC025 M01/M04 A2985 RMK AO2 SLP111 T10111039 $
KLAS 311856Z 01006KT 10SM SCT055 BKN085 15/05 A2992 RMK AO2 SLP127 T01500050
KLAW 311853Z AUTO 12013KT 4SM RA BR FEW012 OVC022 06/04 A3003 RMK AO2 RAB24 SLP174 P0006 T00560039 $
KLAX 311853Z 13003KT 10SM SCT023 SCT180 18/12 A2993 RMK AO2 SLP134 T01780122
KLBB 311853Z 16010KT 2SM -RA BR OVC003 05/04 A2994 RMK AO2 SLP134 P0002 T00500044
KLBE 311850Z 26012KT 20SM SCT030 M05/M11 A3028
KLBF 311853Z AUTO 09006KT 10SM OVC005 02/M01 A2989 RMK AO2 SLP138 T00171006 $
KLBL 311855Z AUTO 20016KT 10SM OVC006 04/01 A2991 RMK AO1
KLBT 311854Z AUTO VRB04KT 10SM CLR 11/M14 A3033 RMK AO2 SLP270 T01061139
KLBX 311853Z AUTO 10011KT 10SM OVC025 17/14 A3011 RMK AO2 SLP195 T01720139
KLCG 311855Z AUTO 18008KT 4SM BR OVC004 02/01 A3004 RMK AO2 T00210014
KLCH 311853Z 11009KT 9SM CLR 16/08 A3018 RMK AO2 SLP228 T01560078 $
KLCI 311855Z AUTO 29013G24KT 10SM CLR M10/M22 A2985 RMK AO1
KLCK 311855Z AUTO 24009KT 10SM SCT029 01/M06 A3030 RMK AO2 T00081058
KLCQ 311855Z AUTO 08006KT 10SM CLR 16/02 A3030 RMK AO2
KLDJ 311855Z AUTO 33014G23KT 10SM CLR M01/M15 A3014 RMK AO2 T10141154
KLDM 311855Z AUTO 31005KT 10SM OVC028 M01/M05 A3016 RMK AO2 T10071055
KLEB 311853Z 34013G20KT 10SM CLR M11/M23 A2999 RMK AO2 PK WND 01028/1828 SLP175 T11061228
KLEE 311853Z 06012KT 10SM CLR 21/07 A3027 RMK AO2 SLP250 T02060072
KLEW 311855Z AUTO 32020G25KT 6SM CLR M08/M20 A2974 RMK AO1
KLEX 311854Z 25008KT 10SM CLR 04/M07 A3032 RMK AO2 SLP277 T00441072
KLFI 311858Z AUTO 25012KT 10SM CLR 02/M14 A3028 RMK AO2 SLP261 T00221141 $
KLFK 311853Z AUTO 13006KT 10SM FEW031 15/04 A3016 RMK AO2 SLP213 T01500039
KLFT 311853Z 11007KT 10SM CLR 17/08 A3021 RMK AO2 SLP228 T01670078
KLGA 311851Z 31019G27KT 10SM CLR M04/M17 A3009 RMK AO2 PK WND 32033/1825 SLP188 T10391167 $
KLGB 311853Z 00000KT 10SM SCT023 17/12 A2993 RMK AO2 SLP135 T01720117
KLGC 311855Z AUTO 00000KT 10SM CLR 14/M04 A3031 RMK AO2 T01401039
KLGD 311855Z AUTO 05003KT 10SM BKN008 01/M03 A3024 RMK AO1
KLGU 311851Z AUTO 26006KT 10SM BKN018 02/M01 A3007 RMK AO2 SLP190 T00221011
KLHB 311855Z AUTO 14012G18KT 10SM CLR 15/08 A3010 RMK AO2 T01510084
KLHM 311855Z AUTO 30010KT 10SM CLR 18/00 A2999 RMK AO1
KLHQ 311853Z AUTO 22007KT 10SM CLR 00/M06 A3030 RMK AO2 SLP274 T00001061
KLHW 311858Z AUTO 08005KT 10SM BKN210 13/M08 A3034 RMK AO2 SLP277 T01341081
KLHX 311853Z AUTO 29003KT 10SM BKN080 OVC100 05/02 A2984 RMK AO2 SLP100 T00500017 $
KLHZ 311855Z AUTO 25006KT 10SM CLR 06/M15 A3031 RMK AO2
KLIC 311855Z AUTO 33009KT 10SM FEW049 SCT060 OVC075 03/M03 A2983 RMK AO2 SLP104 T00281028
KLIT 311853Z 09005KT 10SM OVC110 08/M03 A3028 RMK AO2 SLP258 T00781028
KLJF 311853Z AUTO 03009KT 10SM OVC013 M03/M04 A3020 RMK AO2
KLKR 311915Z AUTO 30004KT 10SM CLR 10/M13 A3033 RMK AO2
KLKU 311855Z AUTO 26006KT 10SM CLR 04/M16 A3024 RMK AO2
KLKV 311855Z 00000KT 10SM CLR 06/M03 A3023 RMK AO1
KLLJ 311855Z AUTO VRB03KT 10SM FEW018 M04/M09 A3019 RMK AO2 SLP258 T10391089
KLLQ 311853Z AUTO VRB04KT 10SM SCT120 11/M03 A3025 RMK AO2 SLP245 T01061028
KLMO 311854Z AUTO 00000KT 10SM BKN038 06/M03 A2988 RMK AO2 T00601031
KLMT 311853Z 14003KT 10SM CLR 05/M04 A3022 RMK AO2 SLP242 T00501039
KLNC 311855Z AUTO 15009KT 10SM OVC020 11/02 A3012 RMK AO2 T01050023
KLND 311853Z AUTO 03008KT 10SM CLR 01/M03 A2989 RMK AO2 SLP136 T00061033
KLNK 311900Z 15009KT 2SM -SN BR OVC005 01/00 A3005 RMK AO2 P0000 T00060000
KLNL 311855Z AUTO 35009G14KT 3SM -SN OVC020 M06/M10 A3013 RMK AO2 T10621096
KLNN 311855Z AUTO 24007KT 10SM OVC031 M02/M07 A3024 RMK AO1 T10201075
KLNP 311855Z AUTO 23003KT 10SM CLR 04/M15 A3027 RMK AO2
KLNR 311856Z AUTO 22003KT 10SM OVC020 M01/M07 A3016 RMK AO2 SLP217 T10061067
KLNS 311853Z 29012KT 10SM CLR M05/M14 A3022 RMK AO2 SLP239 T10501139
KLOL 311853Z AUTO 00000KT 10SM CLR 04/M02 A3024 RMK AO2 SLP253 T00441017
KLOM 311855Z AUTO 28009G17KT CLR M03/M15 A3018 RMK AO1
KLOR 311853Z AUTO 05005KT 10SM CLR 15/M04 A3030 RMK AO2 SLP258 T01501044
KLOT 311855Z AUTO 27011KT 10SM CLR 03/M03 A3018 RMK AO2 T00261030
KLOU 311853Z 20004KT 10SM CLR 05/M07 A3033 RMK AO2 SLP276 T00501072
KLOZ 311853Z AUTO VRB04KT 10SM CLR 04/M13 A3031 RMK AO2 SLP275 T00441128
KLPC 311855Z AUTO 15003KT 10SM CLR 16/09 A2996 RMK AO1
KLPR 311853Z AUTO 23014KT 10SM CLR M02/M08 A3024 RMK AO2 SLP256 T10221078 TSNO
KLQK 311915Z AUTO 10SM CLR 09/M04 A3029 RMK AO2 T00921038
KLRD 311856Z 14014KT 10SM BKN026 OVC036 21/15 A3000 RMK AO2 T02110150 OVC V BKN RAB02E22 P0000 PK WND 15026/1806 SLP149
KLRF 311858Z AUTO 17004KT 10SM OVC110 08/M03 A3027 RMK AO2 SLP255 T00751029
KLRJ 311855Z AUTO 06007G13KT 1 1/2SM -UP OVC005 00/M00 A3008 RMK AO2
KLRO 311915Z AUTO 16006KT 10SM CLR 10/M05 A3036 RMK AO2
KLRU 311855Z AUTO 19006KT 10SM OVC004 08/07 A2992 RMK AO2 T00770071
KLSB 311855Z AUTO 12006KT 4SM DZ BKN010 BKN017 OVC022 08/07 A2990 RMK AO2
KLSE 311853Z 31005KT 10SM OVC018 M01/M06 A3017 RMK AO2 SLP232 T10061061
KLSF 311858Z AUTO VRB02KT 10SM CLR 15/M06 A3031 RMK AO2 SLP268 T01461058
KLSV 311858Z AUTO 24004KT 10SM CLR 15/06 A2995 RMK AO2 CIG 070 RWY03R SLP136 T01490059 $
KLTS 311908Z AUTO 14010KT 3SM -RA BR OVC005 05/05 A3001 RMK AO2 OVC V BKN $
KLUA 311855Z AUTO 18005KT 10SM CLR 03/M13 A3023 RMK AO2
KLUD 311855Z AUTO 11011KT 10SM OVC017 09/01 A3007 RMK AO2 T00910010
KLUF 311858Z AUTO 06004KT 10SM BKN036 16/12 A2984 RMK AO2 RAB30E40 SLP101 P0000 T01620120 10162 20127 $
KLUK 311853Z 20009KT 10SM CLR 03/M07 A3033 RMK AO2 SLP274 T00281072
KLUM 311855Z AUTO 35006KT 10SM OVC021 M02/M06 A3019 RMK AO2 T10171063
KLUX 311915Z AUTO 26006KT 10SM CLR 10/M03 A3032 RMK AO2
KLVJ 311853Z AUTO 10013G20KT 9SM BKN023 OVC029 17/12 A3013 RMK AO2 SLP203 T01720117
KLVK 311853Z 10005KT 10SM CLR 21/M04 A3000 RMK AO2 SLP159 T02061044
KLVL 311855Z AUTO 24007KT 10SM CLR 05/M16 A3028 RMK AO1 T00541164
KLVM 311853Z AUTO 31014G21KT 10SM OVC080 04/M06 A3000 RMK AO2 SLP180 T00391061
KLVN 311841Z AUTO 04007KT 10SM OVC016 M03/M06 A3018 RMK AO2
KLVS 311853Z AUTO 18015KT 10SM OVC002 00/M01 A2985 RMK AO2 SNE16 SLP104 P0000 T00001006
KLWA 311855Z AUTO 23013G18KT 10SM CLR 02/M04 A3017 RMK AO2 T00161038
KLWB 311855Z AUTO 28008G16KT 10SM CLR 03/M18 A3022 RMK AO2 T00281185
KLWC 311902Z AUTO 20011G17KT 2SM -RA BR BKN014 OVC018 04/02 A3014 RMK AO2 P0002 T00390022
KLWD 311853Z AUTO 20012KT 6SM -RA BR BKN005 OVC022 03/02 A3015 RMK AO2 UPB1756E01 SLP222 P0003 T00280022
KLWM 311854Z 29016G25KT 10SM CLR M08/M21 A2987 RMK AO2 PK WND 30030/1839 SLP117 T10831211
KLWS 311856Z 00000KT 10SM OVC010 03/00 A3032 RMK AO2 SLP279 T00280000
KLWT 311900Z AUTO 31013G20KT 1/2SM SN FZFG VV009 M05/M07 A3012 RMK AO2 P0000 T10501072
KLWV 311853Z AUTO 20007KT 10SM CLR 04/M04 A3032 RMK AO2 SLP271 T00441039
KLXL 311853Z AUTO 02004KT 10SM CLR M03/M12 A3022 RMK AO2
KLXN 311855Z AUTO 14005KT 1 3/4SM -DZ OVC004 01/01 A2992 RMK AO2 T00110005
KLXT 311853Z AUTO 18005KT 4SM -RA BR FEW005 BKN028 OVC036 03/02 A3016 RMK AO2 UPB17E19 SLP220 P0002 T00280022
KLXV 311853Z AUTO 00000KT 4SM -SN BKN039 OVC045 M02/M04 A2985 RMK AO2 SNB48 SLP056 P0000 T10171044
KLXY 311855Z AUTO 11008KT 10SM OVC023 11/05 A3009 RMK AO2 T01140051
KLYH 311854Z 27007G16KT 10SM CLR 06/M17 A3025 RMK AO2 SLP251 T00561172
KLYV 311854Z AUTO 06012KT 4SM BR OVC006 M02/M03 A3011 RMK AO2
KLZU 311845Z 26006KT 10SM CLR 09/M09 A3031 RMK VA APCH RWY 25 ATIS V SU
KLZZ 311855Z AUTO 14006KT 1 1/2SM -SN OVC003 09/08 A3005 RMK AO2 P0004 T00870082
KM19 311856Z AUTO 17004KT 10SM BKN120 08/M03 A3031 RMK AO2 T00771027 BKN V OVC SLP264
KM25 311915Z AUTO 00000KT 10SM OVC110 06/M03 A3033 RMK AO2
KM30 311855Z AUTO 00000KT 10SM OVC110 06/M03 A3032 RMK AO2 T00611034
KM40 311915Z AUTO 18005KT 9SM CLR 17/08 A3029 RMK AO2
KM63 311901Z AUTO 21003KT 10SM FEW003 BKN009 BKN050 08/07 A2991 RMK AO2 CIG 009V050
KM91 311855Z AUTO 08003KT 10SM CLR 07/M06 A3032 RMK
KMAE 311853Z AUTO 00000KT 1/2SM FG OVC002 11/10 A3002 RMK AO2 RAEMM SLP165 P0000 T01060100 PWINO $
KMAF 311853Z 18012KT 5SM BR OVC002 09/09 A2994 RMK AO2 SLP124 T00940089
KMAI 311853Z AUTO 05006KT 10SM CLR 15/M02 A3030 RMK AO2 SLP260 T01501022
KMAN 311855Z AUTO 32008KT 10SM CLR 04/03 A3020 RMK AO1
KMAO 311915Z AUTO 00000KT 10SM CLR 11/M15 A3034 RMK AO2
KMBG 311852Z AUTO 06011KT 7SM OVC012 M07/M10 A3019 RMK AO2 SNB02E23 SLP248 P0000 T10671100
KMBL 311855Z AUTO 32006KT 10SM BKN017 OVC026 M02/M07 A3015 RMK AO1
KMBS 311853Z 24008KT 10SM OVC043 00/M06 A3015 RMK AO2 SLP219 T00001056
KMCB 311853Z AUTO 17007KT 9SM CLR 15/M02 A3024 RMK AO2 SLP240 T01501022
KMCC 311855Z AUTO 33011KT 10SM CLR 15/01 A3000 RMK AO2
KMCD 311856Z AUTO 26011G15KT 10SM OVC019 M05/M08 A3009 RMK AO2 T10521085
KMCE 311853Z AUTO 00000KT 2SM HZ CLR 12/09 A3001 RMK AO2 SLP162 T01220094
KMCF 311858Z AUTO 07007KT 10SM CLR 22/09 A3023 RMK AO2 SLP240 T02170093
KMCI 311853Z 17010KT 6SM -RA BR FEW011 SCT017 OVC024 04/03 A3015 RMK AO2 SLP215 P0005 T00390033
KMCJ 311855Z AUTO 07009G21KT 040V020 9SM BKN019 OVC025 17/10 A3008 RMK AO1
KMCK 311853Z AUTO 10005KT 3/4SM BR OVC002 02/01 A2988 RMK AO2 SLP134 T00220011
KMCN 311853Z 00000KT 10SM CLR 12/M07 A3033 RMK AO2 SLP271 T01221067
KMCO 311853Z 06009KT 10SM SCT048 BKN250 21/08 A3026 RMK AO2 SLP247 T02110083
KMCW 311853Z AUTO 07008KT 7SM FEW010 OVC055 M01/M03 A3013 RMK AO2 SLP214 T10061033
KMCX 311855Z AUTO 23011KT 10SM BKN043 OVC095 02/M03 A3023 RMK AO2 T00241031
KMDD 311855Z AUTO 17013KT 3SM BR OVC003 10/10 A2995 RMK AO2 T00970097
KMDH 311852Z AUTO 21005KT 10SM OVC100 06/M05 A3031 RMK AO2 SLP267 T00561050
KMDJ 311855Z AUTO 11018KT 10SM CLR 19/12 A3023 RMK A01
KMDQ 311855Z AUTO 02004KT 10SM CLR 06/M07 A3032 RMK AO2
KMDS 311850Z AUTO 05016G22KT 1 3/4SM BR OVC003 M06/M06 A3010 RMK AO2
KMDT 311856Z 31012KT 10SM CLR M04/M14 A3023 RMK AO2 SLP244 T10441139
KMDW 311853Z 24009KT 10SM SCT070 OVC250 03/M03 A3017 RMK AO2 SLP229 T00331033
KMDZ 311855Z AUTO 35008KT 10SM OVC017 M04/M08 A3012 RMK AO2 T10361076
KMEB 311852Z AUTO 01006KT 10SM CLR 11/M18 A3033 RMK AO2 SLP273 T01061183
KMEH 311856Z AUTO 00000KT 10SM CLR 03/M01 A3021 RMK AO2 SLP254 T00331011
KMEI 311858Z 03006KT 10SM CLR 14/M08 A3028 RMK AO2 SLP255 T01391078
KMEM 311854Z 10004KT 10SM OVC120 07/M05 A3029 RMK AO2 SLP258 T00721050 $
KMER 311845Z 00000KT 1/2SM BR OVC002 12/12 A3001
KMEZ 311855Z AUTO 15005KT 10SM SCT100 11/M01 A3018 RMK AO2
KMFD 311852Z 22012KT 10SM CLR M02/M08 A3023 RMK AO2 SLP258 T10171083
KMFE 311853Z 15017G25KT 10SM -RA SCT050 23/17 A3000 RMK AO2 RAB50 SLP155 P0000 T02280167
KMFR 311853Z COR 00000KT 1/4SM RY14/1200V2400FT VV002 01/01 A3022
KMFV 311855Z AUTO 30019G29KT 10SM CLR 00/M13 A3026 RMK AO2
KMGC 311855Z AUTO 22010KT 10SM SCT090 03/M07 A3018 RMK AO2
KMGE 311858Z 00000KT 10SM FEW130 BKN160 OVC250 10/M08 A3031 RMK AO2A SLP271 T00961084 $
KMGG 311856Z AUTO 01007KT 10SM OVC016 M02/M05 A3021 RMK AO2 T10231055
KMGJ 311854Z AUTO 31018G23KT 10SM CLR M06/M20 A3009 RMK AO2 PK WND 31027/1827 SLP195 T10611200 TSNO
KMGM 311853Z VRB04KT 10SM CLR 14/M05 A3032 RMK AO2 SLP265 T01391050
KMGN 311854Z AUTO 24006KT 10SM SCT029 OVC036 M03/M07 A3011 RMK AO2 T10361075
KMGR 311855Z AUTO 00000KT 10SM CLR 15/M02 A3032 RMK AO2
KMGW 311853Z 21006KT 10SM CLR M03/M12 A3028 RMK AO2 SLP275 T10281117
KMGY 311853Z AUTO 24007KT 10SM CLR 02/M07 A3028 RMK AO2 SLP263 T00221067
KMHE 311853Z AUTO 05014KT 4SM BR OVC007 M04/M06 A3012 RMK AO2 SLP217 T10391056
KMHK 311852Z 13005KT 3SM -RA BR SCT006 OVC016 02/01 A3008 RMK AO2 SLP196 P0004 T00170011
KMHR 311847Z 30007KT 10SM SKC 15/00 A2998
KMHS 311856Z AUTO VRB06KT 10SM CLR 11/M06 A3019 RMK AO2 SLP237 T01111061
KMHT 311853Z 31022G38KT 10SM CLR M09/M22 A2986 RMK AO2 PK WND 31039/1837 SLP134 P0000 T10891222
KMHV 311855Z AUTO 06008G15KT 10SM CLR 13/03 A3000 RMK AO1
KMIA 311853Z 07013G19KT 10SM SCT043 BKN300 23/11 A3020 RMK AO2 SLP225 T02280111
KMIB 311858Z AUTO 05013KT 1 3/4SM -SN BR OVC017 M16/M18 A3038 RMK AO2 SLP331 P0000 T11581178 $
KMIC 311853Z 02008KT 10SM OVC018 M02/M07 A3020 RMK AO2 SLP239 T10171072
KMIE 311853Z 22009KT 10SM CLR 02/M05 A3024 RMK AO2 SLP249 T00221050
KMIS 311855Z AUTO 13011G20KT 10SM FEW030 21/10 A3023 RMK A01
KMIV 311854Z AUTO 32014G21KT 10SM CLR M02/M16 A3019 RMK AO2 PK WND 31027/1834 SLP224 T10221161
KMIW 311853Z AUTO 22005KT 2SM BR OVC006 03/02 A3013 RMK AO2 SLP212 T00280022
KMJQ 311853Z AUTO 04013KT 5SM BR OVC004 M02/M03 A3012 RMK AO2
KMJX 311855Z AUTO 31024G31KT 10SM CLR M04/M15 A3013 RMK AO1
KMKC 311854Z 18010KT 9SM -RA BKN014 BKN025 OVC036 04/03 A3017 RMK AO2 SLP220 P0000 T00440028
KMKE 311852Z 27006KT 10SM FEW160 BKN250 02/M07 A3016 RMK AO2 SLP223 T00221072
KMKG 311855Z 28007KT 10SM OVC023 01/M04 A3016 RMK AO2 SLP222 T00061044
KMKJ 311855Z AUTO 25010G15KT 10SM CLR 04/M12 A3026 RMK AO2 T00381123
KMKL 311853Z 10004KT 10SM SCT120 07/M05 A3030 RMK AO2 PRESFR SLP261 T00721050
KMKN 311855Z AUTO 15006KT 2SM RA OVC005 08/08 A3005 RMK AO2 P0005 T00790079
KMKO 311853Z AUTO 13012KT 10SM FEW065 SCT110 08/M02 A3016 RMK AO2 SLP214 T00831022
KMKS 311915Z AUTO 34004KT 10SM CLR 10/M13 A3036 RMK AO2
KMKT 311855Z AUTO 03008KT 5SM OVC008 M02/M05 A3016 RMK AO1
KMKY 311855Z AUTO 08009G15KT 10SM SCT048 24/12 A3018 RMK AO1
KMLB 311853Z 06012KT 10SM CLR 20/09 A3026 RMK AO2 SLP246 T02000094
KMLC 311853Z AUTO 16007KT 10SM BKN060 OVC085 10/M02 A3015 RMK AO2 SLP209 T01001017
KMLE 311855Z AUTO 14005KT 1 3/4SM -SN OVC003 01/00 A3008 RMK AO2 P0005 T00070000
KMLF 311852Z AUTO 01012KT 9SM -RA FEW006 BKN044 OVC060 03/01 A3004 RMK AO2 RAE35B38UPB19E27B35E38 SLP171 P0000 T00280011 TSNO
KMLI 311852Z 24008KT 10SM OVC027 03/M02 A3018 RMK AO2 SLP227 T00281017 $
KMLJ 311855Z AUTO 00000KT 10SM CLR 12/M02 A3034 RMK AO2
KMLP 311853Z AUTO 33006KT 1/4SM HZ VV001 M04/M07 A3009 RMK AO2 SLP228 T10441072
KMLS 311853Z AUTO 03015KT 5SM BR OVC006 M03/M04 A3002 RMK AO2 SLP197 T10281044
KMLT 311853Z AUTO 31011G19KT 10SM OVC050 M09/M13 A2967 RMK AO2 SLP059 T10891133
KMLU 311853Z 19004KT 10SM CLR 13/M01 A3025 RMK AO2 SLP243 T01281006
KMMH 311855Z AUTO 04007G17KT 10SM CLR 07/M06 A3017 RMK AO1
KMMI 311855Z AUTO VRB03KT 10SM CLR 06/M09 A3036 RMK
KMMK 311853Z AUTO 32024G33KT 10SM CLR M07/M21 A3001 RMK AO2 PK WND 33036/1839 SLP165 T10671206 TSNO
KMML 311855Z AUTO 03010G14KT 2 1/2SM OVC005 M04/M07 A3018 RMK AO1
KMMT 311858Z 28007KT 10SM SCT250 11/M13 A3034 RMK AO2A SLP278 T01111133
KMMU 311845Z 35012G25KT 10SM SKC M04/M18 A3013
KMMV 311900Z AUTO 00000KT 3SM BR BKN003 04/03 A3023 RMK AO2 T00390028
KMNE 311855Z AUTO 13008KT 10SM CLR 14/M01 A3021 RMK AO2 T01391008
KMNH 311855Z AUTO 32004KT 10SM SCT013 BKN021 OVC041 00/M03 A2983 RMK AO2
KMNI 311915Z AUTO 32004KT 10SM CLR 11/M13 A3035 RMK AO2
KMNM 311855Z AUTO 36005KT 10SM OVC026 M03/M08 A3015 RMK AO1
KMNN 311853Z AUTO 22009KT 10SM CLR M01/M07 A3026 RMK AO2 SLP264 T10111072 TSNO
KMNZ 311855Z AUTO 14011G15KT 2 1/2SM BR OVC005 08/08 A3006 RMK AO2 T00820082
KMOB 311856Z 13009KT 6SM HZ FEW150 BKN250 15/M04 A3028 RMK AO2 SLP253 T01501044
KMOD 311853Z 31007KT 10SM CLR 16/00 A2999 RMK AO2 SLP156 T01560000
KMOP 311855Z AUTO 24006KT 10SM OVC022 00/M05 A3013 RMK AO2 T10021047
KMOR 311855Z AUTO 00000KT 10SM CLR 05/M10 A3032 RMK
KMOT 311854Z 05013KT 3/4SM -SN VV018 M16/M20 A3037 RMK AO2 SLP324 P0000 T11611200
KMOX 311853Z AUTO 04009KT 10SM OVC016 M04/M08 A3022 RMK AO2
KMPO 311853Z AUTO 31022G31KT 10SM CLR M09/M18 A3001 RMK AO2 PK WND 30033/1821 SLP202 T10941178
KMPV 311851Z AUTO 31007G22KT 9SM CLR M17/M26 A3003 RMK AO2 SLP202 T11671256
KMPZ 311855Z AUTO 21003KT 2 1/2SM RA BKN032 BKN040 OVC046 01/01 A3020 RMK AO2 T00080008
KMQB 311855Z AUTO 23007KT 7SM -RA BKN021 OVC028 02/00 A3024 RMK AO2 T00210000
KMQE 311854Z AUTO 31024G37KT M08/M22 A2978 RMK AO1 PK WND 31042/1757 SLP106 T10781217
KMQI 311900Z AUTO 30010G16KT 10SM CLR 02/M13 A3029 RMK AO2
KMQJ 311855Z AUTO 24011KT 10SM CLR 03/M10 A3027 RMK AO1
KMQS 311855Z AUTO 31012G19KT 10SM CLR M04/M13 A3019 RMK AO2
KMQY 311856Z VRB03KT 10SM CLR 07/M06 A3035 RMK AO2 T00661061 SLP292
KMRB 311853Z 30007KT 10SM CLR M01/M14 A3026 RMK AO2 SLP255 T10061139
KMRC 311855Z AUTO 00000KT 10SM CLR 08/M04 A3030 RMK
KMRF 311855Z AUTO 20013G21KT 10SM BKN018 BKN025 14/09 A2995 RMK AO1
KMRH 311858Z AUTO 34005KT 10SM CLR 06/M13 A3032 RMK AO2 SLP269 T00611128 TSNO
KMRJ 311850Z AUTO 00000KT 10SM SCT075 SCT090 00/M04 A3013 RMK AO2
KMRN 311855Z AUTO 22003KT 10SM CLR A3032 RMK AO2
KMRT 311853Z AUTO 23008KT 10SM CLR 00/M07 A3027 RMK AO2 T00001067
KMRY 311854Z VRB03KT 10SM CLR 20/M02 A2999 RMK AO2 SLP166 T02001017
KMSL 311853Z AUTO 10004KT 10SM CLR 10/M07 A3032 RMK AO2 SLP268 T01001072
KMSN 311908Z VRB03KT 10SM BKN022 OVC220 01/M06 A3014 RMK AO2 T00111056
KMSO 311853Z 00000KT 10SM OVC060 M01/M04 A3016 RMK AO2 SLP251 T10061044
KMSP 311853Z 01011KT 9SM OVC019 M02/M07 A3020 RMK AO2 SLP240 T10221067
KMSS 311853Z AUTO 24009KT 10SM CLR M16/M26 A3025 RMK AO2 SLP258 T11611256
KMSV 311855Z AUTO 30016G26KT 6SM CLR M09/M18 A3005 RMK AO1
KMSY 311853Z 09008KT 10SM FEW180 BKN250 16/08 A3024 RMK AO2 SLP244 T01610078
KMTC 311855Z 23010KT 10SM FEW025 SCT200 00/M07 A3017 RMK SLP233 T00031071
KMTH 311853Z AUTO 05014KT 10SM CLR 23/14 A3017 RMK AO2 SLP214 T02330144
KMTJ 311853Z AUTO 00000KT 3SM -RA BR BKN005 BKN010 OVC014 02/01 A2994 RMK AO2 SLP123 P0002 T00220011
KMTN 311845Z 27011G17KT 10SM SKC 00/M13 A3027
KMTO 311853Z AUTO 20008KT 10SM CLR 03/M04 A3026 RMK AO2 SLP256 T00281039
KMTP 311854Z AUTO 30019G27KT M05/M17 A2995 RMK AO1 PK WND 31031/1811 SLP141 T10501167
KMTV 311855Z AUTO 18003KT 10SM CLR 09/M16 A3029 RMK AO2 T00911162
KMTW 311856Z AUTO 33005KT 10SM OVC027 M02/M07 A3017 RMK AO2 SLP242 T10171067 FZRANO
KMUI 311858Z AUTO 33008G18KT 280V350 10SM CLR M05/M16 A3021 RMK AO2 SLP242 T10481157
KMUO 311858Z AUTO 26007KT 10SM CLR 02/00 A3017 RMK AO2 SLP239 P0000 T00170004 $
KMUT 311855Z AUTO 22005KT 1 3/4SM BR OVC008 02/01 A3020 RMK AO2
KMVE 311854Z AUTO 08007KT 7SM OVC011 M04/M05 A3021 RMK AO2
KMVH 311900Z AUTO 32020G25KT 1SM HZ FEW005 SCT017 BKN024 M04/M06 A3003 RMK A01
KMVL 311854Z AUTO 02010KT 10SM CLR M16/M24 A3007 RMK AO2 SLP205 T11611244 TSNO
KMVN 311855Z AUTO 21005KT 10SM BKN100 05/M03 A3032 RMK AO1
KMVY 311853Z 31018G33KT 10SM CLR M06/M20 A2981 RMK AO2 PK WND 30033/1843 SLP095 T10561200
KMWA 311853Z 20007KT 20SM OVC110 07/M04 A3031
KMWC 311845Z AUTO 31006KT 10SM OVC027 01/M08 A3017
KMWH 311852Z 27003KT 10SM FEW009 OVC015 02/00 A3037 RMK AO2 SLP294 T00220000
KMWK 311855Z AUTO 00000KT 10SM CLR 08/M24 A3029 RMK AO2 T00811238
KMWL 311853Z AUTO 14012KT 10SM OVC018 09/03 A3004 RMK AO2 SLP171 T00890033
KMWM 311854Z AUTO 02012G16KT 3SM BR OVC006 M03/M04 A3013 RMK AO2
KMWN 311848Z 33079G86KT 110SM FEW/// FEW040 FEW110 FEW120 FEW160 M22/M29 RMK PK WND 33091/28 TPS LWR FEW040 BLSN AT AND BLO STA
KMWO 311855Z AUTO 23009KT 10SM CLR 04/M07 A3031 RMK AO2 T00401067
KMWS 311845Z 31502G03KT 10/01 RMK SNOW DEPTH 1.00
KMWT 311853Z AUTO VRB04KT 10SM BKN110 08/M03 A3020 RMK AO2 SLP232 T00831028
KMXF 311858Z AUTO VRB02KT 10SM CLR 13/M06 A3031 RMK AO2 SLP267 T01331059
KMXO 311855Z AUTO 25007KT 10SM BKN026 OVC036 03/M00 A3015 RMK AO2
KMYF 311853Z 00000KT 9SM SCT015 BKN043 16/12 A2993 RMK AO2 SLP131 T01610117
KMYL 311851Z AUTO 00000KT 10SM CLR M03/M07 A3014 RMK AO2 SLP249 T10331072
KMYP 311855Z AUTO M1/4SM -SN OVC001 M05/M05 A2999 RMK AO2
KMYR 311845Z 33005KT 10SM CLR 09/M14 A3036
KMYV 311853Z AUTO 34012G19KT 10SM CLR 19/M02 A3000 RMK AO2 SLP161 T01941022
KMYZ 311855Z AUTO 15007KT 2SM -SN OVC004 00/00 A3007 RMK AO2 P0001
KMZG 311855Z AUTO 14014G22KT 9SM FEW022 SCT028 SCT033 22/18 A3005 RMK A01
KMZH 311854Z AUTO 02009KT 10SM CLR M04/M15 A3020 RMK AO2
KMZZ 311855Z AUTO 24012KT 10SM OVC060 02/M04 A3024 RMK AO2 T00211042
KN03 311855Z AUTO 27006KT 10SM SCT027 OVC034 M09/M14 A3019 RMK AO2
KN38 311855Z AUTO 32011G18KT 280V340 10SM SCT037 BKN045 BKN050 M07/M15 A3013 RMK AO2
KN60 311852Z AUTO 06010KT M13/M18 A3031 RMK AO1 SLP301 T11331178
KNAK 311854Z AUTO 26008KT 10SM CLR M01/M13 A3027 RMK AO2 SLP250 T10111133
KNBC 311856Z AUTO VRB03KT 10SM CLR 12/M08 A3037 RMK AO2 SLP283 T01171083 $
KNBG 311855Z 09014G17KT 10SM SCT150 BKN250 17/08 A3023 RMK AO2 SLP236 T01670083 $
KNBT 311856Z AUTO A3032 RMK AO2 SLP273 PWINO PNO $
KNCA 311856Z AUTO VRB05KT 10SM CLR 07/M13 A3033 RMK AO2 SLP272 T00721133
KNDZ 311856Z AUTO VRB03KT 10SM CLR 17/M03 A3029 RMK AO2 SLP244 T01721028
KNEW 311853Z COR 09011KT 10SM CLR 16/08 A3026 RMK AO2 SLP238 T01560078
KNFE 311856Z AUTO 31007G18KT 250V350 10SM CLR 06/M16 A3028 RMK AO2 SLP257 T00561156
KNFG 311854Z 00000KT 7SM SCT020 SCT120 17/11 A2992 RMK AO2 SLP132 T01670111 $
KNFL 311856Z 14003KT 10SM FEW040 06/M02 A3024 RMK AO2 SLP202 T00561022
KNFW 311852Z 14012KT 10SM OVC019 11/03 A3012 RMK AO2 RAE1754B18E32 SLP183 P0000 T01110028 $
KNGP 311856Z AUTO 14012KT 10SM CLR 21/18 A3003 RMK AO2 SLP168 T02060178
KNGU 311859Z 28013KT 10SM FEW260 04/M15 A3030 RMK AO2 SLP259 T00391150
KNHK 311852Z 32013KT 10SM FEW040 01/M16 A3027 RMK AO2 SLP251 T00061156
KNID 311856Z AUTO 36021G28KT 10SM SCT120 17/03 A2997 RMK AO2 PK WND 36031/1757 SLP145 T01720033 $
KNIP 311853Z 06009KT 10SM BKN250 15/02 A3033 RMK AO2 SLP267 T01500022
KNJK 311856Z 35006KT 10SM FEW030 BKN070 BKN250 20/08 A2989 RMK AO2 SLP137 T02000083
KNJM 311857Z AUTO 31008KT 10SM CLR 07/M14 A3033 RMK AO2 SLP274 T00721144
KNKT 311854Z 35010KT 310V010 10SM CLR 07/M15 A3033 RMK AO2 SLP267 T00721150 $
KNKX 311855Z VRB03KT 10SM BKN036 17/12 A2992 RMK AO2 SLP129 T01670117
KNLC 311856Z AUTO 33014KT CLR 14/07 A3004 RMK AO2 SLP171 T01440072 RVRNO $
KNMM 311856Z AUTO 06005KT 10SM CLR 13/M07 A3030 RMK AO2 SLP273 T01331072 $
KNOG 311856Z AUTO 16019G28KT 10SM FEW029 SCT036 BKN045 22/16 A3000 RMK AO2 PK WND 14028/1851 SLP139 T02220156 $
KNPA 311856Z 08010KT 10SM SCT250 14/06 A3028 RMK AO2 SLP256 T01440061
KNQA 311855Z 11003KT 10SM FEW120 OVC150 07/M03 A3029
KNQI 311856Z 15021G26KT 10SM BKN033 BKN042 OVC250 23/17 A3001 RMK AO2 PK WND 15027/1803 SLP159 T02330172 $
KNQX 311853Z 07016KT 10SM FEW045 SCT180 23/13 A3016 RMK AO2 SLP211 T02330133 $
KNRB 311852Z AUTO 03011KT 10SM CLR 14/04 A3034 RMK AO2 SLP273 T01440044 $
KNRS 311856Z AUTO 32005KT SCT060 19/12 A2993 RMK AO2 SLP134 T01890122
KNSE 311856Z AUTO 00000KT 10SM CLR 16/M03 A3029 RMK AO2 SLP244 T01561033 $
KNSI 311857Z AUTO 33008KT 10SM FEW013 A2994 RMK AO2 SLPNO $
KNTD 311856Z COR 25004KT 10SM SCT220 20/13 A2994 RMK AO2 SLP140 T02000133 $
KNTU 311856Z 32015KT 10SM FEW250 03/M15 A3027 RMK AO2 SLP253 T00331150
KNUI 311553Z AUTO 31010G23KT 10SM CLR M02/M18 A3033 RMK AO2 SLP271 T10171183
KNUQ 311856Z 29004KT 10SM CLR 19/M03 A3001 RMK AO2 SLP164 T01941033
KNUW 311856Z 33004KT 6SM BR FEW003 OVC006 07/05 A3027 RMK AO2 SLP252 T00720050 VISNO E $
KNXF 311856Z AUTO 24004KT 8SM FEW024 BKN033 OVC045 17/12 A2993 RMK AO2 SLP219 T01720122 $
KNXP 311856Z 35014KT 10SM FEW035 BKN050 BKN100 13/06 A3002 RMK AO2 SLP146 T01330061
KNY0 311855Z AUTO 26017G23KT 10SM CLR M14/M24 A3010 RMK AO2 T11361237
KNYC 311851Z AUTO VRB05G18KT 10SM CLR M04/M19 A3011 RMK AO2 SLP190 T10391189
KNYG 311856Z AUTO 33010G19KT 300V010 CLR 02/M14 A3031 RMK AO2 SLP264 T00171144
KNYL 311857Z AUTO 33008KT 10SM FEW065 19/09 A2988 RMK AO2 SLP115 T01940094 $
KNZY 311852Z 19003KT 10SM SCT030 BKN050 17/13 A2992 RMK AO2 SLP131 T01670128 $
KO22 311855Z AUTO 25005KT 10SM CLR 18/04 A2996 RMK AO1
KO54 311855Z AUTO 00000KT 1SM OVC002 02/02 A3018 RMK AO1
KO69 311855Z AUTO 23004KT 10SM CLR 17/04 A3002 RMK AO1
KO86 311850Z AUTO 13003KT 10SM FEW002 04/02 A3018 RMK AO1
KOAJ 311855Z AUTO 27007KT 10SM CLR 07/M12 A3034 RMK AO1
KOAK 311853Z 24006KT 10SM FEW040 18/01 A3001 RMK AO2 SLP161 T01780011
KOBE 311855Z AUTO 09008KT 055V115 10SM SCT050 21/09 A3024 RMK AO2
KOCF 311850Z 07006KT 10SM CLR 19/06 A3028
KOCH 311855Z AUTO 12007KT 10SM CLR 13/02 A3018 RMK AO1
KOCQ 311855Z AUTO 10SM OVC026 M02/M07 A3016 RMK AO1 T10201075
KOCW 311855Z AUTO 31008KT 10SM CLR 06/M14 A3032 RMK AO2 T00581140
KODO 311853Z AUTO 18014KT 2 1/2SM BR OVC002 09/08 A2994 RMK AO2 SLP125 T00890078
KODX 311853Z AUTO 15005KT 10SM OVC009 02/M01 A2995 RMK AO2 CIG 007V012 SLP161 T00171006
KOEB 311855Z AUTO 24011KT 10SM CLR 01/M05 A3017 RMK AO2 T00071054
KOEO 311855Z AUTO 33006KT 10SM OVC021 M03/M07 A3024 RMK AO2 T10261071
KOFF 311905Z 11005KT 1 1/4SM -SN BR BKN003 00/00 A3008 RMK AO2A $
KOFK 311856Z AUTO 17011KT 10SM OVC008 02/01 A3001 RMK AO2 SLP177 T00220006
KOFP 311854Z AUTO VRB04KT 10SM CLR 02/M15 A3029 RMK AO2 SLP261 T00221150
KOGA 311855Z AUTO 03003KT 3SM BR OVC005 01/01 A2988 RMK AO2 T00110010
KOGB 311853Z AUTO 00000KT 10SM CLR 11/M12 A3035 RMK AO2 SLP278 T01061122
KOGD 311853Z 00000KT 10SM CLR 06/00 A3004 RMK AO2 SLP165 T00610000
KOJA 311855Z AUTO 18010G17KT 5SM -RA OVC009 03/03 A3003 RMK AO2 P0002
KOJC 311853Z 17013G22KT 5SM -RA BR FEW015 BKN027 OVC034 04/02 A3014 RMK AO2 SLP213 P0001 T00390022
KOKB 311852Z AUTO 00000KT 10SM CLR 18/12 A2992 RMK AO2 SLP130 T01780117
KOKC 311852Z 16015KT 6SM -RA FEW046 SCT065 OVC080 06/03 A3005 RMK AO2 PRESFR SLP178 P0001 T00610028 $
KOKK 311855Z AUTO 22012KT 10SM BKN095 03/M03 A3024 RMK AO1
KOKM 311855Z AUTO 17011G20KT 120V200 10SM BKN050 BKN070 OVC080 08/M01 A3014 RMK AO2 T00811007
KOKV 311855Z AUTO 29007KT 10SM CLR 00/M13 A3025 RMK AO2
KOKZ 311855Z AUTO 00000KT 10SM CLR 12/M07 A3036 RMK AO2 T01221067
KOLE 311855Z AUTO 30008KT 10SM BKN034 BKN046 BKN065 M07/M13 A3010 RMK AO2
KOLF 311853Z AUTO 07023G28KT 1/2SM SN VV012 M10/M13 A3026 RMK AO2 PK WND 06030/1838 SLP281 P0000 T11001128
KOLG 311855Z AUTO 01008KT 320V020 10SM CLR M05/M11 A3020 RMK AO1
KOLM 311900Z 08006KT 1 1/2SM BR OVC002 05/04 A3022 RMK AO2 T00500044
KOLS 311854Z AUTO 17011KT 10SM BKN020 OVC029 12/08 A2988 RMK AO2 SLP085 T01170078
KOLU 311855Z AUTO 16010KT 4SM OVC006 02/M02 A3004 RMK AO1 P0002
KOLV 311850Z 11007KT 10SM BKN120 OVC150 06/M03 A3029
KOLY 311855Z AUTO 00000KT 10SM BKN100 03/M02 A3031 RMK AO2
KOLZ 311855Z AUTO 20004KT 10SM BKN026 BKN060 BKN100 02/M02 A3013 RMK AO2
KOMA 311906Z 16008KT 1 1/2SM -SN BR OVC004 01/01 A3009 RMK AO2 RAE02 P0001 T00110006
KOMH 311855Z AUTO 00000KT 10SM CLR 04/M15 A3027 RMK AO2
KOMK 311853Z AUTO 34008KT 10SM CLR 04/M01 A3033 RMK AO2 SLP282 T00441006
KOMN 311850Z 06010G15KT 10SM SCT030 18/08 A3030
KONA 311856Z AUTO 00000KT 10SM OVC023 00/M04 A3019 RMK AO2
KONL 311855Z AUTO 02008KT 5SM BR OVC005 M01/M02 A3000 RMK AO2 T10091016
KONM 311855Z AUTO 01005KT 10SM BKN006 OVC010 05/04 A2992 RMK AO2 T00450036
KONO 311853Z AUTO 02004KT 10SM CLR 05/M01 A3022 RMK AO2 SLP252 T00501006
KONP 311855Z AUTO 08015G18KT 10SM CLR 12/05 A3015 RMK AO2
KONT 311853Z 28004KT 8SM FEW014 BKN075 16/11 A2992 RMK AO2 SLP127 T01610106
KONX 311855Z AUTO 31010G16KT 270V350 10SM CLR 03/M17 A3029 RMK AO2 T00321172
KONZ 311854Z AUTO 22008KT 10SM CLR 01/M06 A3019 RMK AO2
KOOA 311855Z AUTO 22006KT 5SM DZ SCT012 SCT019 OVC026 03/02 A3017 RMK AO2 T00290017
KOPF 311853Z 07015KT 10SM SCT047 22/10 A3020 RMK AO2 SLP228 T02220100 $
KOPL 311855Z AUTO 10005KT 10SM CLR 15/06 A3021 RMK AO2 T01510056
KOPN 311855Z AUTO 00000KT 10SM CLR 12/M05 A3033 RMK AO2
KOQT 311853Z AUTO 00000KT 10SM CLR 06/M11 A3035 RMK AO2 SLP293 T00611111
KOQU 311850Z 32022G32KT 15SM SKC M05/M20 A2986
KORB 311853Z AUTO 31005KT 10SM SCT025 M12/M20 A3026 RMK AO2
KORC 311855Z AUTO 07009G14KT 2 1/2SM BR OVC005 M02/M03 A3008 RMK AO2
KORD 311851Z 26009KT 10SM FEW070 BKN085 OVC250 02/M05 A3016 RMK AO2 SLP221 T00171050
KORE 311852Z AUTO 34020G29KT 7SM CLR M09/M21 A2994 RMK AO2 PK WND 32040/1803 UPB02E08 SLP150 P0000 T10891206
KORF 311851Z AUTO 28008G15KT 210V330 10SM CLR 02/M17 A3028 RMK AO2 SLP254 T00221167 TSNO
KORG 311855Z AUTO 07007KT 10SM OVC022 14/09 A3019 RMK AO2 T01430085
KORH 311854Z 32018G31KT 8SM R11/2000VP6000FT CLR M09/M21 A2983 RMK AO2 PK WND 32035/1808 RAB10E18 SLP123 P0000 T10891211
KORL 311853Z COR 09009G16KT 10SM SCT049 21/08 A3026 RMK AO2 SLP252 T02060078
KORS 311855Z AUTO 01004KT 9SM SCT008 06/04 A3026 RMK AO2
KOSA 311855Z AUTO 13009G14KT 10SM CLR 11/01 A3019 RMK AO1 T01110006
KOSC 311853Z AUTO 23007KT 10SM OVC027 M03/M07 A3012 RMK AO2 T10401075
KOSH 311853Z 33006KT 10SM OVC025 M02/M07 A3016 RMK AO2 SLP234 T10221072
KOSU 311853Z 21011KT 10SM CLR 00/M07 A3028 RMK AO2 SLP266 T00001067
KOTG 311855Z AUTO 04012KT 3SM OVC004 M03/M05 A3012 RMK AO1
KOTH 311855Z 16006KT 10SM CLR 14/07 A3012 RMK AO1
KOTM 311853Z AUTO 21005KT 5SM -RA BR OVC032 03/02 A3017 RMK AO2 RAB1754 SLP223 P0002 T00330022
KOUN 311855Z AUTO 13011KT 10SM DZ SCT031 BKN043 OVC065 04/04 A3007 RMK AO2 P0001
KOVE 311853Z AUTO 33009G17KT 10SM CLR 16/M01 A3004 RMK AO2 SLP174 T01611006
KOVL 311854Z AUTO 04011KT 10SM OVC012 M03/M05 A3018 RMK AO2
KOVS 311853Z AUTO 00000KT 10SM OVC018 01/M06 A3016 RMK AO2 SLP224 T00061056
KOWA 311855Z AUTO 04007KT 5SM HZ SCT009 M01/M04 A3015 RMK AO2
KOWB 311856Z 22006KT 10SM SCT100 06/M04 A3035 RMK AO2 T00551038 SLP280
KOWD 311853Z 31022G31KT 9SM CLR M06/M21 A2986 RMK AO2 PK WND 31031/1757 SLP110 T10561211
KOWP 311855Z AUTO 19005KT 10SM DZ SCT050 OVC065 07/03 A3015 RMK AO2 T00740029
KOXB 311853Z AUTO 31013G20KT 10SM CLR M01/M14 A3021 RMK AO2 PK WND 29027/1812 SLP230 T10061144 TSNO
KOXC 311852Z 33018G30KT 10SM SKC M08/M22 A2998
KOXI 311855Z AUTO 22010KT 10SM SCT065 OVC070 02/M12 A3020 RMK AO1
KOXR 311851Z 31003KT 10SM CLR 18/11 A2993 RMK AO2 SLP136 T01830111
KOXV 311855Z AUTO 21007KT 3SM -UP BKN008 BKN012 03/02 A3015 RMK AO2
KOZA 311855Z AUTO 17011G17KT 2 1/2SM -RA OVC003 10/10 A2999 RMK AO2
KOZR 311858Z AUTO 05005KT 10SM CLR 15/M05 A3030 RMK AO2 SLP264 T01461049
KOZW 311855Z AUTO 20007KT 10SM OVC040 00/M07 A3015 RMK AO2 T10031069
KP28 311856Z AUTO 17012G17KT 04/03 A3003 RMK AO1 SLP178 P0008 T00390033
KP53 311856Z AUTO 34015G25KT M04/M09 A3017 RMK AO1 PK WND 33027/1834 SLP227 T10441089
KP58 311851Z AUTO VRB06KT M03/M08 A3012 RMK AO1 SLP219 T10281078
KP59 311851Z AUTO 03020G27KT M08/M13 A3022 RMK AO1 PK WND 03028/1840 SLP254 T10831133
KP60 311856Z AUTO 00000KT M16/M18 A3001 RMK AO1 SLP269 T11561183
KP68 311853Z AUTO 36005KT 04/M04 A3015 RMK AO1 SLP195 T00441044
KP69 311852Z AUTO 18003KT 03/M02 A3033 RMK AO1 SLP287 T00331022
KP92 311853Z AUTO 11006KT 18/09 A3018 RMK AO1 SLP220 T01780094 $
KPAE 311902Z 36004KT M1/4SM R16R/0600V1000FT FG VV001 03/03 A3023 RMK AO2 T00330028
KPAH 311853Z 00000KT 10SM OVC110 07/M05 A3032 RMK AO2 SLP269 T00671050 $
KPAM 311858Z AUTO VRB06KT 10SM CLR 16/00 A3029 RMK AO2 SLP260 T01611005 $
KPAN 311855Z AUTO 00000KT 10SM FEW020 BKN026 BKN033 09/05 A2993 RMK AO2
KPAO 311847Z 31005KT 10SM SKC 20/01 A3000
KPBF 311853Z AUTO 11007KT 10SM SCT120 07/M02 A3027 RMK AO2 SLP251 T00721022
KPBG 311853Z AUTO 29009KT 10SM CLR M11/M24 A3013 RMK AO2 UPE42 SLP210 P0000 T11061244
KPBH 311855Z AUTO 01008G16KT 10SM OVC017 M06/M09 A3014 RMK AO2 T10561093
KPBI 311853Z 05015G21KT 10SM SCT044 SCT055 BKN250 23/10 A3021 RMK AO2 SLP229 T02330100
KPBX 311855Z AUTO 21004KT 10SM CLR 02/M09 A3030 RMK AO2 T00241095
KPCW 311853Z AUTO 22012KT 10SM CLR 00/M06 A3022 RMK AO2 T00001061 $
KPCZ 311855Z AUTO 32003KT 10SM OVC023 M01/M07 A3016 RMK AO2 T10111070
KPDC 311855Z AUTO 00000KT 10SM SCT075 SCT085 01/M06 A3015 RMK AO2 T00061057
KPDK 311853Z 00000KT 10SM CLR 10/M08 A3031 RMK AO2 SLP275 T01001083
KPDT 311853Z 00000KT 8SM FEW003 SCT005 OVC012 01/00 A3033 RMK AO2 SLP277 FU FEW003 T00110000
KPDX 311909Z 26005KT 2 1/2SM SCT002 SCT180 03/03 A3023 RMK AO2 SFC VIS 9 T00280028
KPEA 311855Z AUTO 21006KT 7SM DZ BKN012 03/02 A3017 RMK AO2 T00330017
KPEO 311853Z AUTO 35003KT 10SM OVC031 M08/M14 A3021 RMK AO2 SLP249 T10781139
KPEQ 311855Z AUTO 00000KT 10SM OVC009 10/07 A2993 RMK AO2 T00960074
KPEX 311854Z AUTO 34008KT 10SM OVC021 M05/M09 A3021 RMK AO2 T10481090
KPEZ 311855Z AUTO 06006KT 5SM -RA SCT010 BKN014 BKN023 17/16 A3001 RMK AO2 T01660156
KPGD 311853Z 11008KT 10SM CLR 23/09 A3022 RMK AO2 SLP234 T02280094
KPGV 311855Z AUTO 27005KT 10SM CLR 06/M14 A3032 RMK AO2
KPHD 311853Z AUTO 21008KT 10SM CLR M02/M09 A3029 RMK AO2 SLP274 T10221094
KPHF 311854Z 28013G20KT 10SM CLR 03/M14 A3029 RMK AO2 SLP256 T00331139
KPHL 311854Z 33014KT 10SM CLR M03/M17 A3021 RMK AO2 SLP228 T10281172
KPHN 311858Z AUTO 19009KT 10SM CLR M02/M07 A3018 RMK AO2
KPHP 311855Z AUTO 06014KT 1/2SM FZFG OVC002 M05/M06 A3007 RMK AO2 SLP208 I1001 T10501056
KPHT 311855Z AUTO 00000KT 10SM CLR 05/M06 A3032 RMK
KPHX 311851Z 00000KT 7SM -RA SCT037 BKN060 OVC080 14/12 A2985 RMK AO2 SLP101 P0005 T01390122
KPIA 311854Z 22005KT 10SM OVC050 04/M03 A3023 RMK AO2 SLP243 T00391028
KPIB 311855Z AUTO 10005KT 10SM CLR 14/M03 A3028 RMK AO1
KPIE 311853Z 08007KT 10SM CLR 21/09 A3024 RMK AO2 SLP238 T02060094
KPIH 311853Z 26009KT 10SM OVC014 01/M01 A3015 RMK AO2 SLP228 T00061011
KPIL 311853Z AUTO 15018G25KT 7SM FEW027 FEW039 SCT047 23/17 A3002 RMK AO2 PK WND 16027/1834 SLP166 T02330167
KPIR 311853Z AUTO 07017KT 10SM OVC009 M06/M07 A3011 RMK AO2 SLP222 T10611072
KPIT 311851Z 25007KT 10SM FEW028 SCT250 M03/M10 A3025 RMK AO2 SLP274 T10331100
KPKB 311853Z 24007KT 10SM CLR M01/M09 A3033 RMK AO2 SLP283 T10061089
KPKD 311853Z AUTO 35011KT 10SM CLR M09/M22 A3025 RMK AO2 SLP271 T10891217
KPKV 311855Z AUTO 12015KT 10SM BKN021 BKN027 OVC050 19/16 A3007 RMK AO2 T01910163
KPLN 311854Z AUTO 29014KT 10SM OVC026 M03/M08 A3011 RMK AO2 SLP210 T10331083
KPLU 311855Z AUTO 00000KT 1/4SM -UP OVC003 03/03 A3024 RMK AO2
KPMD 311853Z AUTO 07008KT 10SM BKN110 14/07 A3000 RMK AO2 SLP148 T01390067
KPMP 311853Z 07014KT 10SM SCT041 SCT250 23/11 A3021 RMK AO2 SLP230 T02330106
KPMV 311855Z AUTO 16008KT 2SM -SN OVC003 01/00 A3008 RMK AO2 P0002 T00060000
KPNA 311855Z AUTO 32012KT 10SM CLR 00/M09 A2993 RMK AO2
KPNC 311853Z AUTO 14012KT 4SM -RA BR FEW013 OVC040 05/03 A3008 RMK AO2 PRESFR SLP188 P0004 T00500033
KPNE 311854Z AUTO 31015G22KT 10SM CLR M03/M17 A3020 RMK AO2 PK WND 31026/1755 SLP228 T10281172 TSNO
KPNM 311854Z AUTO 36007KT 10SM OVC027 M01/M08 A3022 RMK AO2
KPNS 311853Z 12007KT 10SM CLR 13/03 A3029 RMK AO2 SLP261 T01330033
KPNT 311855Z AUTO 24008KT 10SM SCT050 SCT110 04/00 A3021 RMK AO2 T00361005
KPOB 311858Z AUTO VRB04KT 10SM CLR 09/M16 A3033 RMK AO2 SLP275 T00921158
KPOC 311847Z 00000KT 10SM SCT018 15/10 A2996
KPOE 311858Z AUTO 10007KT 10SM FEW200 14/05 A3018 RMK AO2 PRESFR SLP223 T01420045
KPOF 311853Z AUTO 24005KT 10SM OVC110 04/M03 A3031 RMK AO2 SLP268 T00441028
KPOU 311853Z 33016G21KT 10SM CLR M04/M19 A3008 RMK AO2 SLP185 T10441194
KPOV 311855Z AUTO 24006KT 10SM OVC023 M03/M10 A3024 RMK AO2 T10281098
KPOY 311855Z AUTO 33014G19KT 10SM CLR 02/M06 A2991 RMK AO2
KPPA 311855Z AUTO 19014KT 7SM DZ BKN007 OVC031 03/02 A2994 RMK AO2 T00280020
KPPF 311852Z AUTO 17004KT 10SM -RA SCT043 OVC055 06/01 A3016 RMK AO2 RAB06 SLP217 P0000 T00610011
KPPO 311855Z AUTO 22013KT 10SM SCT070 BKN090 03/M03 A3019 RMK AO2 T00321032
KPPQ 311855Z AUTO 00000KT 10SM SCT036 BKN042 BKN049 04/M03 A3025 RMK AO2 T00401032
KPQI 311855Z AUTO 33018G22KT 1 3/4SM OVC025 M13/M17 A2967 RMK AO1
KPQL 311853Z 14008KT 110V170 10SM CLR 16/05 A3027 RMK AO2 SLP253 T01560050
KPQN 311854Z AUTO 06009KT 3/4SM BR OVC002 M04/M05 A3010 RMK AO2
KPRB 311853Z AUTO 32004KT 1/4SM FG VV002 08/07 A3002 RMK AO2 SLP166 T00780067 TSNO
KPRC 311853Z COR VRB04KT 10SM FEW019 BKN026 OVC037 09/03 A2991 RMK AO2 SLP096 T00890033
KPRG 311855Z AUTO 20009KT 10SM OVC040 04/M01 A3028 RMK AO2 T00351014
KPRN 311856Z AUTO 08006KT 10SM CLR 16/M06 A3028 RMK AO2 SLP253 T01611061
KPRO 311855Z AUTO 22011KT 7SM UP 03/02 A3013 RMK AO2 T00310020
KPRS 311855Z AUTO 13005KT 10SM CLR 16/11 A2991 RMK AO2 T01600113
KPRX 311855Z 13009KT 10SM CLR 12/00 A3017 RMK AO1
KPSC 311853Z 00000KT 10SM OVC024 04/01 A3040 RMK AO2 SLP296 T00390011
KPSF 311854Z AUTO 28012G18KT 10SM CLR M13/M22 A2998 RMK AO2 SLP186 T11281222
KPSK 311855Z AUTO 28009KT 10SM CLR 05/M17 A3025 RMK AO2 T00471167
KPSM 311858Z 29020G23KT 10SM FEW130 FEW250 M07/M20 A2978 RMK AO2A PK WND 29029/05 SLP090 T10731201
KPSN 311855Z AUTO 13007KT 10SM OVC025 12/04 A3015 RMK AO2 T01260043
KPSO 311855Z AUTO 24007KT 10SM SCT006 BKN010 OVC026 02/01 A2989 RMK AO2 T00230011
KPSP 311853Z 05007KT 10SM BKN085 OVC100 20/06 A2993 RMK AO2 SLP133 T02000061
KPSX 311853Z AUTO 13020G27KT 10SM FEW070 22/16 A3008 RMK AO2 PK WND 13027/1848 SLP185 T02170161
KPTB 311855Z AUTO 27008KT 10SM CLR 05/M17 A3029 RMK AO2 T00531168
KPTK 311853Z 20006KT 10SM BKN043 M01/M07 A3014 RMK AO2 SLP223 T10061072
KPTN 311855Z AUTO 07008KT 10SM CLR 17/08 A3022 RMK AO1
KPTS 311855Z AUTO 16005KT 10SM UP SCT038 BKN055 OVC065 07/00 A3015 RMK AO2 T00701001
KPTT 311855Z AUTO 19017KT 4SM RA OVC007 03/02 A2998 RMK AO2
KPTV 311855Z AUTO 29009KT 1 3/4SM BKN009 14/11 A3002 RMK AO1
KPTW 311854Z AUTO 28010G20KT 10SM CLR M05/M15 A3019 RMK AO2 SLP226 T10501150
KPUB 311853Z AUTO 11004KT 10SM BKN110 06/01 A2983 RMK AO2 SLP097 T00560011
KPUC 311853Z AUTO 33007KT 10SM CLR 07/02 A2994 RMK AO2 SLP142 T00720022
KPUJ 311855Z AUTO 14003KT 10SM CLR 12/M04 A3030 RMK AO2
KPUW 311900Z AUTO 00000KT 10SM OVC009 00/M03 A3029 RMK AO2 T00001028
KPVB 311855Z AUTO 00000KT 10SM SCT065 00/M04 A3014 RMK AO1 T10011044
KPVC 311855Z 31026G38KT 10SM CLR M04/M14 A2977 RMK AO1
KPVD 311851Z 31018G29KT 10SM FEW250 M06/M21 A2988 RMK AO2 PK WND 32034/1834 SLP119 T10561211
KPVE 311855Z AUTO 09005KT 10SM CLR 07/M07 A3030 RMK
KPVF 311855Z AUTO 14003KT 10SM CLR 18/M12 A3002 RMK AO1
KPVG 311855Z AUTO 30008G16KT 10SM CLR 03/M13 A3031 RMK AO1
KPVJ 311855Z AUTO 14005KT 10SM -DZ OVC039 06/02 A3010 RMK AO2 T00640018
KPVU 311857Z 30006KT 10SM FEW020 SCT040 SCT080 06/00 A3003
KPVW 311855Z AUTO 17006KT 3SM -DZ OVC005 04/04 A2993 RMK AO2 T00430037
KPWA 311853Z 16016G21KT 6SM -RA BR FEW050 BKN075 OVC085 06/03 A3005 RMK AO2 PRESFR SLP178 P0001 T00560033
KPWC 311854Z AUTO 34009G14KT 10SM CLR M08/M15 A3028 RMK AO2
KPWG 311855Z AUTO 14009KT 10SM OVC016 10/04 A3009 RMK AO1
KPWK 311852Z 28007KT 10SM FEW090 02/M05 A3018 RMK AO2 SLP226 T00221050
KPWM 311851Z 32023G35KT 10SM FEW150 BKN250 M06/M18 A2976 RMK AO2 PK WND 31035/1846 SLP077 T10611183
KPWT 311855Z AUTO 00000KT 9SM OVC003 05/04 A3024 RMK AO1
KPXE 311855Z AUTO 17003KT 7SM CLR 14/M07 A3034 RMK AO2 T01441071
KPYM 311852Z AUTO 30015G30KT 10SM CLR M06/M21 A2981 RMK AO2 PK WND 30034/1834 SLP098 T10561211
KPYX 311855Z AUTO 19015KT 10SM OVC007 04/03 A2993 RMK AO2 P0002 T00360025
KPZQ 311405Z AUTO 19007KT 10SM BKN055 OVC070 M09/M11 A3015 RMK AO2
KQAJ 311855Z 31007KT 9999 FEW100 17/M01 A3015 RMK SLP208 T01651012
KQAY 311855Z AUTO 28006KT 9999 CLR 18/M01 A3014 RMK AO2 SLP204 T01801015 $
KQAZ 311900Z AUTO 15002KT 9999 CLR 23/M12 A2997 RMK CDP03565 CLR
KQBF 311855Z AUTO 06002KT 3200 HZ CLR 27/M04 A2993 RMK AO2 SLP125 T02741039
KQBL 311856Z AUTO 15003KT 10SM CLR 14/02 A3032 RMK AO2 SLP273 T01430020
KQCL 311855Z AUTO 05/M01 A3012 RMK AO2 SLP218 T00451011 PWINO TSNO $
KQEB 311855Z AUTO 9999 CLR 20/10 Q1023 RMK AO2 SLP162 T02030095
KQEI 311910Z AUTO 01001KT 9000 HZ CLR M11/M16 A3048 RMK A02 TSNO
KQEJ 311910Z AUTO 07001KT 6000 HZ CLR M12/M16 A3045 RMK A02 TSNO
KQEL 311910Z AUTO 12001KT 9999 CLR M11/M14 A3055 RMK A02 TSNO
KQEN 311910Z AUTO 9999 CLR M12/M18 / RMK A02 TSNO
KQEP 311910Z AUTO 22002KT 6000 HZ CLR M09/M14 A3046 RMK A02 TSNO
KQEQ 311910Z AUTO 00000KT 9999 CLR M11/M15 A3039 RMK A02 TSNO
KQER 311910Z AUTO 18001KT 9000 HZ CLR M12/M17 A3045 RMK A02 TSNO
KQES 311910Z AUTO 9999 CLR M02/M13 A3056 RMK A02 TSNO
KQEV 311910Z AUTO 26001KT 6000 HZ CLR M09/M13 A3053 RMK A02 TSNO
KQEW 311910Z AUTO 19003KT 9999 CLR M05/M14 A3048 RMK A02 TSNO
KQEX 311910Z AUTO 05003KT 9999 CLR M06/M11 A3052 RMK A02 TSNO
KQEY 311910Z AUTO 16002KT 9999 CLR M09/M12 A3049 RMK A02 TSNO
KQFB 311910Z AUTO 26003KT 9999 CLR M08/M13 A3053 RMK A02 TSNO
KQFG 311855Z AUTO 01013G25KT 350V050 9999 -RA SCT045 BKN055 BKN070 13/01 A3014 RMK AO2 RAB1835 SLP205 P0000 T01300013
KQFQ 311855Z AUTO VRB03KT 9SM CLR M11/M13 A3049 RMK AO2 SLP330 T11061133 $
KQFS 311856Z AUTO 20002KT 9999 M M04/M12 A3048 RMK AO2 SLPNO T10401120 $
KQFT 311910Z AUTO 18001KT 9000 HZ CLR M10/M15 A3050 RMK A02 TSNO
KQFU 311910Z AUTO 00000KT 9999 CLR M10/M16 A3051 RMK A02 TSNO
KQFV 311910Z AUTO 18002KT 6000 HZ CLR M13/M16 A3045 RMK A02 TSNO
KQFX 311910Z AUTO 11001KT 6000 HZ CLR M11/M15 A3052 RMK A02 TSNO
KQGA 311859Z AUTO VRB04KT 4800 HZ CLR 27/02 A2992 RMK CDP03659 CLR
KQGV 311855Z 32012KT 9999 FEW080 16/M01 A3017 RMK SLPNO QNH1021 PA +235
KQGX 311858Z 07004KT CLR 21/11 A3006 RMK AO2A SLP181 T02110105 RVRNO $
KQHN 311855Z 14003KT 9999 CLR 11/00 A2994 RMK SLP138 Q1014 DA3679
KQHY 311856Z AUTO 14005G11KT 10SM CLR 13/02 A3032 RMK AO2 SLP274 T01270018
KQIR 311858Z 12006KT 9999 CLR 21/13 A3002 RMK AO2A SLP167 T02070128 $
KQL5 311855Z 17002KT 8000 HZ BKN090 OVC120 11/04 A3011 RMK SLP197 T01100044
KQLP 311855Z AUTO 10005KT 18/06 Q1024 RMK AO2 SLP167 T01840056 PWINO TSNO $
KQMR 311850Z AUTO VRB03KT 9999 CLR 28/23 A2986 RMK AO2 SLP111 T02780231
KQND 311855Z AUTO 32001KT 7SM CLR 27/M05 A2989 RMK AO2 SLP110 T02731053 $
KQQY 311855Z AUTO VRB02KT 9999 FEW100 31/20 A2992 RMK AO2 SLP110 T03120204
KQRB 311850Z AUTO 18003KT 9999 CLR 28/24 A2987 RMK AO2 SLP115 T02750235
KQRH 311856Z AUTO 16003KT 9000 CLR 23/18 A3009 RMK AO2 SLP182 T02320178
KQSA 311858Z 13002KT 9999 OVC055 07/02 A3008 RMK AO2A SLP144 T00660020 401031001
KQSF 311855Z AUTO 13002KT 9999 BKN035 OVC049 04/M01 A3015 RMK AO2 SLP259 T00361011
KQTC 311755Z AUTO 31004KT 10SM CLR 29/M06 A2995 RMK AO2 SLP106 T02921057 10379 20203 52011 $
KQTH 311855Z AUTO 12004KT 9999 CLR 17/12 A3016 RMK AO2 SLP198 T01670117 $
KQTZ 311655Z 35004KT 9999 CLR 13/02 A3022 RMK SLP234 WND/ALSTG/SLP ESTMD
KQUD 311855Z AUTO 25001KT 7SM -SHRA CLR 21/19 A3014 RMK AO2 RAB1840E1846SHRAB1846 SLP151 P0000 T02130188 $
KQVF 311855Z AUTO VRB04KT 9999 FEW015 BKN019 26/22 A2996 RMK AO2 SLP145 T02570218 $
KQWM 311755Z 34008KT 9999 FEW100 18/M03 A3016 RMK SLP211 QNH1021
KQXT 311855Z VRB03KT 9999 SCT250 13/03 A2992 RMK SLP127 WND DATA ESTMD ALSTG/SLP ESTMD Q1013
KRAC 311853Z AUTO 32005KT 10SM CLR 02/M07 A3017 RMK AO2 SLP226 T00171067
KRAL 311853Z VRB03KT 10SM FEW080 17/11 A2992 RMK AO2 SLP120 T01670106
KRAP 311852Z 11009KT 1/4SM FZFG VV002 M03/M04 A2999 RMK AO2 SLP190 T10331039
KRAS 311855Z AUTO 13008KT 10SM CLR 19/17 A3004 RMK AO2 T01890166
KRBD 311853Z 13011KT 10SM OVC018 12/02 A3009 RMK AO2 SLP186 T01170022
KRBG 311853Z AUTO 00000KT 10SM OVC011 07/04 A3019 RMK AO2 SLP227 T00720044
KRBL 311854Z AUTO 33012KT 10SM CLR 19/M02 A3007 RMK AO2 SLP180 T01941022
KRBO 311855Z AUTO 14021G25KT 10SM SCT031 BKN043 BKN049 23/16 A3002 RMK AO2 T02310159
KRBW 311855Z AUTO 19004KT 10SM CLR 12/M19 A3037 RMK AO2
KRCA 311858Z AUTO 11010KT M1/4SM R13/0600FT -FZDZ FZFG VV001 M04/M04 A2999 RMK AO2 SLP197 P0000 T10361040 $
KRCE 311855Z AUTO 16015G23KT 3SM -RA FEW028 05/05 A3005 RMK AO2
KRCM 311855Z AUTO 09004KT 5SM DZ BKN025 OVC031 03/02 A3018 RMK AO2 P0004
KRCR 311855Z AUTO 22008KT 10SM SCT070 03/M02 A3021 RMK AO2
KRCV 311850Z AUTO 08004KT 4SM -SN OVC016 00/M03 A2988 RMK AO2 T00031026
KRCX 311855Z AUTO 03007KT 10SM OVC021 M03/M08 A3018 RMK AO2 T10301076
KRCZ 311855Z AUTO 26006KT 10SM 09/M14 A3033 RMK AO2 T00891144
KRDD 311853Z 35009G21KT 10SM CLR 19/M02 A3007 RMK AO2 SLP179 T01941022
KRDG 311854Z AUTO 31015G21KT 10SM CLR M04/M14 A3020 RMK AO2 SLP238 T10441139 $
KRDK 311855Z AUTO 18013KT 5SM -UP BKN008 OVC011 03/03 A3011 RMK AO2 P0002
KRDM 311856Z 32007KT 10SM CLR 02/M01 A3025 RMK AO2 SLP260 T00171011
KRDR 311858Z AUTO 02017G23KT 10SM CLR M17/M23 A3046 RMK AO2 SLP343 T11701233
KRDU 311851Z VRB04KT 10SM FEW250 07/M16 A3031 RMK AO2 SLP267 T00721161
KREO 311852Z AUTO VRB04KT 04/M03 A3020 RMK AO1 SLP253 T00441028
KRFD 311854Z 29005KT 10SM SCT065 BKN200 OVC250 02/M04 A3017 RMK AO2 SLP225 T00221044
KRFI 311855Z AUTO 17006KT 10SM CLR 15/01 A3017 RMK AO2 T01510006
KRGK 311850Z AUTO 05005KT 10SM OVC022 M01/M06 A3018 RMK AO2
KRHI 311853Z AUTO 33007KT 10SM OVC015 M06/M09 A3013 RMK AO2 SLP231 T10561089
KRHP 311855Z AUTO 26005KT 10SM CLR 09/M17 A3028 RMK AO2 T00901167
KRHV 311850Z 12004 10SM SKC 20/02 3001 RMK MOD TURB 010-040
KRIC 311854Z 30006KT 10SM CLR 04/M16 A3029 RMK AO2 SLP262 T00391161
KRIL 311853Z AUTO 00000KT 10SM BKN008 BKN040 OVC047 03/01 A2992 RMK AO2 RAE20 SLP129 P0001 T00280011
KRIV 311858Z AUTO 17003KT 10SM CLR 13/13 A2992 RMK AO2 SLP129 T01330133
KRIW 311853Z AUTO 05005KT 10SM CLR 00/M03 A2990 RMK AO2 SLP144 T00001028
KRKD 311855Z AUTO 00000KT 10SM FEW075 M10/M14 A2965 RMK AO1
KRKP 311853Z AUTO 13011KT 8SM FEW023 21/17 A3004 RMK AO2 SLP174 T02060167
KRKR 311855Z AUTO 15011G17KT 10SM CLR 11/M03 A3018 RMK AO2 T01051031
KRKS 311854Z AUTO 25017KT 10SM CLR 01/M03 A2993 RMK AO2 SLP149 T00111033
KRME 311853Z 29013KT 10SM CLR M12/M20 A3024 RMK AO2 SLP251 T11171200
KRMG 311853Z AUTO 00000KT 10SM CLR 08/M08 A3033 RMK AO2 SLP269 T00831083
KRMN 311855Z AUTO 00000KT 10SM CLR 01/M18 A3033 RMK AO2 T00071181
KRMY 311854Z AUTO 23009G14KT 10SM CLR 01/M06 A3016 RMK AO2 T00051062
KRNC 311855Z AUTO 00000KT 10SM CLR 07/M08 A3032 RMK
KRND 311908Z AUTO 07004KT 5SM -RA BR OVC006 13/13 A3003 RMK AO2
KRNH 311855Z AUTO 03007KT 10SM OVC021 M03/M07 A3021 RMK AO2 T10291074
KRNM 311853Z 00000KT 10SM BKN065 16/09 A2992 RMK AO2 SLP126 T01560094
KRNO 311855Z 19003KT 10SM CLR 06/M04 A3024 RMK AO2 SLP238 T00561044 $
KRNP 311855Z AUTO 24007KT 10SM OVC045 00/M06 A3015 RMK AO2 T00001057
KRNT 311853Z 32006KT 3SM BR OVC004 04/03 A3026 RMK AO2 SLP250 T00390033
KRNV 311855Z AUTO 10004KT 10SM CLR 09/M01 A3027 RMK AO2 T00891011
KROA 311854Z 31011KT 10SM FEW200 07/M22 A3026 RMK AO2 SLP255 T00671217
KROC 311854Z 28007KT 10SM SCT025 BKN036 M07/M13 A3023 RMK AO2 SLP252 T10671133
KROG 311857Z 15012KT 10SM OVC090 08/M10 A3014 RMK AO2 SLP210 T00831100
KROS 311855Z AUTO 02006KT 10SM SCT025 M02/M09 A3022 RMK AO2 T10191088
KROW 311851Z 17003KT 10SM OVC007 06/03 A2992 RMK AO2 SLP121 T00560033
KROX 311854Z AUTO 01010KT 10SM CLR M17/M23 A3043 RMK AO2
KRPD 311855Z AUTO 35008KT 10SM OVC023 M03/M08 A3020 RMK AO2 T10311080
KRPH 311850Z AUTO 12007KT 4SM RA SCT017 BKN027 OVC047 07/06 A3002 RMK AO2 P0005 T00660058
KRPJ 311855Z AUTO 23010KT 10SM CLR 01/M02 A3016 RMK AO2 T00071017
KRQB 311855Z AUTO 28007KT 10SM OVC019 M01/M04 A3012 RMK AO2 T10071040
KRQE 311853Z AUTO 00000KT 10SM OVC018 04/01 A2992 RMK AO2 SLP099 T00390006 TSNO
KRQO 311655Z AUTO 17013KT 7SM DZ OVC032 05/03 A3015 RMK AO2
KRRL 311855Z AUTO 02009KT 10SM OVC018 M04/M08 A3013 RMK AO2 T10371076
KRRT 311854Z AUTO 01009KT 10SM CLR M17/M23 A3042 RMK AO2
KRSL 311853Z AUTO 17007KT 2 1/2SM RA BR OVC008 03/03 A2994 RMK AO2 CIG 006V012 SLP152 P0009 T00280028 $
KRSN 311855Z AUTO 18006KT 10SM CLR 14/00 A3026 RMK AO2 T01370000
KRSP 311854Z AUTO 10SM CLR M07/M16 RMK AO2 SLPNO T10721161 $
KRST 311854Z 03008KT 6SM HZ OVC011 M02/M04 A3014 RMK AO2 SLP226 T10171044
KRSV 311855Z AUTO 21006KT 10SM CLR 04/M03 A3031 RMK AO2 T00401030
KRSW 311853Z 09014G19KT 10SM SCT050 23/09 A3019 RMK AO2 SLP222 T02280094
KRTN 311853Z AUTO 00000KT 10SM SCT009 OVC022 M01/M02 A2984 RMK AO2 SLP111 T10061022
KRTS 311855Z AUTO 16004KT 10SM CLR 05/M07 A3022 RMK AO2
KRUE 311853Z AUTO 10006KT 10SM OVC110 07/M02 A3024 RMK AO2 SLP239 T00721017
KRUG 311855Z AUTO 06019KT 10SM CLR M18/M22 A3042 RMK AO2
KRUQ 311855Z AUTO 23003KT 10SM CLR 09/M15 A3030 RMK AO2 T00851146
KRUT 311855Z 33007KT 10SM CLR A3003 RMK AO1
KRVS 311853Z 17009KT 10SM -RA SCT055 OVC080 07/01 A3016 RMK AO2 SLP219 P0000 T00720006
KRWF 311853Z AUTO 02008KT 6SM BR OVC009 M03/M05 A3018 RMK AO2 SLP235 T10281050
KRWI 311853Z AUTO 27006KT 10SM CLR 07/M14 A3031 RMK AO2 SLP266 T00671144 $
KRWL 311853Z AUTO 23008KT 10SM CLR 03/M05 A2988 RMK AO2 SLP112 T00331050
KRWV 311855Z AUTO 13012KT 10SM FEW022 16/09 A3011 RMK AO2
KRXE 311853Z AUTO 02004KT 10SM OVC010 M03/M04 A3012 RMK AO2 SLP243 T10331044
KRYN 311845Z 04004KT 10SM SCT039 BKN080 12/12 A2989
KRYT 311853Z AUTO 33008G15KT 10SM CLR M04/M15 A3021 RMK AO2 SLP254 T10441150 $
KRYV 311855Z AUTO 35004KT 10SM OVC023 00/M06 A3014 RMK AO2 T00011057
KRYW 311855Z AUTO 11005KT 2 1/2SM BR OVC002 10/09 A3006 RMK AO2 T00970089
KRYY 311847Z 00000KT 10SM BKN150 09/M09 A3033
KRZL 311855Z AUTO 21010KT 10SM BKN038 BKN090 02/00 A3021 RMK AO2
KRZN 311855Z AUTO 03006KT 10SM SCT026 M03/M09 A3021 RMK AO2 T10301095
KRZR 311855Z AUTO 00000KT 10SM CLR 07/M12 A3034 RMK
KRZT 311855Z AUTO 22006KT 10SM CLR 01/M07 A3030 RMK AO2
KS25 311855Z AUTO 08015G18KT 2 1/2SM -SN SCT010 BKN017 OVC030 M12/M15 A3025 RMK AO2
KS39 311900Z AUTO 00000KT 10SM CLR 06/M01 A3024 RMK AO2
KSAA 311855Z AUTO 00000KT 10SM CLR 00/M03 A2989 RMK AO2
KSAC 311853Z 32008G17KT 10SM CLR 17/01 A2999 RMK AO2 SLP156 T01720011
KSAD 311851Z AUTO 09006KT 10SM -RA OVC065 11/08 A2988 RMK AO2 SLP101 P0001 T01110083
KSAF 311908Z 16006KT 3SM -SN BR SCT008 OVC015 00/M02 A2989 RMK AO2 P0001 T00001017
KSAN 311851Z 28004KT 10SM SCT015 SCT025 BKN200 17/11 A2994 RMK AO2 SLP137 T01720111
KSAR 311855Z AUTO 18004KT 10SM BKN100 05/M03 A3030 RMK AO2 T00451035
KSAT 311851Z 10005KT 1/2SM R12R/5000V5500FT -RA BR OVC002 13/12 A3004 RMK AO2 SFC VIS 3/4 DZE1759RAB1759 SLP163 P0001 T01280122
KSAV 311853Z 00000KT 10SM SCT250 12/M12 A3036 RMK AO2 SLP282 T01171117
KSAW 311845Z 36011KT 2 1/2SM -SN SCT014 BKN020 OVC030 M07/M10 A3011
KSAZ 311854Z AUTO 03008KT 10SM CLR M06/M21 A3023 RMK AO2
KSBA 311853Z 17006KT 10SM CLR 18/13 A2993 RMK AO2 SLP135 T01780128
KSBD 311848Z 35015KT 10SM SCT080 BKN100 18/04 A2992
KSBM 311853Z AUTO 31006KT 10SM OVC026 M01/M07 A3016 RMK AO2 SLP223 T10111072
KSBN 311854Z 22009KT 10SM CLR 03/M05 A3019 RMK AO2 SLP234 T00281050
KSBO 311855Z AUTO 11003KT 10SM CLR A3035 RMK AO2
KSBP 311856Z 14003KT 10SM CLR 17/09 A2996 RMK AO2 SLP144 T01720094
KSBS 311855Z AUTO 21003KT 5SM BKN006 OVC013 M01/M02 A2990 RMK AO1 T10081020
KSBY 311854Z 30012G19KT 10SM CLR 01/M14 A3023 RMK AO2 SLP241 T00061144
KSCD 311855Z AUTO 00000KT 10SM CLR 15/M08 A3030 RMK AO2 T01451077
KSCH 311847Z 29020G26KT 10SM CLR M12/M23 A3012
KSCK 311855Z 29007KT 10SM CLR 14/03 A2998 RMK AO2 SLP152 T01440028
KSDA 311855Z AUTO 17012KT 4SM BR BKN007 SCT029 02/02 A3012 RMK AO2 P0002
KSDB 311848Z AUTO 06011G20KT 10SM CLR 12/03 A3000 RMK AO2 SLP131 T01170028 $
KSDF 311856Z VRB05KT 10SM FEW160 OVC190 06/M07 A3033 RMK AO2 SLP274 T00561067
KSDL 311853Z 00000KT 10SM BKN049 OVC060 15/11 A2987 RMK AO2 SLP103 T01500106
KSDM 311853Z 00000KT 8SM FEW017 BKN041 16/11 A2992 RMK AO2 SLP130 T01560111
KSDY 311855Z AUTO 04014G22KT 3/4SM OVC012 M10/M13 A3026 RMK AO1
KSEA 311902Z 31004KT 1/2SM R16L/1200V3000FT FG VV001 05/04 A3023 RMK AO2
KSEE 311855Z AUTO 00000KT 9SM BKN045 19/11 A2994 RMK AO2
KSEG 311853Z AUTO VRB05KT 10SM CLR M04/M15 A3023 RMK AO2 SLP246 T10441150
KSEM 311855Z AUTO 00000KT 10SM 13/M05 A3031 RMK AO2
KSEP 311855Z AUTO 13010KT 2 1/2SM OVC010 08/05 A3007 RMK AO2 T00770054
KSET 311854Z AUTO 03004KT 10SM BKN080 OVC090 04/M02 A3026 RMK AO2 PRESFR SLP248 T00441017
KSEZ 311855Z AUTO 00000KT 10SM SCT009 OVC042 09/08 A2991 RMK AO2
KSFB 311853Z 09011KT 10SM FEW046 21/08 A3028 RMK AO2 SLP252 T02110083
KSFF 311853Z 22006KT 10SM OVC013 01/M03 A3032 RMK AO2 SLP284 T00061028
KSFM 311855Z AUTO 29015G25KT 1 1/4SM CLR M07/M18 A2977 RMK AO1
KSFO 311856Z 00000KT 10SM FEW200 21/01 A3001 RMK AO2 SLP161 T02060006
KSFQ 311855Z AUTO 31007KT 10SM CLR 03/M15 A3030 RMK AO2 T00311151
KSFY 311855Z AUTO 25003KT 10SM SCT100 03/M02 A3016 RMK AO2 T00301021
KSFZ 311855Z 30013G28KT 260V330 10SM CLR M07/M21 A2984 RMK AO1
KSGF 311852Z 15018KT 10SM OVC100 07/M09 A3015 RMK AO2 SLP216 T00671089
KSGH 311856Z AUTO 22009KT 9SM CLR 01/M06 A3027 RMK AO2 T00111055 SLP266
KSGJ 311858Z 02012KT 10SM CLR 16/06 A3033 RMK AO2 SLP271 T01560061
KSGR 311853Z AUTO 11010KT 10SM OVC024 17/12 A3010 RMK AO2 SLP195 T01720117
KSGS 311850Z AUTO 02005KT 10SM OVC019 M01/M06 A3020 RMK AO2 T10151061
KSGT 311855Z AUTO 13004KT 10SM OVC120 07/M03 A3029 RMK AO1
KSGU 311855Z AUTO 00000KT 10SM FEW034 BKN110 12/04 A2997 RMK AO1
KSHD 311855Z AUTO 10004KT 10SM CLR 02/M17 A3023 RMK AO2 T00221166
KSHL 311855Z AUTO 07013KT 1 3/4SM BR OVC006 M02/M02 A3008 RMK AO2
KSHM 311856Z AUTO 23002KT 8SM -RA FEW008 BKN022 02/00 A2984 RMK AO2 SLP120 T00160003
KSHN 311853Z AUTO 09005KT 3/4SM BR OVC002 04/03 A3021 RMK AO2 SLP234 T00390028
KSHR 311853Z AUTO 33018G25KT 10SM CLR 03/M06 A2995 RMK AO2 PK WND 32028/1840 SLP173 T00281056
KSHV 311856Z 12008KT 10SM FEW100 BKN160 OVC290 13/00 A3019 RMK AO2 SLP221 T01280000
KSIF 311855Z AUTO 20006KT 10SM CLR 07/M14 A3030 RMK AO2 T00741144
KSIY 311853Z AUTO 18004KT 10SM CLR 06/M01 A3023 RMK AO2 SLP259 T00561006 $
KSJC 311853Z 28012KT 10SM FEW200 19/M03 A2998 RMK AO2 SLP153 T01891028
KSJN 311902Z AUTO VRB03KT 10SM FEW016 SCT021 OVC030 08/04 A2990 RMK AO2 T00780039
KSJS 311855Z AUTO 24004KT 10SM CLR 03/M08 A3031 RMK AO2 T00331082
KSJT 311906Z 14004KT 10SM OVC010 12/11 A2996 RMK AO2 T01220106
KSJX 311856Z AUTO 00000KT 10SM OVC020 M03/M07 A3013 RMK AO2 T10351066
KSKA 311858Z AUTO 23004KT 10SM -SN OVC007 M01/M01 A3028 RMK AO2 SNE21SNB32E42UPB48E51SNB51 SLP282 P0000 T10111011
KSKF 311908Z AUTO 08006KT 3SM -RA BR OVC004 14/13 A3001 RMK AO2 $
KSKX 311855Z AUTO 00000KT 10SM SCT008 OVC013 M01/M03 A2989 RMK AO1
KSLB 311855Z AUTO 06008KT 3/4SM -UP OVC002 M00/M00 A3009 RMK AO2
KSLC 311853Z 32012KT 10SM FEW020 FEW045 FEW200 06/M01 A3005 RMK AO2 SLP170 T00561011
KSLE 311856Z 10003KT 10SM FEW004 06/02 A3020 RMK AO2 SLP228 T00560017
KSLG 311855Z AUTO 16010KT 10SM FEW110 A3017 RMK AO1
KSLH 311858Z AUTO 27012G18KT 10SM OVC028 M02/M08 A3010 RMK AO2 T10271081
KSLI 311858Z 00000KT 10SM SCT025 18/12 A2993 RMK AO2A SLP138 T01780123
KSLK 311851Z AUTO 27010KT 10SM CLR M16/M24 A3002 RMK AO2 SLP212 T11561239 $
KSLN 311853Z 16011KT 4SM -RA BR OVC008 04/02 A3002 RMK AO2 CIG 007V012 SLP172 P0005 T00390022
KSLO 311855Z AUTO 20006KT 10SM OVC090 05/M03 A3030 RMK AO2 T00541029
KSLR 311855Z AUTO 14009KT 10SM SCT048 12/01 A3017 RMK AO2 T01230005
KSME 311855Z AUTO 00000KT 10SM CLR 03/M11 A3034 RMK AO2
KSMF 311853Z 34017KT 10SM CLR 18/02 A2999 RMK AO2 SLP154 T01780017
KSMN 311855Z AUTO 36004KT 10SM OVC023 M02/M07 A3022 RMK AO1
KSMO 311851Z 11004KT 10SM FEW050 18/12 A2993 RMK AO2 SLP134 T01830117 $
KSMQ 311853Z AUTO 31014G21KT 10SM CLR M04/M17 A3013 RMK AO2 SLP206 T10391172 TSNO
KSMS 311855Z AUTO 21003KT 10SM CLR 11/M11 A3036 RMK AO2
KSMX 311851Z 00000KT 10SM CLR 16/09 A2996 RMK AO2 SLP148 T01610089 $
KSNA 311853Z 00000KT 10SM FEW021 19/11 A2992 RMK AO2 SLP132 T01940111
KSNC 311855Z AUTO 34016G23KT 020V360 10SM CLR M07/M21 A2996 RMK AO2
KSNH 311855Z AUTO 00000KT 10SM CLR 08/M07 A3032 RMK
KSNK 311855Z AUTO 15008KT 7SM OVC004 A2996 RMK AO2 P0001 TSNO
KSNL 311855Z AUTO 15004KT 10SM DZ OVC039 06/05 A3012 RMK AO2 P0001
KSNS 311853Z 11010KT 10SM CLR 16/08 A2998 RMK AO2 SLP162 T01610083
KSNT 311851Z AUTO 00000KT M13/M17 A3017 RMK AO1 SLP284 T11331167
KSNY 311900Z AUTO 34007KT 1SM -SN BR OVC004 01/M01 A2986 RMK AO2 P0000 T00061011
KSOA 311855Z AUTO 16011G18KT 10SM BKN013 OVC018 13/13 A3001 RMK AO2
KSOP 311855Z AUTO 00000KT 10SM CLR 08/M15 A3032 RMK AO1
KSOW 311855Z AUTO 34004KT 10SM SCT016 BKN027 OVC033 05/02 A2994 RMK AO2
KSPA 311915Z AUTO 23005KT 10SM CLR 11/M10 A3031 RMK AO2
KSPB 311908Z AUTO 00000KT 3SM BR OVC002 03/03 A3023 RMK AO2 T00280028
KSPD 311856Z AUTO 24006KT 06/02 A2982 RMK AO1 SLP090 T00560017
KSPF 311855Z AUTO 09008KT 2SM BR OVC003 M03/M04 A2996 RMK AO2
KSPG 311853Z 07005KT 10SM CLR 19/13 A3022 RMK AO2 SLP233 T01940128
KSPI 311852Z 22008KT 10SM SCT060 BKN080 04/M03 A3026 RMK AO2 SLP254 T00391033
KSPL 311855Z AUTO 23007KT 5SM CLR 20/17 A3004 RMK AO1
KSPR 311855Z AUTO VRB06G18KT 9SM CLR 18/13 A3016 RMK A01
KSPS 311852Z AUTO 13009KT 4SM RA BR BKN020 OVC028 06/04 A3003 RMK AO2 SLP170 P0006 T00610044 $
KSPW 311904Z AUTO 06011KT 2SM BR OVC006 M02/M04 A3010 RMK AO2 I1000 T10171039 TSNO
KSQE 311855Z AUTO 12011G17KT 8SM SCT041 22/13 A3016 RMK A01
KSQI 311715Z AUTO 26007KT 10SM OVC100 02/M03 A3022 RMK AO1
KSQL 311847Z 00000KT 10SM SKC 19/M05 A3002
KSRB 311855Z AUTO 00000KT 10SM CLR 06/M10 A3032 RMK
KSRC 311856Z AUTO 16005KT 10SM OVC110 09/M03 A3030 RMK AO2 SLP266 T00941028 TSNO
KSRQ 311853Z 09012KT 10SM CLR 22/08 A3020 RMK AO2 SLP227 T02220083
KSRR 311855Z AUTO 24014G26KT 10SM BKN016 BKN023 07/07 A2991 RMK AO2
KSSC 311858Z AUTO VRB02KT 10SM FEW210 11/M12 A3034 RMK AO2 SLP277 T01081119 $
KSSF 311905Z 09004KT 3SM -RA BR OVC005 14/14 A3001 RMK AO2 P0000 T01440139
KSSI 311853Z AUTO 07012KT 10SM CLR 12/00 A3036 RMK AO2 SLP280 T01170000
KSTC 311853Z 03007KT 10SM FEW024 SCT110 M03/M09 A3021 RMK AO2 SLP255 T10281094
KSTE 311855Z AUTO 00000KT 10SM OVC020 M04/M08 A3015 RMK AO2 T10391080
KSTF 311855Z AUTO 12005KT 10SM CLR 12/M05 A3029 RMK AO2
KSTJ 311853Z 17008KT 4SM -RA BR OVC011 03/02 A3016 RMK AO2 SLP219 P0008 T00330022
KSTK 311855Z AUTO 03004KT 10SM -RA OVC013 02/01 A2985 RMK AO2
KSTL 311851Z 23004KT 10SM FEW036 OVC085 07/M05 A3027 RMK AO2 SLP258 T00721050
KSTP 311853Z 01009KT 10SM OVC021 M02/M07 A3022 RMK AO2 SLP241 T10171067
KSTS 311853Z 00000KT 10SM CLR 18/06 A2998 RMK AO2 SLP146 T01830056
KSUA 311847Z 05012G18KT 7SM BKN035 21/10 A3025
KSUE 311855Z AUTO 31005KT 10SM OVC026 M04/M09 A3018 RMK AO1
KSUN 311847Z 12006KT 10SM FEW001 M04/M07 A3012
KSUS 311854Z 00000KT 10SM FEW040 OVC090 06/M04 A3025 RMK AO2 SLP252 T00611044
KSUT 311855Z AUTO 35007KT 290V020 10SM CLR 08/M13 A3034 RMK AO2 T00831126
KSUU 311858Z AUTO 36012G21KT 10SM CLR 21/00 A2996 RMK AO2 PK WND 01027/17 SLP152 T02051004 $
KSUW 311855Z AUTO 01006KT 10SM BKN090 M05/M14 A3027 RMK AO2 T10491144
KSUX 311852Z 19005KT 2SM -RA BR BKN007 OVC010 03/02 A3007 RMK AO2 SFC VIS 3 RAB45 CIG 004V008 SLP195 P0000 T00330022
KSVC 311855Z AUTO 16004KT 10SM SCT008 BKN013 OVC018 07/06 A2993 RMK AO2
KSVH 311855Z AUTO 00000KT 10SM CLR 09/M16 A3028 RMK AO2 T00861161
KSVN 311858Z AUTO 11009KT 10SM CLR 12/M08 A3034 RMK AO2 SLP277 T01181080
KSWF 311845Z 30025G25KT 20SM SKC M06/M18 A3008
KSWO 311853Z 14012KT 9SM -RA BKN041 BKN065 OVC080 06/03 A3008 RMK AO2 SLP188 P0003 T00560033
KSWW 311855Z AUTO 15011G15KT 10SM OVC005 09/09 A2998 RMK AO2 T00880088
KSXS 311856Z AUTO VRB04KT 10SM CLR 14/M04 A3032 RMK AO2 SLP270 T01401045
KSXT 311856Z AUTO 11007KT 10SM CLR 12/M02 A3014 RMK AO2 SLP192 T01171022 $
KSYF 311855Z AUTO 36005KT 4SM BR OVC003 02/01 A2985 RMK AO2 T00230007
KSYI 311855Z AUTO 00000KT 10SM CLR 08/M08 A3033 RMK
KSYM 311850Z AUTO 22008KT 10SM CLR 03/M08 A3033 RMK AO2
KSYN 311854Z AUTO 03008KT 7SM OVC012 M01/M04 A3017 RMK AO2 T10101039
KSYR 311854Z 29009KT 10SM BKN044 M11/M17 A3025 RMK AO2 SLP248 T11061167 $
KSZL 311858Z AUTO 12005KT 5SM -RA BR OVC024 03/02 A3019 RMK AO2 CIG 015 RWY19 SLP233 P0007 T00330024 $
KSZT 311855Z AUTO 19005KT 10SM OVC018 00/M02 A3028 RMK AO2
KT35 311855Z AUTO 14010KT 10SM SCT023 BKN075 15/09 A3008 RMK AO2 T01510087
KT65 311855Z AUTO 15015G24KT 7SM SCT032 SCT038 BKN048 23/15 A3000 RMK AO2 T02250151
KT82 311855Z AUTO 15004KT 10SM -DZ OVC005 11/10 A3004 RMK AO2 P0002 T01050100
KTAD 311854Z AUTO 00000KT 10SM BKN120 06/M01 A2982 RMK AO2 SLP084 T00611011
KTAN 311852Z AUTO 31016G26KT 10SM CLR M05/M22 A2984 RMK AO2 PK WND 28026/1845 SLP105 T10501217
KTAZ 311855Z AUTO 21007KT 10SM BKN060 BKN070 OVC090 02/M01 A3027 RMK AO2
KTBR 311855Z AUTO 13005KT 10SM CLR 13/M06 A3035 RMK AO2 T01291062
KTBX 311855Z AUTO 31024KT 10SM CLR M02/M08 A2996 RMK AO2
KTCC 311853Z AUTO 22009KT 10SM FEW008 BKN014 OVC055 04/03 A2991 RMK AO2 RAB1758E49 SLP128 P0002 T00440028
KTCL 311853Z VRB03KT 10SM CLR 13/M08 A3031 RMK AO2 SLP264 T01331078
KTCM 311908Z AUTO VRB02KT 3/4SM R34/5000FT BR OVC002 05/05 A3022 RMK AO2 VIS 1/2V1 1/4
KTCS 311910Z AUTO 18004KT 10SM -RA BKN011 OVC016 08/06 A2989 RMK AO2 P0000 T00780056 TSNO
KTDF 311855Z AUTO 26004KT 10SM CLR 05/M15 A3032 RMK AO2
KTDR 311856Z AUTO 06005KT 10SM CLR 16/00 A3028 RMK AO2 SLP258 T01641001
KTDZ 311853Z AUTO 23015KT 10SM CLR 00/M06 A3023 RMK AO2 SLP245 T00001061 TSNO
KTEB 311851Z 32009G19KT 10SM CLR M04/M19 A3011 RMK AO2 SLP196 T10391194
KTEW 311854Z AUTO 21006KT 10SM OVC036 00/M07 A3015 RMK AO2 T00001069
KTEX 311855Z AUTO 28009KT 2 1/2SM BR OVC011 M01/M01 A2993 RMK AO2 T10101010
KTFP 311855Z AUTO 13017G20KT 10SM CLR 21/16 A3003 RMK AO2 T02120160
KTGI 311832Z AUTO 31018G25KT 10SM CLR 00/M11 A3027 RMK AO1
KTHA 311855Z AUTO 00000KT 10SM CLR 06/M12 A3032 RMK
KTHV 311853Z AUTO 28011KT 10SM CLR M04/M15 A3023 RMK AO2 SLP249 T10441150
KTIF 311855Z AUTO 04006KT 1 1/4SM DZ OVC002 02/02 A2992 RMK AO2 T00180016
KTIK 311858Z AUTO 15007G15KT 10SM -RA OVC044 05/03 A3006 RMK AO2 RAE1758DZB1758E15RAB15E23DZB23E27RAB27E37DZB37E51RAB51E55DZB5 5E56RAB56 PRESFR SLP191 P0001 T00480033
KTIP 311855Z AUTO 21009KT 10SM OVC039 04/M01 A3023 RMK AO2 T00411010
KTIW 311853Z 06003KT 1/4SM FG VV002 05/04 A3024 RMK AO2 SLP243 T00500044
KTIX 311850Z 06014KT 7SM SCT050 19/09 A3027
KTKC 311853Z AUTO 03010KT 1 1/2SM BR OVC003 M03/M04 A3015 RMK AO2 T10341038
KTKI 311905Z 14014KT 10SM BKN022 OVC085 12/02 A3010 RMK AO2 T01170017
KTKV 311855Z AUTO 36003KT 10SM OVC017 M05/M08 A3014 RMK AO2 T10471085
KTLH 311853Z 09008KT 10SM SCT040 SCT250 17/M04 A3030 RMK AO2 SLP259 FU SCT040 FU SE T01721044 $
KTMA 311855Z AUTO 16006KT 10SM CLR 13/M06 A3032 RMK AO2
KTMB 311853Z 08013G21KT 10SM SCT045 23/12 A3020 RMK AO2 SLP224 T02280117
KTME 311855Z AUTO 13013G20KT 10SM OVC022 18/12 A3011 RMK AO2
KTMK 311855Z AUTO 00000KT 10SM CLR A3016 RMK AO2
KTNB 311855Z AUTO 29011G16KT 10SM CLR 04/M25 A3023 RMK AO2 T00361253
KTNU 311855Z AUTO 20009KT 9SM OVC013 03/02 A3014 RMK AO2
KTOA 311853Z 09005KT 10SM SCT020 20/15 A2994
KTOB 311854Z AUTO 06005KT 5SM BR SCT009 OVC014 M01/M03 A3014 RMK AO2
KTOC 311855Z AUTO 22005KT 10SM CLR 11/M10 A3030 RMK AO2 T01071098
KTOI 311853Z AUTO VRB05KT 10SM CLR 16/M07 A3030 RMK AO2 SLP261 T01561067
KTOL 311852Z 23008G16KT 10SM CLR 01/M06 A3021 RMK AO2 SLP241 T00061061
KTOP 311853Z 17005KT 4SM -RA BR BKN010 OVC016 03/02 A3015 RMK AO2 SLP214 P0007 T00280017
KTOR 311853Z AUTO 00000KT 10SM OVC070 02/M04 A2989 RMK AO2 SLP134 T00221039
KTPA 311853Z 07008KT 040V110 10SM FEW200 BKN270 22/07 A3024 RMK AO2 SLP240 T02170072
KTPF 311855Z AUTO 08007KT 10SM CLR 23/09 A3024 RMK AO2
KTPH 311856Z AUTO 32022G28KT 10SM CLR 07/M03 A3011 RMK AO2 PK WND 31030/1838 SLP179 T00721033 $
KTPL 311855Z AUTO 11009KT 10SM OVC016 11/04 A3006 RMK AO1
KTQE 311901Z AUTO 16008KT 1 1/4SM -SN BR OVC006 02/01 A3008 RMK AO2 P0001 T00170006
KTQH 311855Z AUTO 15008KT 10SM CLR 07/M03 A3016 RMK AO2
KTRI 311853Z 00000KT 10SM BKN240 05/M13 A3032 RMK AO2 SLP270 T00501128
KTRK 311850Z 00000KT 10SM SKC 04/M09 A3022 RMK NOSPECI
KTRL 311853Z AUTO 12011KT 10SM OVC022 14/03 A3012 RMK AO2 SLP197 T01390028
KTRM 311852Z AUTO 33008KT 10SM BKN100 20/07 A2989 RMK AO2 SLP120 T02000067 TSNO
KTSP 311855Z AUTO 09013G16KT 10SM BKN090 14/01 A3000 RMK AO2
KTTA 311855Z AUTO 28003KT 10SM CLR 08/M16 A3032 RMK AO2 T00811157
KTTD 311853Z 08017G23KT 10SM CLR 08/01 A3022 RMK AO2 SLP234 T00780011
KTTF 311853Z AUTO 23012KT 10SM CLR 01/M06 A3019 RMK AO2
KTTN 311853Z 32010G19KT 10SM CLR M04/M17 A3014 RMK AO2 SLP205 T10391167
KTTS 311858Z AUTO 07008KT 10SM BKN044 19/09 A3027 RMK AO2 SLP254 T01930092
KTUL 311853Z 18010KT 10SM -RA OVC075 07/01 A3015 RMK AO2 SLP211 P0001 T00670011
KTUP 311853Z 10005KT 10SM CLR 11/M07 A3029 RMK AO2 SLP259 T01111072 $
KTUS 311853Z 06004KT 10SM OVC055 13/09 A2989 RMK AO2 RAE13 SLP100 P0000 T01280094
KTVC 311853Z 32008KT 10SM OVC022 M03/M06 A3013 RMK AO2 SLP213 T10281061 $
KTVF 311855Z AUTO 36012KT 10SM CLR M17/M23 A3040 RMK AO1
KTVI 311855Z AUTO 15005KT 10SM CLR 16/M01 A3032 RMK AO2
KTVK 311850Z AUTO 21009KT 10SM -RA BKN002 OVC006 03/03 A3019 RMK AO2 P0002
KTVL 311853Z AUTO 00000KT 10SM CLR 07/M12 A3018 RMK AO2 SLP210 T00721117
KTVR 311853Z AUTO 13008KT 10SM CLR 14/M03 A3024 RMK AO2 SLP247 T01391033
KTWF 311853Z 26011KT 10SM CLR 06/M02 A3015 RMK AO2 SLP205 T00561022
KTWM 311854Z AUTO 32007KT 301V001 10SM CLR M06/M14 A3022 RMK AO2
KTXK 311853Z 13006KT 10SM CLR 10/M01 A3021 RMK AO2 SLP229 T01001006
KTYQ 311855Z AUTO 23014KT 10SM BKN110 03/M06 A3026 RMK AO2 T00311057
KTYR 311853Z 16011KT 10SM CLR 13/01 A3015 RMK AO2 SLP207 T01330011
KTYS 311853Z 00000KT 10SM SCT150 BKN250 06/M08 A3034 RMK AO2 SLP279 T00561078
KTZR 311847Z 22013KT 10SM SCT027 01/M05 A3029
KU16 311758Z AUTO 01011KT 10SM CLR 04/M02 A3008 RMK AO2 SLP808 T00391022 10039 20000 53021 TSNO $
KU68 311855Z AUTO 00000KT 10SM CLR 00/00 A2994 RMK AO2 PWINO
KUAO 311853Z AUTO 11004KT 10SM CLR 06/02 A3022 RMK AO2 SLP234 T00560022
KUBE 311855Z AUTO 02008KT 10SM OVC021 M03/M09 A3019 RMK AO2
KUCP 311856Z AUTO 24005KT 10SM FEW026 M04/M10 A3026 RMK AO2 T10381100 SLP284
KUCY 311855Z AUTO 00000KT 10SM BKN100 04/M04 A3030 RMK
KUDG 311855Z AUTO 31004KT 10SM CLR 10/M12 A3036 RMK AO1
KUES 311845Z 30006KT 10SM FEW050 SCT250 M01/M07 A3016
KUGN 311855Z 29005KT 10SM CLR 02/M06 A3015 RMK AO2 SLP224 T00221056
KUIL 311853Z AUTO 09006KT 8SM CLR 08/06 A3019 RMK AO2 SLP223 T00780061
KUIN 311854Z AUTO 19006KT 5SM -RA SCT027 OVC035 02/M02 A3023 RMK AO2 SLP243 P0001 T00171017
KUKF 311855Z AUTO 22010KT 10SM CLR 09/M15 A3031 RMK AO2
KUKI 311856Z AUTO 00000KT 10SM CLR 12/04 A3005 RMK AO2 SLP173 T01220039
KUKT 311855Z AUTO 32012G17KT 10SM CLR M05/M16 A3016 RMK AO1
KULM 311854Z AUTO 05006KT 7SM OVC010 M03/M04 A3017 RMK AO2
KUNI 311850Z AUTO 18004KT 10SM CLR 01/M07 A3031 RMK AO2 T00091072
KUNO 311853Z AUTO 16007KT 10SM BKN100 06/M07 A3024 RMK AO2 SLP246 T00611072
KUNU 311855Z AUTO 00000KT 10SM OVC023 M01/M06 A3016 RMK AO2 T10131063
KUNV 311853Z 30006KT 10SM FEW026 M06/M14 A3020
KUOX 311855Z AUTO 10005KT 10SM CLR 09/M06 A3029 RMK AO2 PWINO PNO
KUSE 311855Z AUTO 23010KT 10SM CLR 01/M05 A3020 RMK AO2
KUTA 311855Z AUTO 10003KT 10SM CLR 08/M02 A3029 RMK AO2
KUTS 311853Z AUTO 13006KT 10SM CLR 16/08 A3011 RMK AO2 PRESFR SLP195 T01560083
KUUU 311853Z AUTO 33021G30KT 10SM CLR M06/M19 A2986 RMK AO2 PK WND 31032/1800 SLP112 T10561194
KUVA 311855Z AUTO 10008KT 1/2SM DZ OVC002 13/13 A3001 RMK AO2 P0001 T01270126
KUXL 311855Z AUTO 09008KT 10SM CLR 16/08 A3019 RMK AO2 T01610083
KUYF 311855Z AUTO 22012KT 10SM CLR 00/M05 A3026 RMK AO2
KUZA 311854Z AUTO VRB03KT 10SM CLR 09/M12 A3033 RMK AO2 SLP277 T00891117
KVAD 311858Z AUTO 14005KT 10SM CLR 15/M04 A3031 RMK AO2 SLP267 T01531042
KVAF 311855Z AUTO 14015KT 5SM HZ SCT043 21/16 A3008 RMK A01
KVAY 311854Z AUTO 31008G20KT 260V330 10SM CLR M04/M16 A3018 RMK AO2 SLP221 T10391161
KVBG 311855Z AUTO 06008KT 10SM CLR 18/09 A2996 RMK AO2 SLP136 T01780094 TSNO $
KVBT 311855Z AUTO 16010KT 10SM SCT100 08/M09 A3016 RMK AO1
KVBW 311855Z AUTO 14006KT 10SM CLR 02/M14 A3022 RMK AO2 T00181144
KVCB 311853Z AUTO 36010G17KT 10SM CLR 22/M03 A3000 RMK AO2 SLP155 T02221033
KVCT 311909Z 12015KT 10SM FEW017 SCT025 BKN034 21/16 A3004 RMK AO2 PRESFR T02060161
KVCV 311855Z AUTO 36003KT 10SM OVC046 11/06 A2999 RMK AO2
KVDF 311855Z AUTO 10008G15KT 10SM CLR 22/08 A3025 RMK AO2
KVDI 311855Z AUTO 26003KT 10SM CLR 13/M07 A3034 RMK AO2
KVEL 311853Z AUTO 13006KT 10SM FEW006 OVC020 04/02 A2995 RMK AO2 SLP143 T00440022
KVER 311855Z AUTO 13004KT 5SM DZ SCT029 OVC038 03/03 A3022 RMK AO2 P0001 T00330028
KVGT 311853Z 33015G20KT 10SM BKN065 15/05 A2995 RMK AO2 SLP153 T01500050
KVIH 311853Z AUTO 17009KT 10SM -RA BKN037 OVC050 04/M03 A3023 RMK AO2 RAB40 SLP244 P0000 T00441028 $
KVIS 311855Z AUTO 31005KT 1 3/4SM CLR 12/11 A3003 RMK AO1
KVJI 311855Z AUTO 27004KT 10SM CLR 05/M12 A3029 RMK AO2 T00481124
KVKY 311855Z AUTO 12016KT 10SM CLR 17/10 A3024 RMK A01
KVLD 311853Z 14007KT 10SM CLR 16/M03 A3032 RMK AO2 SLP274 T01611028
KVLL 311855Z AUTO 21004KT 10SM CLR 02/M08 A3019 RMK AO2 T00161078
KVNC 311855Z AUTO 08011G14KT 10SM CLR 23/09 A3022 RMK AO2
KVNY 311851Z 13004KT 10SM CLR 19/09 A2992 RMK AO2 SLP125 T01890089
KVOA 311855Z AUTO 11015KT 9SM BKN028 BKN033 19/10 A3024 RMK A01
KVOK 311858Z 34003KT 10SM BKN015 OVC020 M01/M03 A3016 RMK AO2A SLP230
KVPC 311853Z AUTO 00000KT 10SM CLR 08/M06 A3034 RMK AO2 SLP272 T00831061
KVPS 311908Z 16007KT 10SM SCT250 15/00 A3029 RMK AO2A FU NW $
KVPZ 311856Z AUTO 22010KT 10SM OVC060 02/M04 A3019 RMK AO2 SLP233 T00221039 TSNO
KVQQ 311850Z 09007KT 10SM CLR 15/04 A3033
KVQT 311855Z AUTO 11018KT 7SM FEW039 20/16 A3014 RMK A01
KVRB 311853Z 09011KT 10SM CLR 21/09 A3025 RMK AO2 SLP243 T02110089
KVSF 311854Z AUTO 30015G21KT 10SM CLR M12/M24 A2999 RMK AO2 PK WND 30029/1816 SLP170 T11171244 TSNO
KVTA 311854Z AUTO 23010KT 10SM CLR M01/M08 A3028 RMK AO2 SLP269 T10111078
KVTI 311855Z AUTO 23003KT 1 3/4SM DZ OVC013 02/00 A3016 RMK AO2 T00231004
KVTN 311852Z AUTO 04014KT 1/4SM FZFG VV002 M04/M05 A3000 RMK AO2 SLP189 I1002 T10391050
KVTP 311855Z AUTO 1/2SM -SN OVC002 M02/M04 A2984 RMK AO2
KVUJ 311855Z AUTO 00000KT 10SM CLR 09/M13 A3035 RMK AO2 LTG DSNT E T00891131
KVUO 311853Z AUTO 01003KT 4SM BR OVC002 02/02 A3023 RMK AO2 PRESFR SLP237 T00220017
KVVG 311855Z AUTO 08009KT 7SM 20/07 A3017 RMK A01
KVVV 311854Z AUTO 36014KT 10SM OVC014 M07/M10 A3023 RMK AO2
KVWU 311852Z AUTO 36008KT 10SM CLR M14/M20 A3035 RMK AO2
KVYS 311855Z AUTO 23008KT 10SM OVC031 03/M01 A3019 RMK AO2 T00341011
KW13 311855Z AUTO 21004KT 10SM CLR 04/M17 A3019 RMK AO1 T00361175
KW22 311855Z AUTO VRB05G10KT 10SM CLR M04/M11 A3026 RMK AO2
KW29 311853Z AUTO 31011G16KT 10SM M01/M15 A3027 RMK AO1
KW31 311855Z AUTO 25003KT 10SM CLR 05/M17 A3027 RMK AO1 T00531168
KW43 311835Z AUTO 03006KT 10SM CLR A2992 RMK AO2 TSNO
KW63 311855Z AUTO 29005KT 10SM CLR 06/M15 A3029 RMK AO1
KW75 311855Z AUTO 32007KT 10SM CLR 01/M14 A3028 RMK AO1 T00071143
KW78 311855Z AUTO 25006KT 10SM CLR 07/M18 A3029 RMK AO1 T00671181
KW81 311855Z AUTO 27004KT 10SM CLR 05/M18 A3028 RMK AO1 T00481182
KW96 311855Z AUTO 26006KT 10SM CLR 02/M16 A3029 RMK AO1 T00221156
KW99 311855Z AUTO 00000KT 10SM CLR 01/M16 A3024 RMK AO2 T00141164
KWAL 311854Z AUTO 32018G23KT 10SM CLR M01/M14 A3024 RMK AO2 SLP236 T10061139
KWDG 311850Z 16015G22KT 5SM -RABR BKN008 BKN012 OVC038 05/05 A3005
KWDR 311855Z AUTO 19003KT 10SM CLR 11/M06 A3035 RMK AO1
KWHP 311847Z 12008KT 10SM FEW070 18/09 A2995
KWJF 311856Z 07008KT 10SM CLR 14/07 A3000 RMK AO2 SLP155 T01440067
KWLD 311854Z AUTO 16012KT 5SM -RA BKN011 OVC042 04/M01 A3009 RMK AO2 SLP195 P0003 T00441006
KWMC 311856Z AUTO 00000KT 10SM CLR 03/M02 A3023 RMK AO2 SLP248 T00331022
KWRB 311858Z AUTO 00000KT 10SM FEW170 13/M08 A3033 RMK AO2 SLP274 T01301079
KWRI 311858Z AUTO 30014G22KT 10SM CLR M04/M17 A3014 RMK AO2 PK WND 32027/12 SLP212 T10391168 $
KWRL 311853Z AUTO 20004KT 1/4SM FZFG VV001 M02/M04 A2995 RMK AO2 SLP184 T10221044
KWST 311853Z AUTO 32013G23KT 10SM CLR M06/M21 A2993 RMK AO2 PK WND 33027/1835 SLP135 T10611211
KWVI 311853Z AUTO VRB03KT 10SM CLR 17/08 A2999 RMK AO2 SLP155 T01720083 $
KWVL 311855Z 31015G20KT CLR M08/M16 A2969 RMK AO1
KWWD 311855Z AUTO 29017G23KT 10SM CLR M03/M14 A3021 RMK AO1
KWWR 311855Z AUTO 17012G16KT 10SM -DZ OVC010 05/03 A3000 RMK AO2
KXBP 311855Z AUTO 14011KT 10SM OVC019 10/03 A3009 RMK AO2 T00970031
KXIH 311855Z AUTO 10017KT 6SM HZ OVC029 15/13 A3012 RMK A01
KXLL 311855Z AUTO 30010G17KT 10SM CLR M03/M16 A3018 RMK AO2
KXMR 311858Z AUTO 08009KT 10SM CLR 20/10 A3027 RMK AO2 SLP254 T01990097
KXNA 311853Z 19011KT 10SM OVC110 08/M07 A3016 RMK AO2 SLP214 T00781067
KXPY 311855Z AUTO 08011G17KT 10SM CLR 19/12 A3024 RMK A01
KXSA 311855Z AUTO 28007KT 240V310 10SM CLR 02/M19 A3029 RMK AO2 T00241195
KXVG 311856Z AUTO 32006KT 10SM CLR M09/M17 A3026 RMK AO2
KY19 311855Z AUTO 07013G19KT 10SM FEW013 M10/M14 A3026 RMK AO2
KY23 311855Z AUTO 00000KT 10SM OVC024 M03/M08 A3019 RMK AO2 T10261076
KY49 311855Z AUTO 36008KT 10SM CLR M11/M20 A3027 RMK AO2 T11121201
KY50 311856Z AUTO 36005KT 10SM OVC019 M02/M06 A3016 RMK AO2 TSNO T10161061 SLP225
KY51 311855Z AUTO 36005KT 10SM OVC016 M01/M05 A3013 RMK AO1 T10101047
KY63 311857Z AUTO 03008G15KT 10SM OVC100 M06/M13 A3023 RMK AO2 T10571126
KY70 311853Z AUTO 24011KT 10SM OVC046 01/M03 A3014 RMK AO2 T00051035
KYIP 311853Z AUTO 21008KT 10SM SCT045 02/M06 A3019 RMK AO2 SLP230 T00221061 TSNO
KYKM 311853Z 00000KT 10SM OVC013 03/00 A3036 RMK AO2 SLP292 T00330000
KYKN 311855Z AUTO 05012KT 3SM OVC008 M02/M03 A3007 RMK AO1
KYNG 311851Z 24009KT 10SM FEW028 FEW110 SCT250 M04/M11 A3023 RMK AO2 SLP262 T10441106
KZPH 311855Z AUTO 10009G14KT 10SM CLR 21/06 A3026 RMK AO2
KZZV 311853Z AUTO VRB06KT 10SM CLR M02/M09 A3029 RMK AO2 SLP272 T10171089